<?xml version="1.0" encoding="UTF-8" standalone="no" ?>
<gpx xmlns="http://www.topografix.com/GPX/1/1" xmlns:xsi="http://www.w3.org/2001/XMLSchema-instance" xsi:schemaLocation="http://www.topografix.com/GPX/1/1 http://www.topografix.com/GPX/1/1/gpx.xsd" version="1.1" creator="VisuGPX - https://www.visugpx.com">
  <metadata>
    <name>Les Moidons,essai...</name>
  </metadata>
  <trk>
    <name><![CDATA[Les Moidons,essai..._1]]></name>
    <trkseg>
      <trkpt lat="46.85769" lon="5.89789">
        <ele>621.1</ele>
        <time>2020-02-12T12:30:34Z</time>
      </trkpt>
      <trkpt lat="46.85765" lon="5.89794">
        <ele>623.6</ele>
        <time>2020-02-12T12:30:43Z</time>
      </trkpt>
      <trkpt lat="46.8576" lon="5.89793">
        <ele>629.5</ele>
        <time>2020-02-12T12:30:56Z</time>
      </trkpt>
      <trkpt lat="46.85756" lon="5.89789">
        <ele>630.9</ele>
        <time>2020-02-12T12:30:59Z</time>
      </trkpt>
      <trkpt lat="46.85752" lon="5.89786">
        <ele>631.8</ele>
        <time>2020-02-12T12:31:03Z</time>
      </trkpt>
      <trkpt lat="46.85747" lon="5.89783">
        <ele>632.5</ele>
        <time>2020-02-12T12:31:11Z</time>
      </trkpt>
      <trkpt lat="46.85741" lon="5.89777">
        <ele>632.6</ele>
        <time>2020-02-12T12:31:17Z</time>
      </trkpt>
      <trkpt lat="46.85737" lon="5.89772">
        <ele>632.7</ele>
        <time>2020-02-12T12:31:21Z</time>
      </trkpt>
      <trkpt lat="46.85733" lon="5.89768">
        <ele>633</ele>
        <time>2020-02-12T12:31:27Z</time>
      </trkpt>
      <trkpt lat="46.85729" lon="5.89763">
        <ele>633.4</ele>
        <time>2020-02-12T12:31:31Z</time>
      </trkpt>
      <trkpt lat="46.85726" lon="5.89758">
        <ele>633.6</ele>
        <time>2020-02-12T12:31:33Z</time>
      </trkpt>
      <trkpt lat="46.8572" lon="5.89756">
        <ele>634</ele>
        <time>2020-02-12T12:31:37Z</time>
      </trkpt>
      <trkpt lat="46.85715" lon="5.89754">
        <ele>634.7</ele>
        <time>2020-02-12T12:31:41Z</time>
      </trkpt>
      <trkpt lat="46.8571" lon="5.89753">
        <ele>635.6</ele>
        <time>2020-02-12T12:31:45Z</time>
      </trkpt>
      <trkpt lat="46.85705" lon="5.89752">
        <ele>636.9</ele>
        <time>2020-02-12T12:31:50Z</time>
      </trkpt>
      <trkpt lat="46.85699" lon="5.89752">
        <ele>638.1</ele>
        <time>2020-02-12T12:31:55Z</time>
      </trkpt>
      <trkpt lat="46.85694" lon="5.89751">
        <ele>639.6</ele>
        <time>2020-02-12T12:32:00Z</time>
      </trkpt>
      <trkpt lat="46.85689" lon="5.8975">
        <ele>641.8</ele>
        <time>2020-02-12T12:32:06Z</time>
      </trkpt>
      <trkpt lat="46.85684" lon="5.89747">
        <ele>643.4</ele>
        <time>2020-02-12T12:32:13Z</time>
      </trkpt>
      <trkpt lat="46.85675" lon="5.89742">
        <ele>642.9</ele>
        <time>2020-02-12T12:32:21Z</time>
      </trkpt>
      <trkpt lat="46.8567" lon="5.8974">
        <ele>642.5</ele>
        <time>2020-02-12T12:32:24Z</time>
      </trkpt>
      <trkpt lat="46.85665" lon="5.89738">
        <ele>642.1</ele>
        <time>2020-02-12T12:32:30Z</time>
      </trkpt>
      <trkpt lat="46.85661" lon="5.89735">
        <ele>642.2</ele>
        <time>2020-02-12T12:32:35Z</time>
      </trkpt>
      <trkpt lat="46.85654" lon="5.89734">
        <ele>644.1</ele>
        <time>2020-02-12T12:32:43Z</time>
      </trkpt>
      <trkpt lat="46.85649" lon="5.89733">
        <ele>645.3</ele>
        <time>2020-02-12T12:32:46Z</time>
      </trkpt>
      <trkpt lat="46.85644" lon="5.8973">
        <ele>646.3</ele>
        <time>2020-02-12T12:32:49Z</time>
      </trkpt>
      <trkpt lat="46.85638" lon="5.89728">
        <ele>647.5</ele>
        <time>2020-02-12T12:32:53Z</time>
      </trkpt>
      <trkpt lat="46.85634" lon="5.89725">
        <ele>648.4</ele>
        <time>2020-02-12T12:32:59Z</time>
      </trkpt>
      <trkpt lat="46.8563" lon="5.89723">
        <ele>648.7</ele>
        <time>2020-02-12T12:33:04Z</time>
      </trkpt>
      <trkpt lat="46.85624" lon="5.89719">
        <ele>649.1</ele>
        <time>2020-02-12T12:33:10Z</time>
      </trkpt>
      <trkpt lat="46.8562" lon="5.89716">
        <ele>649.4</ele>
        <time>2020-02-12T12:33:13Z</time>
      </trkpt>
      <trkpt lat="46.85615" lon="5.89715">
        <ele>650.7</ele>
        <time>2020-02-12T12:33:22Z</time>
      </trkpt>
      <trkpt lat="46.85609" lon="5.89716">
        <ele>652.5</ele>
        <time>2020-02-12T12:33:27Z</time>
      </trkpt>
      <trkpt lat="46.85603" lon="5.89718">
        <ele>653.8</ele>
        <time>2020-02-12T12:33:30Z</time>
      </trkpt>
      <trkpt lat="46.85597" lon="5.89718">
        <ele>656.1</ele>
        <time>2020-02-12T12:33:35Z</time>
      </trkpt>
      <trkpt lat="46.85591" lon="5.89715">
        <ele>657.3</ele>
        <time>2020-02-12T12:33:39Z</time>
      </trkpt>
      <trkpt lat="46.85587" lon="5.89711">
        <ele>657.8</ele>
        <time>2020-02-12T12:33:42Z</time>
      </trkpt>
      <trkpt lat="46.85582" lon="5.89707">
        <ele>658.1</ele>
        <time>2020-02-12T12:33:45Z</time>
      </trkpt>
      <trkpt lat="46.85578" lon="5.89704">
        <ele>658.5</ele>
        <time>2020-02-12T12:33:49Z</time>
      </trkpt>
      <trkpt lat="46.85573" lon="5.89703">
        <ele>659.6</ele>
        <time>2020-02-12T12:33:58Z</time>
      </trkpt>
      <trkpt lat="46.85567" lon="5.89702">
        <ele>660.2</ele>
        <time>2020-02-12T12:34:02Z</time>
      </trkpt>
      <trkpt lat="46.85562" lon="5.89702">
        <ele>661.5</ele>
        <time>2020-02-12T12:34:07Z</time>
      </trkpt>
      <trkpt lat="46.85558" lon="5.897">
        <ele>663.6</ele>
        <time>2020-02-12T12:34:16Z</time>
      </trkpt>
      <trkpt lat="46.85553" lon="5.89697">
        <ele>664.5</ele>
        <time>2020-02-12T12:34:20Z</time>
      </trkpt>
      <trkpt lat="46.85547" lon="5.89693">
        <ele>665.4</ele>
        <time>2020-02-12T12:34:24Z</time>
      </trkpt>
      <trkpt lat="46.85541" lon="5.8969">
        <ele>666</ele>
        <time>2020-02-12T12:34:27Z</time>
      </trkpt>
      <trkpt lat="46.85536" lon="5.89688">
        <ele>667</ele>
        <time>2020-02-12T12:34:31Z</time>
      </trkpt>
      <trkpt lat="46.85531" lon="5.89687">
        <ele>668.3</ele>
        <time>2020-02-12T12:34:37Z</time>
      </trkpt>
      <trkpt lat="46.85525" lon="5.89686">
        <ele>670.1</ele>
        <time>2020-02-12T12:34:44Z</time>
      </trkpt>
      <trkpt lat="46.85513" lon="5.89679">
        <ele>672.3</ele>
        <time>2020-02-12T12:34:57Z</time>
      </trkpt>
      <trkpt lat="46.8551" lon="5.89673">
        <ele>672.5</ele>
        <time>2020-02-12T12:35:02Z</time>
      </trkpt>
      <trkpt lat="46.85507" lon="5.89668">
        <ele>672.6</ele>
        <time>2020-02-12T12:35:06Z</time>
      </trkpt>
      <trkpt lat="46.85504" lon="5.89663">
        <ele>672.7</ele>
        <time>2020-02-12T12:35:10Z</time>
      </trkpt>
      <trkpt lat="46.855" lon="5.89658">
        <ele>673.1</ele>
        <time>2020-02-12T12:35:20Z</time>
      </trkpt>
      <trkpt lat="46.85495" lon="5.89655">
        <ele>673.6</ele>
        <time>2020-02-12T12:35:26Z</time>
      </trkpt>
      <trkpt lat="46.85487" lon="5.89652">
        <ele>674.4</ele>
        <time>2020-02-12T12:35:36Z</time>
      </trkpt>
      <trkpt lat="46.85481" lon="5.89651">
        <ele>674.6</ele>
        <time>2020-02-12T12:35:38Z</time>
      </trkpt>
      <trkpt lat="46.85477" lon="5.89649">
        <ele>674.9</ele>
        <time>2020-02-12T12:35:41Z</time>
      </trkpt>
      <trkpt lat="46.85473" lon="5.89647">
        <ele>675.6</ele>
        <time>2020-02-12T12:35:46Z</time>
      </trkpt>
      <trkpt lat="46.85468" lon="5.89644">
        <ele>676.8</ele>
        <time>2020-02-12T12:35:51Z</time>
      </trkpt>
      <trkpt lat="46.85463" lon="5.89641">
        <ele>679.5</ele>
        <time>2020-02-12T12:35:59Z</time>
      </trkpt>
      <trkpt lat="46.85458" lon="5.8964">
        <ele>680.8</ele>
        <time>2020-02-12T12:36:02Z</time>
      </trkpt>
      <trkpt lat="46.85453" lon="5.89637">
        <ele>683</ele>
        <time>2020-02-12T12:36:07Z</time>
      </trkpt>
      <trkpt lat="46.85449" lon="5.89634">
        <ele>685.1</ele>
        <time>2020-02-12T12:36:12Z</time>
      </trkpt>
      <trkpt lat="46.85445" lon="5.8963">
        <ele>687.4</ele>
        <time>2020-02-12T12:36:19Z</time>
      </trkpt>
      <trkpt lat="46.85441" lon="5.89627">
        <ele>688.7</ele>
        <time>2020-02-12T12:36:27Z</time>
      </trkpt>
      <trkpt lat="46.8543" lon="5.89619">
        <ele>689.6</ele>
        <time>2020-02-12T12:39:39Z</time>
      </trkpt>
      <trkpt lat="46.85425" lon="5.89617">
        <ele>688.1</ele>
        <time>2020-02-12T12:39:42Z</time>
      </trkpt>
      <trkpt lat="46.8542" lon="5.89615">
        <ele>686.7</ele>
        <time>2020-02-12T12:39:45Z</time>
      </trkpt>
      <trkpt lat="46.85415" lon="5.89615">
        <ele>684</ele>
        <time>2020-02-12T12:39:51Z</time>
      </trkpt>
      <trkpt lat="46.8541" lon="5.89614">
        <ele>682.2</ele>
        <time>2020-02-12T12:39:59Z</time>
      </trkpt>
      <trkpt lat="46.85405" lon="5.89616">
        <ele>682.1</ele>
        <time>2020-02-12T12:40:03Z</time>
      </trkpt>
      <trkpt lat="46.85399" lon="5.89616">
        <ele>683.2</ele>
        <time>2020-02-12T12:40:10Z</time>
      </trkpt>
      <trkpt lat="46.85394" lon="5.89619">
        <ele>683.9</ele>
        <time>2020-02-12T12:40:13Z</time>
      </trkpt>
      <trkpt lat="46.85389" lon="5.89622">
        <ele>684.6</ele>
        <time>2020-02-12T12:40:16Z</time>
      </trkpt>
      <trkpt lat="46.85372" lon="5.89621">
        <ele>689.2</ele>
        <time>2020-02-12T12:40:33Z</time>
      </trkpt>
      <trkpt lat="46.85367" lon="5.89618">
        <ele>690</ele>
        <time>2020-02-12T12:40:37Z</time>
      </trkpt>
      <trkpt lat="46.85362" lon="5.89614">
        <ele>690.6</ele>
        <time>2020-02-12T12:40:42Z</time>
      </trkpt>
      <trkpt lat="46.85357" lon="5.89608">
        <ele>690.6</ele>
        <time>2020-02-12T12:40:47Z</time>
      </trkpt>
      <trkpt lat="46.85354" lon="5.89601">
        <ele>690.6</ele>
        <time>2020-02-12T12:40:50Z</time>
      </trkpt>
      <trkpt lat="46.85351" lon="5.89596">
        <ele>690.4</ele>
        <time>2020-02-12T12:40:55Z</time>
      </trkpt>
      <trkpt lat="46.85347" lon="5.89592">
        <ele>690.2</ele>
        <time>2020-02-12T12:41:04Z</time>
      </trkpt>
      <trkpt lat="46.85344" lon="5.89588">
        <ele>690</ele>
        <time>2020-02-12T12:41:10Z</time>
      </trkpt>
      <trkpt lat="46.8534" lon="5.89583">
        <ele>690.1</ele>
        <time>2020-02-12T12:41:15Z</time>
      </trkpt>
      <trkpt lat="46.85337" lon="5.89578">
        <ele>690.1</ele>
        <time>2020-02-12T12:41:22Z</time>
      </trkpt>
      <trkpt lat="46.85334" lon="5.89572">
        <ele>690</ele>
        <time>2020-02-12T12:41:29Z</time>
      </trkpt>
      <trkpt lat="46.85332" lon="5.89566">
        <ele>690.3</ele>
        <time>2020-02-12T12:41:34Z</time>
      </trkpt>
      <trkpt lat="46.85329" lon="5.8956">
        <ele>690.5</ele>
        <time>2020-02-12T12:41:37Z</time>
      </trkpt>
      <trkpt lat="46.85327" lon="5.89554">
        <ele>690.6</ele>
        <time>2020-02-12T12:41:47Z</time>
      </trkpt>
      <trkpt lat="46.85325" lon="5.89547">
        <ele>690.8</ele>
        <time>2020-02-12T12:41:52Z</time>
      </trkpt>
      <trkpt lat="46.85321" lon="5.8954">
        <ele>691.1</ele>
        <time>2020-02-12T12:41:55Z</time>
      </trkpt>
      <trkpt lat="46.85319" lon="5.89534">
        <ele>691.4</ele>
        <time>2020-02-12T12:41:57Z</time>
      </trkpt>
      <trkpt lat="46.85316" lon="5.89528">
        <ele>692</ele>
        <time>2020-02-12T12:42:00Z</time>
      </trkpt>
      <trkpt lat="46.85313" lon="5.89522">
        <ele>692.5</ele>
        <time>2020-02-12T12:42:03Z</time>
      </trkpt>
      <trkpt lat="46.85309" lon="5.89517">
        <ele>692.8</ele>
        <time>2020-02-12T12:42:06Z</time>
      </trkpt>
      <trkpt lat="46.85304" lon="5.89514">
        <ele>693.2</ele>
        <time>2020-02-12T12:42:12Z</time>
      </trkpt>
      <trkpt lat="46.85302" lon="5.89508">
        <ele>693.1</ele>
        <time>2020-02-12T12:42:18Z</time>
      </trkpt>
      <trkpt lat="46.85299" lon="5.895">
        <ele>693.3</ele>
        <time>2020-02-12T12:42:23Z</time>
      </trkpt>
      <trkpt lat="46.85297" lon="5.89494">
        <ele>693.7</ele>
        <time>2020-02-12T12:42:30Z</time>
      </trkpt>
      <trkpt lat="46.85296" lon="5.89488">
        <ele>693.8</ele>
        <time>2020-02-12T12:42:33Z</time>
      </trkpt>
      <trkpt lat="46.85294" lon="5.89481">
        <ele>693.5</ele>
        <time>2020-02-12T12:42:38Z</time>
      </trkpt>
      <trkpt lat="46.85291" lon="5.89475">
        <ele>692.8</ele>
        <time>2020-02-12T12:42:44Z</time>
      </trkpt>
      <trkpt lat="46.8529" lon="5.89468">
        <ele>692.5</ele>
        <time>2020-02-12T12:42:50Z</time>
      </trkpt>
      <trkpt lat="46.85286" lon="5.89462">
        <ele>692.5</ele>
        <time>2020-02-12T12:42:54Z</time>
      </trkpt>
      <trkpt lat="46.85279" lon="5.89453">
        <ele>692.9</ele>
        <time>2020-02-12T12:43:02Z</time>
      </trkpt>
      <trkpt lat="46.85276" lon="5.89448">
        <ele>692.7</ele>
        <time>2020-02-12T12:43:07Z</time>
      </trkpt>
      <trkpt lat="46.85273" lon="5.89442">
        <ele>692.6</ele>
        <time>2020-02-12T12:43:13Z</time>
      </trkpt>
      <trkpt lat="46.85266" lon="5.89429">
        <ele>692.9</ele>
        <time>2020-02-12T12:43:28Z</time>
      </trkpt>
      <trkpt lat="46.85259" lon="5.89414">
        <ele>694.8</ele>
        <time>2020-02-12T12:43:42Z</time>
      </trkpt>
      <trkpt lat="46.85256" lon="5.89408">
        <ele>695.7</ele>
        <time>2020-02-12T12:43:46Z</time>
      </trkpt>
      <trkpt lat="46.85251" lon="5.89403">
        <ele>696</ele>
        <time>2020-02-12T12:43:48Z</time>
      </trkpt>
      <trkpt lat="46.85246" lon="5.89397">
        <ele>696.7</ele>
        <time>2020-02-12T12:43:52Z</time>
      </trkpt>
      <trkpt lat="46.85243" lon="5.89391">
        <ele>697.3</ele>
        <time>2020-02-12T12:43:56Z</time>
      </trkpt>
      <trkpt lat="46.85242" lon="5.89385">
        <ele>698.4</ele>
        <time>2020-02-12T12:44:03Z</time>
      </trkpt>
      <trkpt lat="46.85239" lon="5.89378">
        <ele>699.1</ele>
        <time>2020-02-12T12:44:10Z</time>
      </trkpt>
      <trkpt lat="46.85237" lon="5.89373">
        <ele>699.3</ele>
        <time>2020-02-12T12:44:14Z</time>
      </trkpt>
      <trkpt lat="46.85233" lon="5.89367">
        <ele>699.4</ele>
        <time>2020-02-12T12:44:17Z</time>
      </trkpt>
      <trkpt lat="46.85228" lon="5.89361">
        <ele>699.4</ele>
        <time>2020-02-12T12:44:19Z</time>
      </trkpt>
      <trkpt lat="46.85226" lon="5.89354">
        <ele>699.4</ele>
        <time>2020-02-12T12:44:21Z</time>
      </trkpt>
      <trkpt lat="46.85223" lon="5.89348">
        <ele>699.4</ele>
        <time>2020-02-12T12:44:25Z</time>
      </trkpt>
      <trkpt lat="46.8522" lon="5.89341">
        <ele>699.5</ele>
        <time>2020-02-12T12:44:31Z</time>
      </trkpt>
      <trkpt lat="46.85217" lon="5.89337">
        <ele>699.2</ele>
        <time>2020-02-12T12:44:39Z</time>
      </trkpt>
      <trkpt lat="46.85212" lon="5.89334">
        <ele>698.8</ele>
        <time>2020-02-12T12:44:45Z</time>
      </trkpt>
      <trkpt lat="46.85208" lon="5.89329">
        <ele>698.4</ele>
        <time>2020-02-12T12:44:52Z</time>
      </trkpt>
      <trkpt lat="46.85203" lon="5.89326">
        <ele>698.2</ele>
        <time>2020-02-12T12:44:55Z</time>
      </trkpt>
      <trkpt lat="46.85199" lon="5.89322">
        <ele>697.6</ele>
        <time>2020-02-12T12:45:00Z</time>
      </trkpt>
      <trkpt lat="46.85195" lon="5.89317">
        <ele>697.3</ele>
        <time>2020-02-12T12:45:03Z</time>
      </trkpt>
      <trkpt lat="46.8519" lon="5.89313">
        <ele>696.9</ele>
        <time>2020-02-12T12:45:08Z</time>
      </trkpt>
      <trkpt lat="46.85185" lon="5.8931">
        <ele>696.6</ele>
        <time>2020-02-12T12:45:13Z</time>
      </trkpt>
      <trkpt lat="46.8518" lon="5.89307">
        <ele>696.2</ele>
        <time>2020-02-12T12:45:18Z</time>
      </trkpt>
      <trkpt lat="46.85176" lon="5.89303">
        <ele>695.9</ele>
        <time>2020-02-12T12:45:22Z</time>
      </trkpt>
      <trkpt lat="46.85172" lon="5.89299">
        <ele>695.6</ele>
        <time>2020-02-12T12:45:26Z</time>
      </trkpt>
      <trkpt lat="46.85168" lon="5.89296">
        <ele>695.1</ele>
        <time>2020-02-12T12:45:30Z</time>
      </trkpt>
      <trkpt lat="46.85164" lon="5.89292">
        <ele>694.4</ele>
        <time>2020-02-12T12:45:35Z</time>
      </trkpt>
      <trkpt lat="46.8516" lon="5.89289">
        <ele>694.2</ele>
        <time>2020-02-12T12:45:41Z</time>
      </trkpt>
      <trkpt lat="46.85153" lon="5.89286">
        <ele>694.6</ele>
        <time>2020-02-12T12:45:46Z</time>
      </trkpt>
      <trkpt lat="46.85149" lon="5.89281">
        <ele>695</ele>
        <time>2020-02-12T12:45:49Z</time>
      </trkpt>
      <trkpt lat="46.85144" lon="5.89279">
        <ele>695.7</ele>
        <time>2020-02-12T12:45:54Z</time>
      </trkpt>
      <trkpt lat="46.8514" lon="5.89278">
        <ele>696.3</ele>
        <time>2020-02-12T12:45:59Z</time>
      </trkpt>
      <trkpt lat="46.85135" lon="5.89274">
        <ele>697.3</ele>
        <time>2020-02-12T12:46:08Z</time>
      </trkpt>
      <trkpt lat="46.85131" lon="5.89269">
        <ele>697.7</ele>
        <time>2020-02-12T12:46:11Z</time>
      </trkpt>
      <trkpt lat="46.85126" lon="5.89266">
        <ele>698.4</ele>
        <time>2020-02-12T12:46:15Z</time>
      </trkpt>
      <trkpt lat="46.85122" lon="5.89261">
        <ele>698.8</ele>
        <time>2020-02-12T12:46:19Z</time>
      </trkpt>
      <trkpt lat="46.85119" lon="5.89255">
        <ele>699.2</ele>
        <time>2020-02-12T12:46:25Z</time>
      </trkpt>
      <trkpt lat="46.85116" lon="5.89249">
        <ele>699.6</ele>
        <time>2020-02-12T12:46:33Z</time>
      </trkpt>
      <trkpt lat="46.8511" lon="5.89244">
        <ele>700</ele>
        <time>2020-02-12T12:46:36Z</time>
      </trkpt>
      <trkpt lat="46.85106" lon="5.8924">
        <ele>700.3</ele>
        <time>2020-02-12T12:46:38Z</time>
      </trkpt>
      <trkpt lat="46.85102" lon="5.89235">
        <ele>700.9</ele>
        <time>2020-02-12T12:46:41Z</time>
      </trkpt>
      <trkpt lat="46.85099" lon="5.8923">
        <ele>702.4</ele>
        <time>2020-02-12T12:46:47Z</time>
      </trkpt>
      <trkpt lat="46.85097" lon="5.89224">
        <ele>703.9</ele>
        <time>2020-02-12T12:46:54Z</time>
      </trkpt>
      <trkpt lat="46.85093" lon="5.8922">
        <ele>705.2</ele>
        <time>2020-02-12T12:47:00Z</time>
      </trkpt>
      <trkpt lat="46.85089" lon="5.89217">
        <ele>706.1</ele>
        <time>2020-02-12T12:47:04Z</time>
      </trkpt>
      <trkpt lat="46.85084" lon="5.89214">
        <ele>707.1</ele>
        <time>2020-02-12T12:47:10Z</time>
      </trkpt>
      <trkpt lat="46.85078" lon="5.8921">
        <ele>708</ele>
        <time>2020-02-12T12:47:15Z</time>
      </trkpt>
      <trkpt lat="46.85072" lon="5.89209">
        <ele>708.4</ele>
        <time>2020-02-12T12:47:17Z</time>
      </trkpt>
      <trkpt lat="46.85067" lon="5.89208">
        <ele>709.4</ele>
        <time>2020-02-12T12:47:21Z</time>
      </trkpt>
      <trkpt lat="46.85062" lon="5.89204">
        <ele>710.5</ele>
        <time>2020-02-12T12:47:26Z</time>
      </trkpt>
      <trkpt lat="46.85058" lon="5.89201">
        <ele>711.2</ele>
        <time>2020-02-12T12:47:32Z</time>
      </trkpt>
      <trkpt lat="46.85053" lon="5.89197">
        <ele>711.4</ele>
        <time>2020-02-12T12:47:37Z</time>
      </trkpt>
      <trkpt lat="46.85049" lon="5.89191">
        <ele>711</ele>
        <time>2020-02-12T12:47:43Z</time>
      </trkpt>
      <trkpt lat="46.85045" lon="5.89185">
        <ele>710.3</ele>
        <time>2020-02-12T12:47:48Z</time>
      </trkpt>
      <trkpt lat="46.85042" lon="5.89178">
        <ele>709.7</ele>
        <time>2020-02-12T12:47:51Z</time>
      </trkpt>
      <trkpt lat="46.85039" lon="5.89172">
        <ele>709.2</ele>
        <time>2020-02-12T12:47:54Z</time>
      </trkpt>
      <trkpt lat="46.85036" lon="5.89166">
        <ele>708.8</ele>
        <time>2020-02-12T12:47:58Z</time>
      </trkpt>
      <trkpt lat="46.85033" lon="5.8916">
        <ele>708.5</ele>
        <time>2020-02-12T12:48:04Z</time>
      </trkpt>
      <trkpt lat="46.85029" lon="5.89155">
        <ele>708.5</ele>
        <time>2020-02-12T12:48:11Z</time>
      </trkpt>
      <trkpt lat="46.85026" lon="5.8915">
        <ele>708.9</ele>
        <time>2020-02-12T12:48:15Z</time>
      </trkpt>
      <trkpt lat="46.85023" lon="5.89145">
        <ele>709.4</ele>
        <time>2020-02-12T12:48:19Z</time>
      </trkpt>
      <trkpt lat="46.8502" lon="5.89139">
        <ele>710.2</ele>
        <time>2020-02-12T12:48:25Z</time>
      </trkpt>
      <trkpt lat="46.85018" lon="5.89134">
        <ele>711.1</ele>
        <time>2020-02-12T12:48:32Z</time>
      </trkpt>
      <trkpt lat="46.85016" lon="5.89127">
        <ele>711.7</ele>
        <time>2020-02-12T12:48:36Z</time>
      </trkpt>
      <trkpt lat="46.85013" lon="5.89121">
        <ele>712.6</ele>
        <time>2020-02-12T12:48:44Z</time>
      </trkpt>
      <trkpt lat="46.85009" lon="5.89115">
        <ele>712.8</ele>
        <time>2020-02-12T12:48:46Z</time>
      </trkpt>
      <trkpt lat="46.85006" lon="5.8911">
        <ele>713</ele>
        <time>2020-02-12T12:48:49Z</time>
      </trkpt>
      <trkpt lat="46.85002" lon="5.89105">
        <ele>713.1</ele>
        <time>2020-02-12T12:48:54Z</time>
      </trkpt>
      <trkpt lat="46.85" lon="5.89098">
        <ele>712.8</ele>
        <time>2020-02-12T12:49:02Z</time>
      </trkpt>
      <trkpt lat="46.84991" lon="5.89081">
        <ele>713.1</ele>
        <time>2020-02-12T12:49:14Z</time>
      </trkpt>
      <trkpt lat="46.84988" lon="5.89076">
        <ele>713.4</ele>
        <time>2020-02-12T12:49:17Z</time>
      </trkpt>
      <trkpt lat="46.84984" lon="5.89067">
        <ele>713.5</ele>
        <time>2020-02-12T12:49:20Z</time>
      </trkpt>
      <trkpt lat="46.8498" lon="5.89061">
        <ele>713.5</ele>
        <time>2020-02-12T12:49:22Z</time>
      </trkpt>
      <trkpt lat="46.84977" lon="5.89055">
        <ele>713.5</ele>
        <time>2020-02-12T12:49:25Z</time>
      </trkpt>
      <trkpt lat="46.84974" lon="5.89049">
        <ele>713.5</ele>
        <time>2020-02-12T12:49:31Z</time>
      </trkpt>
      <trkpt lat="46.84969" lon="5.89043">
        <ele>713.7</ele>
        <time>2020-02-12T12:49:36Z</time>
      </trkpt>
      <trkpt lat="46.84966" lon="5.89038">
        <ele>713.6</ele>
        <time>2020-02-12T12:49:44Z</time>
      </trkpt>
      <trkpt lat="46.84965" lon="5.89052">
        <ele>708.7</ele>
        <time>2020-02-12T12:50:21Z</time>
      </trkpt>
      <trkpt lat="46.84959" lon="5.89073">
        <ele>708.3</ele>
        <time>2020-02-12T12:50:40Z</time>
      </trkpt>
      <trkpt lat="46.84957" lon="5.8909">
        <ele>707.9</ele>
        <time>2020-02-12T12:50:50Z</time>
      </trkpt>
      <trkpt lat="46.84955" lon="5.89098">
        <ele>708.1</ele>
        <time>2020-02-12T12:50:53Z</time>
      </trkpt>
      <trkpt lat="46.84953" lon="5.89104">
        <ele>708.5</ele>
        <time>2020-02-12T12:51:00Z</time>
      </trkpt>
      <trkpt lat="46.8495" lon="5.89111">
        <ele>709.6</ele>
        <time>2020-02-12T12:51:07Z</time>
      </trkpt>
      <trkpt lat="46.84944" lon="5.89122">
        <ele>710.5</ele>
        <time>2020-02-12T12:51:15Z</time>
      </trkpt>
      <trkpt lat="46.84941" lon="5.89128">
        <ele>710.6</ele>
        <time>2020-02-12T12:51:19Z</time>
      </trkpt>
      <trkpt lat="46.84939" lon="5.89133">
        <ele>710.7</ele>
        <time>2020-02-12T12:51:22Z</time>
      </trkpt>
      <trkpt lat="46.84937" lon="5.8914">
        <ele>710.5</ele>
        <time>2020-02-12T12:51:33Z</time>
      </trkpt>
      <trkpt lat="46.84933" lon="5.89158">
        <ele>708.3</ele>
        <time>2020-02-12T12:51:56Z</time>
      </trkpt>
      <trkpt lat="46.84931" lon="5.89169">
        <ele>708</ele>
        <time>2020-02-12T12:51:59Z</time>
      </trkpt>
      <trkpt lat="46.8493" lon="5.89176">
        <ele>707.6</ele>
        <time>2020-02-12T12:52:03Z</time>
      </trkpt>
      <trkpt lat="46.84928" lon="5.89183">
        <ele>706.1</ele>
        <time>2020-02-12T12:52:11Z</time>
      </trkpt>
      <trkpt lat="46.84926" lon="5.8919">
        <ele>705.3</ele>
        <time>2020-02-12T12:52:17Z</time>
      </trkpt>
      <trkpt lat="46.84923" lon="5.89195">
        <ele>704.9</ele>
        <time>2020-02-12T12:52:20Z</time>
      </trkpt>
      <trkpt lat="46.84922" lon="5.89202">
        <ele>703.6</ele>
        <time>2020-02-12T12:52:27Z</time>
      </trkpt>
      <trkpt lat="46.8492" lon="5.89208">
        <ele>701.1</ele>
        <time>2020-02-12T12:52:35Z</time>
      </trkpt>
      <trkpt lat="46.84917" lon="5.89214">
        <ele>700.4</ele>
        <time>2020-02-12T12:52:37Z</time>
      </trkpt>
      <trkpt lat="46.84914" lon="5.89223">
        <ele>699</ele>
        <time>2020-02-12T12:52:41Z</time>
      </trkpt>
      <trkpt lat="46.84912" lon="5.89229">
        <ele>698.4</ele>
        <time>2020-02-12T12:52:43Z</time>
      </trkpt>
      <trkpt lat="46.84911" lon="5.89235">
        <ele>696.7</ele>
        <time>2020-02-12T12:52:48Z</time>
      </trkpt>
      <trkpt lat="46.84909" lon="5.89242">
        <ele>693.9</ele>
        <time>2020-02-12T12:52:57Z</time>
      </trkpt>
      <trkpt lat="46.84905" lon="5.8926">
        <ele>689.7</ele>
        <time>2020-02-12T12:53:10Z</time>
      </trkpt>
      <trkpt lat="46.84903" lon="5.89266">
        <ele>689.6</ele>
        <time>2020-02-12T12:53:12Z</time>
      </trkpt>
      <trkpt lat="46.84901" lon="5.89272">
        <ele>689.1</ele>
        <time>2020-02-12T12:53:17Z</time>
      </trkpt>
      <trkpt lat="46.84896" lon="5.89285">
        <ele>690.1</ele>
        <time>2020-02-12T12:53:44Z</time>
      </trkpt>
      <trkpt lat="46.84892" lon="5.89319">
        <ele>689.1</ele>
        <time>2020-02-12T12:53:59Z</time>
      </trkpt>
      <trkpt lat="46.8489" lon="5.89325">
        <ele>689.1</ele>
        <time>2020-02-12T12:54:08Z</time>
      </trkpt>
      <trkpt lat="46.84889" lon="5.89332">
        <ele>689.7</ele>
        <time>2020-02-12T12:54:15Z</time>
      </trkpt>
      <trkpt lat="46.84886" lon="5.89345">
        <ele>692</ele>
        <time>2020-02-12T12:54:35Z</time>
      </trkpt>
      <trkpt lat="46.84884" lon="5.89353">
        <ele>692.1</ele>
        <time>2020-02-12T12:54:37Z</time>
      </trkpt>
      <trkpt lat="46.84882" lon="5.8936">
        <ele>692.1</ele>
        <time>2020-02-12T12:54:39Z</time>
      </trkpt>
      <trkpt lat="46.84875" lon="5.89391">
        <ele>690.9</ele>
        <time>2020-02-12T12:55:00Z</time>
      </trkpt>
      <trkpt lat="46.84873" lon="5.89398">
        <ele>690.9</ele>
        <time>2020-02-12T12:55:03Z</time>
      </trkpt>
      <trkpt lat="46.8487" lon="5.89406">
        <ele>690.9</ele>
        <time>2020-02-12T12:55:10Z</time>
      </trkpt>
      <trkpt lat="46.84867" lon="5.89412">
        <ele>690.8</ele>
        <time>2020-02-12T12:55:14Z</time>
      </trkpt>
      <trkpt lat="46.84858" lon="5.89437">
        <ele>688.9</ele>
        <time>2020-02-12T12:55:35Z</time>
      </trkpt>
      <trkpt lat="46.84858" lon="5.89445">
        <ele>689</ele>
        <time>2020-02-12T12:55:40Z</time>
      </trkpt>
      <trkpt lat="46.84852" lon="5.89464">
        <ele>688.3</ele>
        <time>2020-02-12T12:55:55Z</time>
      </trkpt>
      <trkpt lat="46.84848" lon="5.89477">
        <ele>683.7</ele>
        <time>2020-02-12T12:56:12Z</time>
      </trkpt>
      <trkpt lat="46.84845" lon="5.89485">
        <ele>683.1</ele>
        <time>2020-02-12T12:56:15Z</time>
      </trkpt>
      <trkpt lat="46.84842" lon="5.89502">
        <ele>677.4</ele>
        <time>2020-02-12T12:56:31Z</time>
      </trkpt>
      <trkpt lat="46.84839" lon="5.89508">
        <ele>676</ele>
        <time>2020-02-12T12:56:37Z</time>
      </trkpt>
      <trkpt lat="46.84838" lon="5.89517">
        <ele>675.8</ele>
        <time>2020-02-12T12:56:39Z</time>
      </trkpt>
      <trkpt lat="46.84835" lon="5.89526">
        <ele>675.5</ele>
        <time>2020-02-12T12:56:43Z</time>
      </trkpt>
      <trkpt lat="46.84831" lon="5.89533">
        <ele>675.5</ele>
        <time>2020-02-12T12:56:45Z</time>
      </trkpt>
      <trkpt lat="46.84826" lon="5.89548">
        <ele>675.8</ele>
        <time>2020-02-12T12:57:00Z</time>
      </trkpt>
      <trkpt lat="46.84824" lon="5.89554">
        <ele>675.7</ele>
        <time>2020-02-12T12:57:04Z</time>
      </trkpt>
      <trkpt lat="46.84823" lon="5.89562">
        <ele>675.7</ele>
        <time>2020-02-12T12:57:08Z</time>
      </trkpt>
      <trkpt lat="46.84822" lon="5.89568">
        <ele>675.6</ele>
        <time>2020-02-12T12:57:14Z</time>
      </trkpt>
      <trkpt lat="46.84812" lon="5.89597">
        <ele>666.1</ele>
        <time>2020-02-12T12:59:22Z</time>
      </trkpt>
      <trkpt lat="46.8481" lon="5.89604">
        <ele>666.1</ele>
        <time>2020-02-12T12:59:27Z</time>
      </trkpt>
      <trkpt lat="46.84809" lon="5.89611">
        <ele>665.6</ele>
        <time>2020-02-12T12:59:33Z</time>
      </trkpt>
      <trkpt lat="46.84808" lon="5.89618">
        <ele>664.8</ele>
        <time>2020-02-12T12:59:40Z</time>
      </trkpt>
      <trkpt lat="46.84806" lon="5.89625">
        <ele>664.6</ele>
        <time>2020-02-12T12:59:43Z</time>
      </trkpt>
      <trkpt lat="46.84803" lon="5.89636">
        <ele>662.4</ele>
        <time>2020-02-12T12:59:56Z</time>
      </trkpt>
      <trkpt lat="46.84801" lon="5.89642">
        <ele>657.6</ele>
        <time>2020-02-12T13:00:12Z</time>
      </trkpt>
      <trkpt lat="46.84798" lon="5.89649">
        <ele>656</ele>
        <time>2020-02-12T13:00:15Z</time>
      </trkpt>
      <trkpt lat="46.84796" lon="5.89655">
        <ele>652.5</ele>
        <time>2020-02-12T13:00:22Z</time>
      </trkpt>
      <trkpt lat="46.84782" lon="5.89697">
        <ele>635</ele>
        <time>2020-02-12T13:01:04Z</time>
      </trkpt>
      <trkpt lat="46.84779" lon="5.89702">
        <ele>633.7</ele>
        <time>2020-02-12T13:01:09Z</time>
      </trkpt>
      <trkpt lat="46.84768" lon="5.89739">
        <ele>635.6</ele>
        <time>2020-02-12T13:02:25Z</time>
      </trkpt>
      <trkpt lat="46.84768" lon="5.89749">
        <ele>635.4</ele>
        <time>2020-02-12T13:02:27Z</time>
      </trkpt>
      <trkpt lat="46.84767" lon="5.89756">
        <ele>635.4</ele>
        <time>2020-02-12T13:02:29Z</time>
      </trkpt>
      <trkpt lat="46.84765" lon="5.89765">
        <ele>635.4</ele>
        <time>2020-02-12T13:02:33Z</time>
      </trkpt>
      <trkpt lat="46.84764" lon="5.89773">
        <ele>635.8</ele>
        <time>2020-02-12T13:02:39Z</time>
      </trkpt>
      <trkpt lat="46.84761" lon="5.89778">
        <ele>635.9</ele>
        <time>2020-02-12T13:02:44Z</time>
      </trkpt>
      <trkpt lat="46.84759" lon="5.89787">
        <ele>636.1</ele>
        <time>2020-02-12T13:02:48Z</time>
      </trkpt>
      <trkpt lat="46.84751" lon="5.89812">
        <ele>636.1</ele>
        <time>2020-02-12T13:03:01Z</time>
      </trkpt>
      <trkpt lat="46.84749" lon="5.89818">
        <ele>636.3</ele>
        <time>2020-02-12T13:03:06Z</time>
      </trkpt>
      <trkpt lat="46.84747" lon="5.89825">
        <ele>636.6</ele>
        <time>2020-02-12T13:03:12Z</time>
      </trkpt>
      <trkpt lat="46.84744" lon="5.89832">
        <ele>636.5</ele>
        <time>2020-02-12T13:03:20Z</time>
      </trkpt>
      <trkpt lat="46.84742" lon="5.89839">
        <ele>636.5</ele>
        <time>2020-02-12T13:03:26Z</time>
      </trkpt>
      <trkpt lat="46.84738" lon="5.89846">
        <ele>636.8</ele>
        <time>2020-02-12T13:03:28Z</time>
      </trkpt>
      <trkpt lat="46.84733" lon="5.89853">
        <ele>637</ele>
        <time>2020-02-12T13:03:30Z</time>
      </trkpt>
      <trkpt lat="46.8473" lon="5.89859">
        <ele>637.6</ele>
        <time>2020-02-12T13:03:34Z</time>
      </trkpt>
      <trkpt lat="46.84726" lon="5.8987">
        <ele>639.5</ele>
        <time>2020-02-12T13:03:44Z</time>
      </trkpt>
      <trkpt lat="46.84726" lon="5.89877">
        <ele>640.5</ele>
        <time>2020-02-12T13:03:49Z</time>
      </trkpt>
      <trkpt lat="46.84719" lon="5.89901">
        <ele>645.4</ele>
        <time>2020-02-12T13:04:21Z</time>
      </trkpt>
      <trkpt lat="46.84718" lon="5.89908">
        <ele>646.3</ele>
        <time>2020-02-12T13:04:24Z</time>
      </trkpt>
      <trkpt lat="46.84716" lon="5.89928">
        <ele>650.5</ele>
        <time>2020-02-12T13:04:35Z</time>
      </trkpt>
      <trkpt lat="46.84714" lon="5.89935">
        <ele>651.1</ele>
        <time>2020-02-12T13:04:40Z</time>
      </trkpt>
      <trkpt lat="46.84713" lon="5.89943">
        <ele>651.1</ele>
        <time>2020-02-12T13:04:44Z</time>
      </trkpt>
      <trkpt lat="46.84712" lon="5.89949">
        <ele>650.6</ele>
        <time>2020-02-12T13:04:50Z</time>
      </trkpt>
      <trkpt lat="46.84712" lon="5.89956">
        <ele>650.4</ele>
        <time>2020-02-12T13:04:58Z</time>
      </trkpt>
      <trkpt lat="46.8471" lon="5.89963">
        <ele>650.5</ele>
        <time>2020-02-12T13:05:01Z</time>
      </trkpt>
      <trkpt lat="46.84705" lon="5.89975">
        <ele>649.6</ele>
        <time>2020-02-12T13:05:10Z</time>
      </trkpt>
      <trkpt lat="46.84701" lon="5.8998">
        <ele>649.3</ele>
        <time>2020-02-12T13:05:13Z</time>
      </trkpt>
      <trkpt lat="46.84698" lon="5.89987">
        <ele>649</ele>
        <time>2020-02-12T13:05:16Z</time>
      </trkpt>
      <trkpt lat="46.84696" lon="5.89993">
        <ele>648.6</ele>
        <time>2020-02-12T13:05:19Z</time>
      </trkpt>
      <trkpt lat="46.84693" lon="5.9">
        <ele>648.5</ele>
        <time>2020-02-12T13:05:23Z</time>
      </trkpt>
      <trkpt lat="46.84689" lon="5.90007">
        <ele>648.7</ele>
        <time>2020-02-12T13:05:28Z</time>
      </trkpt>
      <trkpt lat="46.84686" lon="5.90014">
        <ele>649.2</ele>
        <time>2020-02-12T13:05:32Z</time>
      </trkpt>
      <trkpt lat="46.84684" lon="5.90021">
        <ele>649.8</ele>
        <time>2020-02-12T13:05:35Z</time>
      </trkpt>
      <trkpt lat="46.8468" lon="5.90027">
        <ele>650.6</ele>
        <time>2020-02-12T13:05:38Z</time>
      </trkpt>
      <trkpt lat="46.84679" lon="5.90041">
        <ele>652.6</ele>
        <time>2020-02-12T13:05:55Z</time>
      </trkpt>
      <trkpt lat="46.8468" lon="5.90048">
        <ele>650.2</ele>
        <time>2020-02-12T13:06:02Z</time>
      </trkpt>
      <trkpt lat="46.8468" lon="5.90055">
        <ele>647.6</ele>
        <time>2020-02-12T13:06:08Z</time>
      </trkpt>
      <trkpt lat="46.8468" lon="5.90061">
        <ele>645</ele>
        <time>2020-02-12T13:06:14Z</time>
      </trkpt>
      <trkpt lat="46.84677" lon="5.90068">
        <ele>643.1</ele>
        <time>2020-02-12T13:06:19Z</time>
      </trkpt>
      <trkpt lat="46.84675" lon="5.90076">
        <ele>642.5</ele>
        <time>2020-02-12T13:06:21Z</time>
      </trkpt>
      <trkpt lat="46.84673" lon="5.90082">
        <ele>641.2</ele>
        <time>2020-02-12T13:06:27Z</time>
      </trkpt>
      <trkpt lat="46.84672" lon="5.90088">
        <ele>639.6</ele>
        <time>2020-02-12T13:06:38Z</time>
      </trkpt>
      <trkpt lat="46.84669" lon="5.90095">
        <ele>638.3</ele>
        <time>2020-02-12T13:06:45Z</time>
      </trkpt>
      <trkpt lat="46.84667" lon="5.90101">
        <ele>637.2</ele>
        <time>2020-02-12T13:06:49Z</time>
      </trkpt>
      <trkpt lat="46.84666" lon="5.90108">
        <ele>635.3</ele>
        <time>2020-02-12T13:06:54Z</time>
      </trkpt>
      <trkpt lat="46.84666" lon="5.90115">
        <ele>631.7</ele>
        <time>2020-02-12T13:07:02Z</time>
      </trkpt>
      <trkpt lat="46.84664" lon="5.90123">
        <ele>629.3</ele>
        <time>2020-02-12T13:07:09Z</time>
      </trkpt>
      <trkpt lat="46.8466" lon="5.90135">
        <ele>627.3</ele>
        <time>2020-02-12T13:07:16Z</time>
      </trkpt>
      <trkpt lat="46.84658" lon="5.90142">
        <ele>627.5</ele>
        <time>2020-02-12T13:07:19Z</time>
      </trkpt>
      <trkpt lat="46.84656" lon="5.9015">
        <ele>627.8</ele>
        <time>2020-02-12T13:07:22Z</time>
      </trkpt>
      <trkpt lat="46.84654" lon="5.90158">
        <ele>628.1</ele>
        <time>2020-02-12T13:07:24Z</time>
      </trkpt>
      <trkpt lat="46.84652" lon="5.90167">
        <ele>628.8</ele>
        <time>2020-02-12T13:07:27Z</time>
      </trkpt>
      <trkpt lat="46.84651" lon="5.90174">
        <ele>629.8</ele>
        <time>2020-02-12T13:07:31Z</time>
      </trkpt>
      <trkpt lat="46.84649" lon="5.90181">
        <ele>631.4</ele>
        <time>2020-02-12T13:07:36Z</time>
      </trkpt>
      <trkpt lat="46.84648" lon="5.90189">
        <ele>632.8</ele>
        <time>2020-02-12T13:07:42Z</time>
      </trkpt>
      <trkpt lat="46.84646" lon="5.90197">
        <ele>633.9</ele>
        <time>2020-02-12T13:07:48Z</time>
      </trkpt>
      <trkpt lat="46.84644" lon="5.90204">
        <ele>634.5</ele>
        <time>2020-02-12T13:07:52Z</time>
      </trkpt>
      <trkpt lat="46.84639" lon="5.90212">
        <ele>635</ele>
        <time>2020-02-12T13:07:55Z</time>
      </trkpt>
      <trkpt lat="46.84637" lon="5.90219">
        <ele>635.8</ele>
        <time>2020-02-12T13:07:59Z</time>
      </trkpt>
      <trkpt lat="46.84633" lon="5.9023">
        <ele>637.3</ele>
        <time>2020-02-12T13:08:08Z</time>
      </trkpt>
      <trkpt lat="46.84631" lon="5.90237">
        <ele>637.2</ele>
        <time>2020-02-12T13:08:12Z</time>
      </trkpt>
      <trkpt lat="46.84628" lon="5.90244">
        <ele>636.7</ele>
        <time>2020-02-12T13:08:16Z</time>
      </trkpt>
      <trkpt lat="46.84626" lon="5.9025">
        <ele>635.5</ele>
        <time>2020-02-12T13:08:22Z</time>
      </trkpt>
      <trkpt lat="46.84625" lon="5.90257">
        <ele>634.1</ele>
        <time>2020-02-12T13:08:28Z</time>
      </trkpt>
      <trkpt lat="46.84622" lon="5.90264">
        <ele>632.8</ele>
        <time>2020-02-12T13:08:33Z</time>
      </trkpt>
      <trkpt lat="46.8462" lon="5.9027">
        <ele>631.2</ele>
        <time>2020-02-12T13:08:39Z</time>
      </trkpt>
      <trkpt lat="46.84617" lon="5.90275">
        <ele>630</ele>
        <time>2020-02-12T13:08:44Z</time>
      </trkpt>
      <trkpt lat="46.84614" lon="5.90281">
        <ele>629</ele>
        <time>2020-02-12T13:08:49Z</time>
      </trkpt>
      <trkpt lat="46.84608" lon="5.90298">
        <ele>627.9</ele>
        <time>2020-02-12T13:08:57Z</time>
      </trkpt>
      <trkpt lat="46.84607" lon="5.90305">
        <ele>627.9</ele>
        <time>2020-02-12T13:09:00Z</time>
      </trkpt>
      <trkpt lat="46.84605" lon="5.90311">
        <ele>628.2</ele>
        <time>2020-02-12T13:09:04Z</time>
      </trkpt>
      <trkpt lat="46.84605" lon="5.90319">
        <ele>628.6</ele>
        <time>2020-02-12T13:09:08Z</time>
      </trkpt>
      <trkpt lat="46.84603" lon="5.90327">
        <ele>629.2</ele>
        <time>2020-02-12T13:09:11Z</time>
      </trkpt>
      <trkpt lat="46.84603" lon="5.90334">
        <ele>629.8</ele>
        <time>2020-02-12T13:09:14Z</time>
      </trkpt>
      <trkpt lat="46.84602" lon="5.90341">
        <ele>630.6</ele>
        <time>2020-02-12T13:09:17Z</time>
      </trkpt>
      <trkpt lat="46.84597" lon="5.90357">
        <ele>633.9</ele>
        <time>2020-02-12T13:09:30Z</time>
      </trkpt>
      <trkpt lat="46.84594" lon="5.90364">
        <ele>634.3</ele>
        <time>2020-02-12T13:09:33Z</time>
      </trkpt>
      <trkpt lat="46.84593" lon="5.90371">
        <ele>634.8</ele>
        <time>2020-02-12T13:09:40Z</time>
      </trkpt>
      <trkpt lat="46.84592" lon="5.90379">
        <ele>634.9</ele>
        <time>2020-02-12T13:09:42Z</time>
      </trkpt>
      <trkpt lat="46.8459" lon="5.90385">
        <ele>635.1</ele>
        <time>2020-02-12T13:09:44Z</time>
      </trkpt>
      <trkpt lat="46.84588" lon="5.90391">
        <ele>635.9</ele>
        <time>2020-02-12T13:09:49Z</time>
      </trkpt>
      <trkpt lat="46.84585" lon="5.90402">
        <ele>638.5</ele>
        <time>2020-02-12T13:10:01Z</time>
      </trkpt>
      <trkpt lat="46.84579" lon="5.90421">
        <ele>640.7</ele>
        <time>2020-02-12T13:10:14Z</time>
      </trkpt>
      <trkpt lat="46.84575" lon="5.9043">
        <ele>639.9</ele>
        <time>2020-02-12T13:10:29Z</time>
      </trkpt>
      <trkpt lat="46.84572" lon="5.90436">
        <ele>638.5</ele>
        <time>2020-02-12T13:10:39Z</time>
      </trkpt>
      <trkpt lat="46.84562" lon="5.90465">
        <ele>639.6</ele>
        <time>2020-02-12T13:11:44Z</time>
      </trkpt>
      <trkpt lat="46.84559" lon="5.90471">
        <ele>639.6</ele>
        <time>2020-02-12T13:11:46Z</time>
      </trkpt>
      <trkpt lat="46.84556" lon="5.90477">
        <ele>639.7</ele>
        <time>2020-02-12T13:11:49Z</time>
      </trkpt>
      <trkpt lat="46.84555" lon="5.90485">
        <ele>640.3</ele>
        <time>2020-02-12T13:11:56Z</time>
      </trkpt>
      <trkpt lat="46.84552" lon="5.90496">
        <ele>640.5</ele>
        <time>2020-02-12T13:12:08Z</time>
      </trkpt>
      <trkpt lat="46.84549" lon="5.90505">
        <ele>640.7</ele>
        <time>2020-02-12T13:12:10Z</time>
      </trkpt>
      <trkpt lat="46.84547" lon="5.90513">
        <ele>641.2</ele>
        <time>2020-02-12T13:12:13Z</time>
      </trkpt>
      <trkpt lat="46.84546" lon="5.90521">
        <ele>642.1</ele>
        <time>2020-02-12T13:12:18Z</time>
      </trkpt>
      <trkpt lat="46.84544" lon="5.90527">
        <ele>642.9</ele>
        <time>2020-02-12T13:12:23Z</time>
      </trkpt>
      <trkpt lat="46.84543" lon="5.90534">
        <ele>643.2</ele>
        <time>2020-02-12T13:12:29Z</time>
      </trkpt>
      <trkpt lat="46.8454" lon="5.9054">
        <ele>643</ele>
        <time>2020-02-12T13:12:34Z</time>
      </trkpt>
      <trkpt lat="46.84537" lon="5.9056">
        <ele>641.4</ele>
        <time>2020-02-12T13:12:47Z</time>
      </trkpt>
      <trkpt lat="46.84536" lon="5.90567">
        <ele>641.4</ele>
        <time>2020-02-12T13:12:52Z</time>
      </trkpt>
      <trkpt lat="46.8453" lon="5.90593">
        <ele>643</ele>
        <time>2020-02-12T13:13:07Z</time>
      </trkpt>
      <trkpt lat="46.84528" lon="5.906">
        <ele>642.3</ele>
        <time>2020-02-12T13:13:14Z</time>
      </trkpt>
      <trkpt lat="46.84524" lon="5.90605">
        <ele>641</ele>
        <time>2020-02-12T13:13:21Z</time>
      </trkpt>
      <trkpt lat="46.84522" lon="5.90611">
        <ele>640</ele>
        <time>2020-02-12T13:13:26Z</time>
      </trkpt>
      <trkpt lat="46.8452" lon="5.90618">
        <ele>638.9</ele>
        <time>2020-02-12T13:13:31Z</time>
      </trkpt>
      <trkpt lat="46.8452" lon="5.90625">
        <ele>637.9</ele>
        <time>2020-02-12T13:13:36Z</time>
      </trkpt>
      <trkpt lat="46.84518" lon="5.90632">
        <ele>636.9</ele>
        <time>2020-02-12T13:13:41Z</time>
      </trkpt>
      <trkpt lat="46.84516" lon="5.90638">
        <ele>636</ele>
        <time>2020-02-12T13:13:45Z</time>
      </trkpt>
      <trkpt lat="46.84514" lon="5.90645">
        <ele>635</ele>
        <time>2020-02-12T13:13:50Z</time>
      </trkpt>
      <trkpt lat="46.84513" lon="5.90653">
        <ele>633.8</ele>
        <time>2020-02-12T13:13:56Z</time>
      </trkpt>
      <trkpt lat="46.84507" lon="5.90671">
        <ele>633.6</ele>
        <time>2020-02-12T13:14:07Z</time>
      </trkpt>
      <trkpt lat="46.84501" lon="5.9069">
        <ele>635.2</ele>
        <time>2020-02-12T13:14:20Z</time>
      </trkpt>
      <trkpt lat="46.84499" lon="5.90696">
        <ele>636.8</ele>
        <time>2020-02-12T13:14:26Z</time>
      </trkpt>
      <trkpt lat="46.84498" lon="5.90702">
        <ele>638.7</ele>
        <time>2020-02-12T13:14:33Z</time>
      </trkpt>
      <trkpt lat="46.84496" lon="5.90708">
        <ele>639.5</ele>
        <time>2020-02-12T13:14:38Z</time>
      </trkpt>
      <trkpt lat="46.84493" lon="5.90715">
        <ele>640</ele>
        <time>2020-02-12T13:14:43Z</time>
      </trkpt>
      <trkpt lat="46.8449" lon="5.90721">
        <ele>640.3</ele>
        <time>2020-02-12T13:14:47Z</time>
      </trkpt>
      <trkpt lat="46.84487" lon="5.90726">
        <ele>640.6</ele>
        <time>2020-02-12T13:14:51Z</time>
      </trkpt>
      <trkpt lat="46.84483" lon="5.90732">
        <ele>640.8</ele>
        <time>2020-02-12T13:14:57Z</time>
      </trkpt>
      <trkpt lat="46.84485" lon="5.90738">
        <ele>642.4</ele>
        <time>2020-02-12T13:15:32Z</time>
      </trkpt>
      <trkpt lat="46.84487" lon="5.90744">
        <ele>642.7</ele>
        <time>2020-02-12T13:15:42Z</time>
      </trkpt>
      <trkpt lat="46.84483" lon="5.90749">
        <ele>642.6</ele>
        <time>2020-02-12T13:15:52Z</time>
      </trkpt>
      <trkpt lat="46.84477" lon="5.90752">
        <ele>642.5</ele>
        <time>2020-02-12T13:15:55Z</time>
      </trkpt>
      <trkpt lat="46.84473" lon="5.90755">
        <ele>642.2</ele>
        <time>2020-02-12T13:15:58Z</time>
      </trkpt>
      <trkpt lat="46.84469" lon="5.90759">
        <ele>642</ele>
        <time>2020-02-12T13:16:02Z</time>
      </trkpt>
      <trkpt lat="46.84465" lon="5.90763">
        <ele>642</ele>
        <time>2020-02-12T13:16:06Z</time>
      </trkpt>
      <trkpt lat="46.84461" lon="5.90766">
        <ele>642.3</ele>
        <time>2020-02-12T13:16:11Z</time>
      </trkpt>
      <trkpt lat="46.84457" lon="5.90769">
        <ele>643.7</ele>
        <time>2020-02-12T13:16:25Z</time>
      </trkpt>
      <trkpt lat="46.84452" lon="5.90772">
        <ele>644.8</ele>
        <time>2020-02-12T13:16:36Z</time>
      </trkpt>
      <trkpt lat="46.84448" lon="5.90775">
        <ele>644.8</ele>
        <time>2020-02-12T13:16:39Z</time>
      </trkpt>
      <trkpt lat="46.84442" lon="5.90777">
        <ele>644.7</ele>
        <time>2020-02-12T13:16:42Z</time>
      </trkpt>
      <trkpt lat="46.84437" lon="5.9078">
        <ele>644.4</ele>
        <time>2020-02-12T13:16:47Z</time>
      </trkpt>
      <trkpt lat="46.84432" lon="5.90781">
        <ele>643.5</ele>
        <time>2020-02-12T13:16:54Z</time>
      </trkpt>
      <trkpt lat="46.84428" lon="5.90785">
        <ele>643.1</ele>
        <time>2020-02-12T13:16:58Z</time>
      </trkpt>
      <trkpt lat="46.84423" lon="5.90788">
        <ele>642.4</ele>
        <time>2020-02-12T13:17:03Z</time>
      </trkpt>
      <trkpt lat="46.84419" lon="5.90792">
        <ele>641.8</ele>
        <time>2020-02-12T13:17:09Z</time>
      </trkpt>
      <trkpt lat="46.84414" lon="5.90795">
        <ele>641.8</ele>
        <time>2020-02-12T13:17:14Z</time>
      </trkpt>
      <trkpt lat="46.8441" lon="5.90799">
        <ele>641.6</ele>
        <time>2020-02-12T13:17:21Z</time>
      </trkpt>
      <trkpt lat="46.84402" lon="5.90804">
        <ele>638.1</ele>
        <time>2020-02-12T13:17:52Z</time>
      </trkpt>
      <trkpt lat="46.84398" lon="5.90807">
        <ele>637.4</ele>
        <time>2020-02-12T13:18:00Z</time>
      </trkpt>
      <trkpt lat="46.84393" lon="5.9081">
        <ele>637.2</ele>
        <time>2020-02-12T13:18:05Z</time>
      </trkpt>
      <trkpt lat="46.84386" lon="5.90809">
        <ele>637.2</ele>
        <time>2020-02-12T13:18:07Z</time>
      </trkpt>
      <trkpt lat="46.8438" lon="5.90809">
        <ele>637</ele>
        <time>2020-02-12T13:18:10Z</time>
      </trkpt>
      <trkpt lat="46.84375" lon="5.9081">
        <ele>636.9</ele>
        <time>2020-02-12T13:18:14Z</time>
      </trkpt>
      <trkpt lat="46.84366" lon="5.90809">
        <ele>635.9</ele>
        <time>2020-02-12T13:18:27Z</time>
      </trkpt>
      <trkpt lat="46.84357" lon="5.90805">
        <ele>636.1</ele>
        <time>2020-02-12T13:18:37Z</time>
      </trkpt>
      <trkpt lat="46.84351" lon="5.90805">
        <ele>636.3</ele>
        <time>2020-02-12T13:18:41Z</time>
      </trkpt>
      <trkpt lat="46.84345" lon="5.90804">
        <ele>636.7</ele>
        <time>2020-02-12T13:18:45Z</time>
      </trkpt>
      <trkpt lat="46.84339" lon="5.90804">
        <ele>637.2</ele>
        <time>2020-02-12T13:18:50Z</time>
      </trkpt>
      <trkpt lat="46.84329" lon="5.90803">
        <ele>638.3</ele>
        <time>2020-02-12T13:18:59Z</time>
      </trkpt>
      <trkpt lat="46.84316" lon="5.90795">
        <ele>638.7</ele>
        <time>2020-02-12T13:19:16Z</time>
      </trkpt>
      <trkpt lat="46.84312" lon="5.90793">
        <ele>639.2</ele>
        <time>2020-02-12T13:19:25Z</time>
      </trkpt>
      <trkpt lat="46.84306" lon="5.90791">
        <ele>639.2</ele>
        <time>2020-02-12T13:19:32Z</time>
      </trkpt>
      <trkpt lat="46.84299" lon="5.90789">
        <ele>639.1</ele>
        <time>2020-02-12T13:19:35Z</time>
      </trkpt>
      <trkpt lat="46.84286" lon="5.90783">
        <ele>639</ele>
        <time>2020-02-12T13:19:56Z</time>
      </trkpt>
      <trkpt lat="46.84282" lon="5.90777">
        <ele>639.5</ele>
        <time>2020-02-12T13:20:03Z</time>
      </trkpt>
      <trkpt lat="46.84279" lon="5.90772">
        <ele>640.4</ele>
        <time>2020-02-12T13:20:09Z</time>
      </trkpt>
      <trkpt lat="46.84271" lon="5.90758">
        <ele>643.8</ele>
        <time>2020-02-12T13:20:25Z</time>
      </trkpt>
      <trkpt lat="46.84267" lon="5.90753">
        <ele>644.5</ele>
        <time>2020-02-12T13:20:29Z</time>
      </trkpt>
      <trkpt lat="46.84262" lon="5.90748">
        <ele>644.8</ele>
        <time>2020-02-12T13:20:32Z</time>
      </trkpt>
      <trkpt lat="46.84258" lon="5.90733">
        <ele>644.4</ele>
        <time>2020-02-12T13:20:46Z</time>
      </trkpt>
      <trkpt lat="46.84259" lon="5.90726">
        <ele>644.1</ele>
        <time>2020-02-12T13:20:51Z</time>
      </trkpt>
      <trkpt lat="46.84257" lon="5.90719">
        <ele>643.5</ele>
        <time>2020-02-12T13:20:56Z</time>
      </trkpt>
      <trkpt lat="46.84257" lon="5.90713">
        <ele>642.9</ele>
        <time>2020-02-12T13:21:00Z</time>
      </trkpt>
      <trkpt lat="46.84256" lon="5.90706">
        <ele>641.5</ele>
        <time>2020-02-12T13:21:06Z</time>
      </trkpt>
      <trkpt lat="46.84256" lon="5.90699">
        <ele>638.9</ele>
        <time>2020-02-12T13:21:14Z</time>
      </trkpt>
      <trkpt lat="46.84256" lon="5.90692">
        <ele>636.7</ele>
        <time>2020-02-12T13:21:22Z</time>
      </trkpt>
      <trkpt lat="46.84257" lon="5.90681">
        <ele>635.6</ele>
        <time>2020-02-12T13:21:28Z</time>
      </trkpt>
      <trkpt lat="46.84258" lon="5.90674">
        <ele>634.8</ele>
        <time>2020-02-12T13:21:33Z</time>
      </trkpt>
      <trkpt lat="46.84257" lon="5.90667">
        <ele>632.7</ele>
        <time>2020-02-12T13:21:43Z</time>
      </trkpt>
      <trkpt lat="46.84256" lon="5.90658">
        <ele>632.3</ele>
        <time>2020-02-12T13:21:45Z</time>
      </trkpt>
      <trkpt lat="46.84253" lon="5.9065">
        <ele>631.8</ele>
        <time>2020-02-12T13:21:47Z</time>
      </trkpt>
      <trkpt lat="46.84246" lon="5.90632">
        <ele>627.8</ele>
        <time>2020-02-12T13:21:59Z</time>
      </trkpt>
      <trkpt lat="46.84237" lon="5.9061">
        <ele>623</ele>
        <time>2020-02-12T13:22:11Z</time>
      </trkpt>
      <trkpt lat="46.84233" lon="5.90605">
        <ele>622.3</ele>
        <time>2020-02-12T13:22:17Z</time>
      </trkpt>
      <trkpt lat="46.8423" lon="5.90598">
        <ele>622.2</ele>
        <time>2020-02-12T13:22:22Z</time>
      </trkpt>
      <trkpt lat="46.84228" lon="5.90593">
        <ele>622</ele>
        <time>2020-02-12T13:22:28Z</time>
      </trkpt>
      <trkpt lat="46.84225" lon="5.90585">
        <ele>621.4</ele>
        <time>2020-02-12T13:22:34Z</time>
      </trkpt>
      <trkpt lat="46.84223" lon="5.90578">
        <ele>620.7</ele>
        <time>2020-02-12T13:22:39Z</time>
      </trkpt>
      <trkpt lat="46.84219" lon="5.90571">
        <ele>620.1</ele>
        <time>2020-02-12T13:22:45Z</time>
      </trkpt>
      <trkpt lat="46.84215" lon="5.90565">
        <ele>619.8</ele>
        <time>2020-02-12T13:22:48Z</time>
      </trkpt>
      <trkpt lat="46.84212" lon="5.9056">
        <ele>619.5</ele>
        <time>2020-02-12T13:22:53Z</time>
      </trkpt>
      <trkpt lat="46.84208" lon="5.90536">
        <ele>622.3</ele>
        <time>2020-02-12T13:23:34Z</time>
      </trkpt>
      <trkpt lat="46.84206" lon="5.9053">
        <ele>622.4</ele>
        <time>2020-02-12T13:23:36Z</time>
      </trkpt>
      <trkpt lat="46.84205" lon="5.90523">
        <ele>622.5</ele>
        <time>2020-02-12T13:23:41Z</time>
      </trkpt>
      <trkpt lat="46.84205" lon="5.90515">
        <ele>621.9</ele>
        <time>2020-02-12T13:23:48Z</time>
      </trkpt>
      <trkpt lat="46.84205" lon="5.90507">
        <ele>621.2</ele>
        <time>2020-02-12T13:23:53Z</time>
      </trkpt>
      <trkpt lat="46.84202" lon="5.905">
        <ele>620.8</ele>
        <time>2020-02-12T13:23:56Z</time>
      </trkpt>
      <trkpt lat="46.84197" lon="5.90483">
        <ele>619.6</ele>
        <time>2020-02-12T13:24:09Z</time>
      </trkpt>
      <trkpt lat="46.84196" lon="5.90474">
        <ele>619.6</ele>
        <time>2020-02-12T13:24:11Z</time>
      </trkpt>
      <trkpt lat="46.84194" lon="5.90466">
        <ele>619.5</ele>
        <time>2020-02-12T13:24:14Z</time>
      </trkpt>
      <trkpt lat="46.84194" lon="5.90459">
        <ele>619.3</ele>
        <time>2020-02-12T13:24:18Z</time>
      </trkpt>
      <trkpt lat="46.84192" lon="5.90452">
        <ele>619</ele>
        <time>2020-02-12T13:24:22Z</time>
      </trkpt>
      <trkpt lat="46.84191" lon="5.90445">
        <ele>618.5</ele>
        <time>2020-02-12T13:24:27Z</time>
      </trkpt>
      <trkpt lat="46.84188" lon="5.9043">
        <ele>616.4</ele>
        <time>2020-02-12T13:24:54Z</time>
      </trkpt>
      <trkpt lat="46.84175" lon="5.90418">
        <ele>616.7</ele>
        <time>2020-02-12T13:25:03Z</time>
      </trkpt>
      <trkpt lat="46.84171" lon="5.90413">
        <ele>616.8</ele>
        <time>2020-02-12T13:25:07Z</time>
      </trkpt>
      <trkpt lat="46.84163" lon="5.90405">
        <ele>618.2</ele>
        <time>2020-02-12T13:25:22Z</time>
      </trkpt>
      <trkpt lat="46.84151" lon="5.90386">
        <ele>620.9</ele>
        <time>2020-02-12T13:25:43Z</time>
      </trkpt>
      <trkpt lat="46.84146" lon="5.90382">
        <ele>621.1</ele>
        <time>2020-02-12T13:25:47Z</time>
      </trkpt>
      <trkpt lat="46.84141" lon="5.90378">
        <ele>621</ele>
        <time>2020-02-12T13:25:51Z</time>
      </trkpt>
      <trkpt lat="46.84137" lon="5.90374">
        <ele>620.7</ele>
        <time>2020-02-12T13:25:57Z</time>
      </trkpt>
      <trkpt lat="46.84126" lon="5.90363">
        <ele>619.3</ele>
        <time>2020-02-12T13:26:09Z</time>
      </trkpt>
      <trkpt lat="46.84121" lon="5.90361">
        <ele>618.8</ele>
        <time>2020-02-12T13:26:15Z</time>
      </trkpt>
      <trkpt lat="46.84109" lon="5.90353">
        <ele>617.4</ele>
        <time>2020-02-12T13:26:32Z</time>
      </trkpt>
      <trkpt lat="46.84107" lon="5.90346">
        <ele>616.3</ele>
        <time>2020-02-12T13:26:38Z</time>
      </trkpt>
      <trkpt lat="46.84104" lon="5.9034">
        <ele>615.4</ele>
        <time>2020-02-12T13:26:42Z</time>
      </trkpt>
      <trkpt lat="46.84101" lon="5.90335">
        <ele>614.4</ele>
        <time>2020-02-12T13:26:47Z</time>
      </trkpt>
      <trkpt lat="46.84096" lon="5.9033">
        <ele>613.6</ele>
        <time>2020-02-12T13:26:51Z</time>
      </trkpt>
      <trkpt lat="46.84092" lon="5.90327">
        <ele>612.6</ele>
        <time>2020-02-12T13:26:58Z</time>
      </trkpt>
      <trkpt lat="46.84089" lon="5.90322">
        <ele>611.3</ele>
        <time>2020-02-12T13:27:05Z</time>
      </trkpt>
      <trkpt lat="46.84085" lon="5.90317">
        <ele>610.3</ele>
        <time>2020-02-12T13:27:08Z</time>
      </trkpt>
      <trkpt lat="46.84081" lon="5.90313">
        <ele>608.8</ele>
        <time>2020-02-12T13:27:12Z</time>
      </trkpt>
      <trkpt lat="46.84078" lon="5.90307">
        <ele>606.8</ele>
        <time>2020-02-12T13:27:18Z</time>
      </trkpt>
      <trkpt lat="46.84076" lon="5.90301">
        <ele>604.7</ele>
        <time>2020-02-12T13:27:28Z</time>
      </trkpt>
      <trkpt lat="46.84076" lon="5.90294">
        <ele>604.3</ele>
        <time>2020-02-12T13:27:33Z</time>
      </trkpt>
      <trkpt lat="46.84075" lon="5.90287">
        <ele>604.1</ele>
        <time>2020-02-12T13:27:36Z</time>
      </trkpt>
      <trkpt lat="46.84076" lon="5.90281">
        <ele>604</ele>
        <time>2020-02-12T13:27:41Z</time>
      </trkpt>
      <trkpt lat="46.84078" lon="5.90263">
        <ele>604.5</ele>
        <time>2020-02-12T13:27:53Z</time>
      </trkpt>
      <trkpt lat="46.84077" lon="5.90256">
        <ele>605</ele>
        <time>2020-02-12T13:27:58Z</time>
      </trkpt>
      <trkpt lat="46.84076" lon="5.90249">
        <ele>605.2</ele>
        <time>2020-02-12T13:28:00Z</time>
      </trkpt>
      <trkpt lat="46.84075" lon="5.90242">
        <ele>605.6</ele>
        <time>2020-02-12T13:28:03Z</time>
      </trkpt>
      <trkpt lat="46.84069" lon="5.90223">
        <ele>607.6</ele>
        <time>2020-02-12T13:28:15Z</time>
      </trkpt>
      <trkpt lat="46.8407" lon="5.90202">
        <ele>614.1</ele>
        <time>2020-02-12T13:28:49Z</time>
      </trkpt>
      <trkpt lat="46.84065" lon="5.90168">
        <ele>613.3</ele>
        <time>2020-02-12T13:29:23Z</time>
      </trkpt>
      <trkpt lat="46.84064" lon="5.9016">
        <ele>613</ele>
        <time>2020-02-12T13:29:26Z</time>
      </trkpt>
      <trkpt lat="46.84063" lon="5.90153">
        <ele>612.7</ele>
        <time>2020-02-12T13:29:29Z</time>
      </trkpt>
      <trkpt lat="46.84062" lon="5.90147">
        <ele>612.5</ele>
        <time>2020-02-12T13:29:31Z</time>
      </trkpt>
      <trkpt lat="46.8406" lon="5.9014">
        <ele>611.3</ele>
        <time>2020-02-12T13:29:47Z</time>
      </trkpt>
      <trkpt lat="46.84059" lon="5.90134">
        <ele>611</ele>
        <time>2020-02-12T13:29:54Z</time>
      </trkpt>
      <trkpt lat="46.84057" lon="5.90126">
        <ele>610.8</ele>
        <time>2020-02-12T13:30:03Z</time>
      </trkpt>
      <trkpt lat="46.84055" lon="5.9012">
        <ele>610.6</ele>
        <time>2020-02-12T13:30:07Z</time>
      </trkpt>
      <trkpt lat="46.84054" lon="5.90113">
        <ele>610.4</ele>
        <time>2020-02-12T13:30:09Z</time>
      </trkpt>
      <trkpt lat="46.84052" lon="5.90107">
        <ele>610.1</ele>
        <time>2020-02-12T13:30:11Z</time>
      </trkpt>
      <trkpt lat="46.84049" lon="5.90101">
        <ele>609.4</ele>
        <time>2020-02-12T13:30:15Z</time>
      </trkpt>
      <trkpt lat="46.84046" lon="5.90096">
        <ele>608.6</ele>
        <time>2020-02-12T13:30:20Z</time>
      </trkpt>
      <trkpt lat="46.84043" lon="5.90091">
        <ele>607.6</ele>
        <time>2020-02-12T13:30:26Z</time>
      </trkpt>
      <trkpt lat="46.84027" lon="5.90077">
        <ele>610.1</ele>
        <time>2020-02-12T13:32:13Z</time>
      </trkpt>
      <trkpt lat="46.84021" lon="5.90072">
        <ele>609.4</ele>
        <time>2020-02-12T13:32:18Z</time>
      </trkpt>
      <trkpt lat="46.84019" lon="5.90066">
        <ele>609.1</ele>
        <time>2020-02-12T13:32:22Z</time>
      </trkpt>
      <trkpt lat="46.84018" lon="5.90048">
        <ele>608.6</ele>
        <time>2020-02-12T13:32:37Z</time>
      </trkpt>
      <trkpt lat="46.84014" lon="5.90027">
        <ele>610.4</ele>
        <time>2020-02-12T13:32:50Z</time>
      </trkpt>
      <trkpt lat="46.8401" lon="5.90021">
        <ele>610.5</ele>
        <time>2020-02-12T13:32:53Z</time>
      </trkpt>
      <trkpt lat="46.84006" lon="5.90017">
        <ele>610.8</ele>
        <time>2020-02-12T13:32:59Z</time>
      </trkpt>
      <trkpt lat="46.84001" lon="5.90015">
        <ele>610.6</ele>
        <time>2020-02-12T13:33:02Z</time>
      </trkpt>
      <trkpt lat="46.83996" lon="5.90013">
        <ele>610.4</ele>
        <time>2020-02-12T13:33:06Z</time>
      </trkpt>
      <trkpt lat="46.83992" lon="5.90009">
        <ele>610.1</ele>
        <time>2020-02-12T13:33:10Z</time>
      </trkpt>
      <trkpt lat="46.83988" lon="5.90005">
        <ele>609.3</ele>
        <time>2020-02-12T13:33:19Z</time>
      </trkpt>
      <trkpt lat="46.83985" lon="5.89999">
        <ele>608.7</ele>
        <time>2020-02-12T13:33:24Z</time>
      </trkpt>
      <trkpt lat="46.83983" lon="5.89991">
        <ele>608.1</ele>
        <time>2020-02-12T13:33:29Z</time>
      </trkpt>
      <trkpt lat="46.83979" lon="5.89985">
        <ele>607.5</ele>
        <time>2020-02-12T13:33:36Z</time>
      </trkpt>
      <trkpt lat="46.83975" lon="5.8998">
        <ele>607.4</ele>
        <time>2020-02-12T13:33:38Z</time>
      </trkpt>
      <trkpt lat="46.8396" lon="5.89962">
        <ele>607.3</ele>
        <time>2020-02-12T13:33:54Z</time>
      </trkpt>
      <trkpt lat="46.83956" lon="5.89959">
        <ele>607.6</ele>
        <time>2020-02-12T13:33:59Z</time>
      </trkpt>
      <trkpt lat="46.83952" lon="5.89955">
        <ele>607.9</ele>
        <time>2020-02-12T13:34:02Z</time>
      </trkpt>
      <trkpt lat="46.83948" lon="5.89951">
        <ele>608.2</ele>
        <time>2020-02-12T13:34:06Z</time>
      </trkpt>
      <trkpt lat="46.83944" lon="5.89948">
        <ele>608.6</ele>
        <time>2020-02-12T13:34:10Z</time>
      </trkpt>
      <trkpt lat="46.8394" lon="5.89945">
        <ele>609</ele>
        <time>2020-02-12T13:34:13Z</time>
      </trkpt>
      <trkpt lat="46.83929" lon="5.89942">
        <ele>613.3</ele>
        <time>2020-02-12T13:34:25Z</time>
      </trkpt>
      <trkpt lat="46.83925" lon="5.89936">
        <ele>614.5</ele>
        <time>2020-02-12T13:34:31Z</time>
      </trkpt>
      <trkpt lat="46.8392" lon="5.89932">
        <ele>615.2</ele>
        <time>2020-02-12T13:34:35Z</time>
      </trkpt>
      <trkpt lat="46.83917" lon="5.89928">
        <ele>615.8</ele>
        <time>2020-02-12T13:34:39Z</time>
      </trkpt>
      <trkpt lat="46.83912" lon="5.89922">
        <ele>616.1</ele>
        <time>2020-02-12T13:34:44Z</time>
      </trkpt>
      <trkpt lat="46.83909" lon="5.89917">
        <ele>616.5</ele>
        <time>2020-02-12T13:34:48Z</time>
      </trkpt>
      <trkpt lat="46.83906" lon="5.89912">
        <ele>616.8</ele>
        <time>2020-02-12T13:34:52Z</time>
      </trkpt>
      <trkpt lat="46.83904" lon="5.89905">
        <ele>617</ele>
        <time>2020-02-12T13:34:55Z</time>
      </trkpt>
      <trkpt lat="46.83901" lon="5.89897">
        <ele>617.2</ele>
        <time>2020-02-12T13:34:58Z</time>
      </trkpt>
      <trkpt lat="46.83898" lon="5.89891">
        <ele>617.6</ele>
        <time>2020-02-12T13:35:03Z</time>
      </trkpt>
      <trkpt lat="46.83891" lon="5.89881">
        <ele>618.9</ele>
        <time>2020-02-12T13:35:17Z</time>
      </trkpt>
      <trkpt lat="46.83887" lon="5.89877">
        <ele>619.8</ele>
        <time>2020-02-12T13:35:22Z</time>
      </trkpt>
      <trkpt lat="46.83883" lon="5.89874">
        <ele>620.5</ele>
        <time>2020-02-12T13:35:25Z</time>
      </trkpt>
      <trkpt lat="46.83876" lon="5.89866">
        <ele>622.7</ele>
        <time>2020-02-12T13:35:37Z</time>
      </trkpt>
      <trkpt lat="46.83873" lon="5.89859">
        <ele>622.7</ele>
        <time>2020-02-12T13:35:42Z</time>
      </trkpt>
      <trkpt lat="46.83864" lon="5.89845">
        <ele>622.1</ele>
        <time>2020-02-12T13:35:53Z</time>
      </trkpt>
      <trkpt lat="46.83863" lon="5.89839">
        <ele>622</ele>
        <time>2020-02-12T13:35:58Z</time>
      </trkpt>
      <trkpt lat="46.83858" lon="5.89834">
        <ele>622</ele>
        <time>2020-02-12T13:36:02Z</time>
      </trkpt>
      <trkpt lat="46.83853" lon="5.89833">
        <ele>621.9</ele>
        <time>2020-02-12T13:36:05Z</time>
      </trkpt>
      <trkpt lat="46.83842" lon="5.89825">
        <ele>621.9</ele>
        <time>2020-02-12T13:36:14Z</time>
      </trkpt>
      <trkpt lat="46.83839" lon="5.8982">
        <ele>621.8</ele>
        <time>2020-02-12T13:36:18Z</time>
      </trkpt>
      <trkpt lat="46.83836" lon="5.89814">
        <ele>621.5</ele>
        <time>2020-02-12T13:36:24Z</time>
      </trkpt>
      <trkpt lat="46.83831" lon="5.89812">
        <ele>621.4</ele>
        <time>2020-02-12T13:36:27Z</time>
      </trkpt>
      <trkpt lat="46.83826" lon="5.8981">
        <ele>621.4</ele>
        <time>2020-02-12T13:36:33Z</time>
      </trkpt>
      <trkpt lat="46.83822" lon="5.89807">
        <ele>621.6</ele>
        <time>2020-02-12T13:36:37Z</time>
      </trkpt>
      <trkpt lat="46.83818" lon="5.89803">
        <ele>621.8</ele>
        <time>2020-02-12T13:36:40Z</time>
      </trkpt>
      <trkpt lat="46.83813" lon="5.898">
        <ele>622.5</ele>
        <time>2020-02-12T13:36:47Z</time>
      </trkpt>
      <trkpt lat="46.83809" lon="5.89795">
        <ele>622.8</ele>
        <time>2020-02-12T13:36:51Z</time>
      </trkpt>
      <trkpt lat="46.83804" lon="5.89792">
        <ele>623</ele>
        <time>2020-02-12T13:36:54Z</time>
      </trkpt>
      <trkpt lat="46.83801" lon="5.89786">
        <ele>623.6</ele>
        <time>2020-02-12T13:36:59Z</time>
      </trkpt>
      <trkpt lat="46.83797" lon="5.89783">
        <ele>624.1</ele>
        <time>2020-02-12T13:37:04Z</time>
      </trkpt>
      <trkpt lat="46.83793" lon="5.89778">
        <ele>624.6</ele>
        <time>2020-02-12T13:37:10Z</time>
      </trkpt>
      <trkpt lat="46.83789" lon="5.89774">
        <ele>625.1</ele>
        <time>2020-02-12T13:37:13Z</time>
      </trkpt>
      <trkpt lat="46.83788" lon="5.89762">
        <ele>626.9</ele>
        <time>2020-02-12T13:37:28Z</time>
      </trkpt>
      <trkpt lat="46.83786" lon="5.89756">
        <ele>627.4</ele>
        <time>2020-02-12T13:37:37Z</time>
      </trkpt>
      <trkpt lat="46.83783" lon="5.89749">
        <ele>628.5</ele>
        <time>2020-02-12T13:37:45Z</time>
      </trkpt>
      <trkpt lat="46.83773" lon="5.89726">
        <ele>633.4</ele>
        <time>2020-02-12T13:38:02Z</time>
      </trkpt>
      <trkpt lat="46.83772" lon="5.8972">
        <ele>634.1</ele>
        <time>2020-02-12T13:38:09Z</time>
      </trkpt>
      <trkpt lat="46.83769" lon="5.89715">
        <ele>634.3</ele>
        <time>2020-02-12T13:38:17Z</time>
      </trkpt>
      <trkpt lat="46.83767" lon="5.89708">
        <ele>634.2</ele>
        <time>2020-02-12T13:38:20Z</time>
      </trkpt>
      <trkpt lat="46.83764" lon="5.89702">
        <ele>634.1</ele>
        <time>2020-02-12T13:38:23Z</time>
      </trkpt>
      <trkpt lat="46.83762" lon="5.89695">
        <ele>633.8</ele>
        <time>2020-02-12T13:38:28Z</time>
      </trkpt>
      <trkpt lat="46.8376" lon="5.89688">
        <ele>633.3</ele>
        <time>2020-02-12T13:38:34Z</time>
      </trkpt>
      <trkpt lat="46.8376" lon="5.89682">
        <ele>633</ele>
        <time>2020-02-12T13:38:37Z</time>
      </trkpt>
      <trkpt lat="46.83756" lon="5.89665">
        <ele>631.5</ele>
        <time>2020-02-12T13:38:50Z</time>
      </trkpt>
      <trkpt lat="46.83754" lon="5.89659">
        <ele>630.9</ele>
        <time>2020-02-12T13:38:57Z</time>
      </trkpt>
      <trkpt lat="46.83753" lon="5.89652">
        <ele>630.2</ele>
        <time>2020-02-12T13:39:03Z</time>
      </trkpt>
      <trkpt lat="46.83751" lon="5.89646">
        <ele>629.7</ele>
        <time>2020-02-12T13:39:09Z</time>
      </trkpt>
      <trkpt lat="46.83749" lon="5.89638">
        <ele>629.6</ele>
        <time>2020-02-12T13:39:13Z</time>
      </trkpt>
      <trkpt lat="46.83745" lon="5.89632">
        <ele>629.6</ele>
        <time>2020-02-12T13:39:15Z</time>
      </trkpt>
      <trkpt lat="46.83742" lon="5.89627">
        <ele>629.6</ele>
        <time>2020-02-12T13:39:19Z</time>
      </trkpt>
      <trkpt lat="46.83739" lon="5.8962">
        <ele>629.8</ele>
        <time>2020-02-12T13:39:23Z</time>
      </trkpt>
      <trkpt lat="46.83736" lon="5.89615">
        <ele>630.2</ele>
        <time>2020-02-12T13:39:28Z</time>
      </trkpt>
      <trkpt lat="46.83732" lon="5.89609">
        <ele>630.8</ele>
        <time>2020-02-12T13:39:33Z</time>
      </trkpt>
      <trkpt lat="46.83729" lon="5.89603">
        <ele>631.4</ele>
        <time>2020-02-12T13:39:37Z</time>
      </trkpt>
      <trkpt lat="46.83727" lon="5.89597">
        <ele>632.1</ele>
        <time>2020-02-12T13:39:44Z</time>
      </trkpt>
      <trkpt lat="46.83725" lon="5.89591">
        <ele>632.6</ele>
        <time>2020-02-12T13:39:49Z</time>
      </trkpt>
      <trkpt lat="46.83723" lon="5.89585">
        <ele>632.9</ele>
        <time>2020-02-12T13:39:54Z</time>
      </trkpt>
      <trkpt lat="46.8372" lon="5.89579">
        <ele>633.1</ele>
        <time>2020-02-12T13:39:59Z</time>
      </trkpt>
      <trkpt lat="46.83717" lon="5.89572">
        <ele>633.1</ele>
        <time>2020-02-12T13:40:04Z</time>
      </trkpt>
      <trkpt lat="46.83714" lon="5.89566">
        <ele>633.1</ele>
        <time>2020-02-12T13:40:09Z</time>
      </trkpt>
      <trkpt lat="46.83712" lon="5.8956">
        <ele>633.1</ele>
        <time>2020-02-12T13:40:13Z</time>
      </trkpt>
      <trkpt lat="46.8371" lon="5.89554">
        <ele>633</ele>
        <time>2020-02-12T13:40:17Z</time>
      </trkpt>
      <trkpt lat="46.8371" lon="5.89547">
        <ele>633</ele>
        <time>2020-02-12T13:40:23Z</time>
      </trkpt>
      <trkpt lat="46.83709" lon="5.89539">
        <ele>632.9</ele>
        <time>2020-02-12T13:40:28Z</time>
      </trkpt>
      <trkpt lat="46.83707" lon="5.89532">
        <ele>632.5</ele>
        <time>2020-02-12T13:40:34Z</time>
      </trkpt>
      <trkpt lat="46.83704" lon="5.89526">
        <ele>631.7</ele>
        <time>2020-02-12T13:40:41Z</time>
      </trkpt>
      <trkpt lat="46.83702" lon="5.89519">
        <ele>630.9</ele>
        <time>2020-02-12T13:40:48Z</time>
      </trkpt>
      <trkpt lat="46.83701" lon="5.89512">
        <ele>630.4</ele>
        <time>2020-02-12T13:40:53Z</time>
      </trkpt>
      <trkpt lat="46.837" lon="5.89503">
        <ele>629.9</ele>
        <time>2020-02-12T13:40:59Z</time>
      </trkpt>
      <trkpt lat="46.837" lon="5.89496">
        <ele>629.7</ele>
        <time>2020-02-12T13:41:02Z</time>
      </trkpt>
      <trkpt lat="46.83698" lon="5.89487">
        <ele>629.6</ele>
        <time>2020-02-12T13:41:04Z</time>
      </trkpt>
      <trkpt lat="46.83696" lon="5.8948">
        <ele>629.6</ele>
        <time>2020-02-12T13:41:07Z</time>
      </trkpt>
      <trkpt lat="46.83694" lon="5.89474">
        <ele>629.6</ele>
        <time>2020-02-12T13:41:11Z</time>
      </trkpt>
      <trkpt lat="46.83693" lon="5.89467">
        <ele>629.7</ele>
        <time>2020-02-12T13:41:16Z</time>
      </trkpt>
      <trkpt lat="46.83697" lon="5.89462">
        <ele>629.1</ele>
        <time>2020-02-12T13:41:23Z</time>
      </trkpt>
      <trkpt lat="46.83699" lon="5.89455">
        <ele>628.2</ele>
        <time>2020-02-12T13:41:30Z</time>
      </trkpt>
      <trkpt lat="46.83698" lon="5.89448">
        <ele>627.8</ele>
        <time>2020-02-12T13:41:33Z</time>
      </trkpt>
      <trkpt lat="46.83698" lon="5.89442">
        <ele>626.7</ele>
        <time>2020-02-12T13:41:44Z</time>
      </trkpt>
      <trkpt lat="46.83695" lon="5.89436">
        <ele>627.5</ele>
        <time>2020-02-12T13:41:56Z</time>
      </trkpt>
      <trkpt lat="46.83692" lon="5.89431">
        <ele>628.3</ele>
        <time>2020-02-12T13:41:59Z</time>
      </trkpt>
      <trkpt lat="46.83689" lon="5.89421">
        <ele>633.9</ele>
        <time>2020-02-12T13:42:21Z</time>
      </trkpt>
      <trkpt lat="46.83686" lon="5.89415">
        <ele>634.1</ele>
        <time>2020-02-12T13:42:23Z</time>
      </trkpt>
      <trkpt lat="46.83684" lon="5.89409">
        <ele>634.6</ele>
        <time>2020-02-12T13:42:26Z</time>
      </trkpt>
      <trkpt lat="46.83681" lon="5.89403">
        <ele>635.6</ele>
        <time>2020-02-12T13:42:32Z</time>
      </trkpt>
      <trkpt lat="46.83681" lon="5.89396">
        <ele>636.2</ele>
        <time>2020-02-12T13:42:37Z</time>
      </trkpt>
      <trkpt lat="46.83682" lon="5.89383">
        <ele>635.9</ele>
        <time>2020-02-12T13:42:55Z</time>
      </trkpt>
      <trkpt lat="46.83675" lon="5.89365">
        <ele>632.8</ele>
        <time>2020-02-12T13:43:08Z</time>
      </trkpt>
      <trkpt lat="46.83673" lon="5.89359">
        <ele>632.2</ele>
        <time>2020-02-12T13:43:14Z</time>
      </trkpt>
      <trkpt lat="46.83669" lon="5.89355">
        <ele>632.1</ele>
        <time>2020-02-12T13:43:17Z</time>
      </trkpt>
      <trkpt lat="46.83665" lon="5.8935">
        <ele>632.1</ele>
        <time>2020-02-12T13:43:24Z</time>
      </trkpt>
      <trkpt lat="46.83661" lon="5.89345">
        <ele>632</ele>
        <time>2020-02-12T13:43:30Z</time>
      </trkpt>
      <trkpt lat="46.83659" lon="5.8934">
        <ele>632</ele>
        <time>2020-02-12T13:43:39Z</time>
      </trkpt>
      <trkpt lat="46.83659" lon="5.89333">
        <ele>632.5</ele>
        <time>2020-02-12T13:43:46Z</time>
      </trkpt>
      <trkpt lat="46.83657" lon="5.89327">
        <ele>633.5</ele>
        <time>2020-02-12T13:43:54Z</time>
      </trkpt>
      <trkpt lat="46.83657" lon="5.8932">
        <ele>633.7</ele>
        <time>2020-02-12T13:44:04Z</time>
      </trkpt>
      <trkpt lat="46.83658" lon="5.89313">
        <ele>634.3</ele>
        <time>2020-02-12T13:44:11Z</time>
      </trkpt>
      <trkpt lat="46.83657" lon="5.89306">
        <ele>634.8</ele>
        <time>2020-02-12T13:44:15Z</time>
      </trkpt>
      <trkpt lat="46.83656" lon="5.89298">
        <ele>635.3</ele>
        <time>2020-02-12T13:44:20Z</time>
      </trkpt>
      <trkpt lat="46.83654" lon="5.89292">
        <ele>635</ele>
        <time>2020-02-12T13:44:30Z</time>
      </trkpt>
      <trkpt lat="46.83651" lon="5.89285">
        <ele>634.4</ele>
        <time>2020-02-12T13:44:37Z</time>
      </trkpt>
      <trkpt lat="46.8365" lon="5.89278">
        <ele>634.3</ele>
        <time>2020-02-12T13:44:41Z</time>
      </trkpt>
      <trkpt lat="46.83647" lon="5.89264">
        <ele>635</ele>
        <time>2020-02-12T13:44:53Z</time>
      </trkpt>
      <trkpt lat="46.83644" lon="5.89258">
        <ele>634.9</ele>
        <time>2020-02-12T13:44:58Z</time>
      </trkpt>
      <trkpt lat="46.8364" lon="5.89254">
        <ele>634.8</ele>
        <time>2020-02-12T13:45:02Z</time>
      </trkpt>
      <trkpt lat="46.83632" lon="5.8924">
        <ele>631.8</ele>
        <time>2020-02-12T13:45:15Z</time>
      </trkpt>
      <trkpt lat="46.8363" lon="5.89233">
        <ele>631.4</ele>
        <time>2020-02-12T13:45:17Z</time>
      </trkpt>
      <trkpt lat="46.83628" lon="5.89227">
        <ele>629.8</ele>
        <time>2020-02-12T13:45:23Z</time>
      </trkpt>
      <trkpt lat="46.83613" lon="5.89214">
        <ele>625.3</ele>
        <time>2020-02-12T13:45:39Z</time>
      </trkpt>
      <trkpt lat="46.83609" lon="5.89216">
        <ele>625.3</ele>
        <time>2020-02-12T13:45:42Z</time>
      </trkpt>
      <trkpt lat="46.83604" lon="5.89217">
        <ele>625.2</ele>
        <time>2020-02-12T13:45:45Z</time>
      </trkpt>
      <trkpt lat="46.836" lon="5.89213">
        <ele>625.2</ele>
        <time>2020-02-12T13:45:49Z</time>
      </trkpt>
      <trkpt lat="46.83597" lon="5.89209">
        <ele>625.4</ele>
        <time>2020-02-12T13:45:54Z</time>
      </trkpt>
      <trkpt lat="46.8359" lon="5.89212">
        <ele>625.2</ele>
        <time>2020-02-12T13:45:58Z</time>
      </trkpt>
      <trkpt lat="46.83585" lon="5.89214">
        <ele>625.2</ele>
        <time>2020-02-12T13:46:02Z</time>
      </trkpt>
      <trkpt lat="46.83559" lon="5.89196">
        <ele>631.8</ele>
        <time>2020-02-12T13:46:25Z</time>
      </trkpt>
      <trkpt lat="46.83553" lon="5.89194">
        <ele>633.1</ele>
        <time>2020-02-12T13:46:29Z</time>
      </trkpt>
      <trkpt lat="46.83545" lon="5.89182">
        <ele>636.2</ele>
        <time>2020-02-12T13:46:41Z</time>
      </trkpt>
      <trkpt lat="46.83526" lon="5.89162">
        <ele>636.2</ele>
        <time>2020-02-12T13:47:04Z</time>
      </trkpt>
      <trkpt lat="46.8352" lon="5.8916">
        <ele>636.4</ele>
        <time>2020-02-12T13:47:09Z</time>
      </trkpt>
      <trkpt lat="46.83509" lon="5.89156">
        <ele>636.6</ele>
        <time>2020-02-12T13:47:16Z</time>
      </trkpt>
      <trkpt lat="46.83504" lon="5.89158">
        <ele>636.9</ele>
        <time>2020-02-12T13:47:22Z</time>
      </trkpt>
      <trkpt lat="46.83492" lon="5.89157">
        <ele>638.1</ele>
        <time>2020-02-12T13:47:35Z</time>
      </trkpt>
      <trkpt lat="46.83487" lon="5.89155">
        <ele>638.2</ele>
        <time>2020-02-12T13:47:43Z</time>
      </trkpt>
      <trkpt lat="46.83482" lon="5.89154">
        <ele>638.3</ele>
        <time>2020-02-12T13:47:49Z</time>
      </trkpt>
      <trkpt lat="46.83478" lon="5.89153">
        <ele>638.5</ele>
        <time>2020-02-12T13:47:56Z</time>
      </trkpt>
      <trkpt lat="46.83473" lon="5.8915">
        <ele>637.9</ele>
        <time>2020-02-12T13:48:04Z</time>
      </trkpt>
      <trkpt lat="46.83469" lon="5.89145">
        <ele>636.9</ele>
        <time>2020-02-12T13:48:10Z</time>
      </trkpt>
      <trkpt lat="46.83465" lon="5.89141">
        <ele>635.9</ele>
        <time>2020-02-12T13:48:15Z</time>
      </trkpt>
      <trkpt lat="46.83461" lon="5.89138">
        <ele>635.1</ele>
        <time>2020-02-12T13:48:19Z</time>
      </trkpt>
      <trkpt lat="46.83458" lon="5.89132">
        <ele>634.2</ele>
        <time>2020-02-12T13:48:23Z</time>
      </trkpt>
      <trkpt lat="46.83452" lon="5.89131">
        <ele>633.1</ele>
        <time>2020-02-12T13:48:28Z</time>
      </trkpt>
      <trkpt lat="46.83438" lon="5.89124">
        <ele>632.9</ele>
        <time>2020-02-12T13:49:55Z</time>
      </trkpt>
      <trkpt lat="46.83435" lon="5.8912">
        <ele>633.1</ele>
        <time>2020-02-12T13:49:57Z</time>
      </trkpt>
      <trkpt lat="46.83432" lon="5.89115">
        <ele>633.3</ele>
        <time>2020-02-12T13:49:59Z</time>
      </trkpt>
      <trkpt lat="46.83427" lon="5.89111">
        <ele>633.6</ele>
        <time>2020-02-12T13:50:03Z</time>
      </trkpt>
      <trkpt lat="46.83422" lon="5.89106">
        <ele>633.8</ele>
        <time>2020-02-12T13:50:07Z</time>
      </trkpt>
      <trkpt lat="46.83419" lon="5.891">
        <ele>633.6</ele>
        <time>2020-02-12T13:50:11Z</time>
      </trkpt>
      <trkpt lat="46.83414" lon="5.89096">
        <ele>633.4</ele>
        <time>2020-02-12T13:50:16Z</time>
      </trkpt>
      <trkpt lat="46.83409" lon="5.89092">
        <ele>633.1</ele>
        <time>2020-02-12T13:50:21Z</time>
      </trkpt>
      <trkpt lat="46.83405" lon="5.89088">
        <ele>632.3</ele>
        <time>2020-02-12T13:50:27Z</time>
      </trkpt>
      <trkpt lat="46.83401" lon="5.89084">
        <ele>631.3</ele>
        <time>2020-02-12T13:50:32Z</time>
      </trkpt>
      <trkpt lat="46.83397" lon="5.8908">
        <ele>630.4</ele>
        <time>2020-02-12T13:50:43Z</time>
      </trkpt>
      <trkpt lat="46.83393" lon="5.89075">
        <ele>630</ele>
        <time>2020-02-12T13:50:50Z</time>
      </trkpt>
      <trkpt lat="46.83389" lon="5.89069">
        <ele>629.3</ele>
        <time>2020-02-12T13:50:55Z</time>
      </trkpt>
      <trkpt lat="46.83385" lon="5.89063">
        <ele>628.6</ele>
        <time>2020-02-12T13:51:00Z</time>
      </trkpt>
      <trkpt lat="46.83382" lon="5.89058">
        <ele>628.2</ele>
        <time>2020-02-12T13:51:04Z</time>
      </trkpt>
      <trkpt lat="46.83379" lon="5.89053">
        <ele>627.9</ele>
        <time>2020-02-12T13:51:08Z</time>
      </trkpt>
      <trkpt lat="46.83377" lon="5.89046">
        <ele>627.7</ele>
        <time>2020-02-12T13:51:12Z</time>
      </trkpt>
      <trkpt lat="46.83374" lon="5.8904">
        <ele>627.6</ele>
        <time>2020-02-12T13:51:16Z</time>
      </trkpt>
      <trkpt lat="46.8337" lon="5.89034">
        <ele>627.5</ele>
        <time>2020-02-12T13:51:20Z</time>
      </trkpt>
      <trkpt lat="46.83366" lon="5.89029">
        <ele>627.6</ele>
        <time>2020-02-12T13:51:24Z</time>
      </trkpt>
      <trkpt lat="46.83363" lon="5.89023">
        <ele>627.4</ele>
        <time>2020-02-12T13:51:29Z</time>
      </trkpt>
      <trkpt lat="46.83357" lon="5.89016">
        <ele>628</ele>
        <time>2020-02-12T13:54:25Z</time>
      </trkpt>
      <trkpt lat="46.83353" lon="5.89012">
        <ele>627.4</ele>
        <time>2020-02-12T13:54:30Z</time>
      </trkpt>
      <trkpt lat="46.8335" lon="5.89006">
        <ele>627.2</ele>
        <time>2020-02-12T13:54:34Z</time>
      </trkpt>
      <trkpt lat="46.83346" lon="5.89002">
        <ele>627.1</ele>
        <time>2020-02-12T13:54:38Z</time>
      </trkpt>
      <trkpt lat="46.83341" lon="5.88998">
        <ele>627.3</ele>
        <time>2020-02-12T13:54:43Z</time>
      </trkpt>
      <trkpt lat="46.83337" lon="5.88994">
        <ele>627.6</ele>
        <time>2020-02-12T13:54:48Z</time>
      </trkpt>
      <trkpt lat="46.83335" lon="5.88988">
        <ele>627.8</ele>
        <time>2020-02-12T13:54:52Z</time>
      </trkpt>
      <trkpt lat="46.83332" lon="5.88982">
        <ele>627.9</ele>
        <time>2020-02-12T13:54:56Z</time>
      </trkpt>
      <trkpt lat="46.83329" lon="5.88976">
        <ele>628</ele>
        <time>2020-02-12T13:55:00Z</time>
      </trkpt>
      <trkpt lat="46.83325" lon="5.8897">
        <ele>628.1</ele>
        <time>2020-02-12T13:55:04Z</time>
      </trkpt>
      <trkpt lat="46.83321" lon="5.88965">
        <ele>628.4</ele>
        <time>2020-02-12T13:55:09Z</time>
      </trkpt>
      <trkpt lat="46.83317" lon="5.88959">
        <ele>628.8</ele>
        <time>2020-02-12T13:55:14Z</time>
      </trkpt>
      <trkpt lat="46.83314" lon="5.88953">
        <ele>629.1</ele>
        <time>2020-02-12T13:55:19Z</time>
      </trkpt>
      <trkpt lat="46.8331" lon="5.88949">
        <ele>629.6</ele>
        <time>2020-02-12T13:55:24Z</time>
      </trkpt>
      <trkpt lat="46.83306" lon="5.88945">
        <ele>630.1</ele>
        <time>2020-02-12T13:55:28Z</time>
      </trkpt>
      <trkpt lat="46.83302" lon="5.88939">
        <ele>630.5</ele>
        <time>2020-02-12T13:55:34Z</time>
      </trkpt>
      <trkpt lat="46.83298" lon="5.88933">
        <ele>630.6</ele>
        <time>2020-02-12T13:55:39Z</time>
      </trkpt>
      <trkpt lat="46.83295" lon="5.88928">
        <ele>630.7</ele>
        <time>2020-02-12T13:55:43Z</time>
      </trkpt>
      <trkpt lat="46.8329" lon="5.88923">
        <ele>630.9</ele>
        <time>2020-02-12T13:55:48Z</time>
      </trkpt>
      <trkpt lat="46.83287" lon="5.88919">
        <ele>631.1</ele>
        <time>2020-02-12T13:55:52Z</time>
      </trkpt>
      <trkpt lat="46.83283" lon="5.88915">
        <ele>631.3</ele>
        <time>2020-02-12T13:55:56Z</time>
      </trkpt>
      <trkpt lat="46.83278" lon="5.88911">
        <ele>631.5</ele>
        <time>2020-02-12T13:56:01Z</time>
      </trkpt>
      <trkpt lat="46.83275" lon="5.88906">
        <ele>631.8</ele>
        <time>2020-02-12T13:56:05Z</time>
      </trkpt>
      <trkpt lat="46.83271" lon="5.889">
        <ele>632.2</ele>
        <time>2020-02-12T13:56:10Z</time>
      </trkpt>
      <trkpt lat="46.83267" lon="5.88895">
        <ele>632.6</ele>
        <time>2020-02-12T13:56:15Z</time>
      </trkpt>
      <trkpt lat="46.83263" lon="5.88891">
        <ele>632.7</ele>
        <time>2020-02-12T13:56:19Z</time>
      </trkpt>
      <trkpt lat="46.83259" lon="5.88886">
        <ele>632.5</ele>
        <time>2020-02-12T13:56:24Z</time>
      </trkpt>
      <trkpt lat="46.83256" lon="5.88881">
        <ele>632.5</ele>
        <time>2020-02-12T13:56:28Z</time>
      </trkpt>
      <trkpt lat="46.83252" lon="5.88877">
        <ele>632.5</ele>
        <time>2020-02-12T13:56:32Z</time>
      </trkpt>
      <trkpt lat="46.83249" lon="5.88872">
        <ele>632.4</ele>
        <time>2020-02-12T13:56:37Z</time>
      </trkpt>
      <trkpt lat="46.83245" lon="5.88866">
        <ele>632.4</ele>
        <time>2020-02-12T13:56:41Z</time>
      </trkpt>
      <trkpt lat="46.83242" lon="5.88861">
        <ele>632.6</ele>
        <time>2020-02-12T13:56:45Z</time>
      </trkpt>
      <trkpt lat="46.83238" lon="5.88857">
        <ele>632.9</ele>
        <time>2020-02-12T13:56:50Z</time>
      </trkpt>
      <trkpt lat="46.83235" lon="5.88852">
        <ele>633</ele>
        <time>2020-02-12T13:56:53Z</time>
      </trkpt>
      <trkpt lat="46.8323" lon="5.88847">
        <ele>633.2</ele>
        <time>2020-02-12T13:56:57Z</time>
      </trkpt>
      <trkpt lat="46.83227" lon="5.88843">
        <ele>633.4</ele>
        <time>2020-02-12T13:57:01Z</time>
      </trkpt>
      <trkpt lat="46.83222" lon="5.88838">
        <ele>633.6</ele>
        <time>2020-02-12T13:57:06Z</time>
      </trkpt>
      <trkpt lat="46.83218" lon="5.88834">
        <ele>633.8</ele>
        <time>2020-02-12T13:57:11Z</time>
      </trkpt>
      <trkpt lat="46.83213" lon="5.8883">
        <ele>634.1</ele>
        <time>2020-02-12T13:57:16Z</time>
      </trkpt>
      <trkpt lat="46.83208" lon="5.88826">
        <ele>634.2</ele>
        <time>2020-02-12T13:57:22Z</time>
      </trkpt>
      <trkpt lat="46.83204" lon="5.88823">
        <ele>634.1</ele>
        <time>2020-02-12T13:57:27Z</time>
      </trkpt>
      <trkpt lat="46.83201" lon="5.88818">
        <ele>634.4</ele>
        <time>2020-02-12T13:57:45Z</time>
      </trkpt>
      <trkpt lat="46.83196" lon="5.88815">
        <ele>634.6</ele>
        <time>2020-02-12T13:57:55Z</time>
      </trkpt>
      <trkpt lat="46.83191" lon="5.88814">
        <ele>634.6</ele>
        <time>2020-02-12T13:57:59Z</time>
      </trkpt>
      <trkpt lat="46.83186" lon="5.88812">
        <ele>634.8</ele>
        <time>2020-02-12T13:58:03Z</time>
      </trkpt>
      <trkpt lat="46.83181" lon="5.88811">
        <ele>635</ele>
        <time>2020-02-12T13:58:08Z</time>
      </trkpt>
      <trkpt lat="46.83176" lon="5.88808">
        <ele>635.1</ele>
        <time>2020-02-12T13:58:12Z</time>
      </trkpt>
      <trkpt lat="46.83171" lon="5.88804">
        <ele>635.1</ele>
        <time>2020-02-12T13:58:16Z</time>
      </trkpt>
      <trkpt lat="46.83167" lon="5.888">
        <ele>635.2</ele>
        <time>2020-02-12T13:58:21Z</time>
      </trkpt>
      <trkpt lat="46.83161" lon="5.88797">
        <ele>635.4</ele>
        <time>2020-02-12T13:58:25Z</time>
      </trkpt>
      <trkpt lat="46.83156" lon="5.88797">
        <ele>635.4</ele>
        <time>2020-02-12T13:58:30Z</time>
      </trkpt>
      <trkpt lat="46.83151" lon="5.88796">
        <ele>635.5</ele>
        <time>2020-02-12T13:58:34Z</time>
      </trkpt>
      <trkpt lat="46.83147" lon="5.88793">
        <ele>635.7</ele>
        <time>2020-02-12T13:58:38Z</time>
      </trkpt>
      <trkpt lat="46.83141" lon="5.88789">
        <ele>635.8</ele>
        <time>2020-02-12T13:58:42Z</time>
      </trkpt>
      <trkpt lat="46.83137" lon="5.88786">
        <ele>635.8</ele>
        <time>2020-02-12T13:58:47Z</time>
      </trkpt>
      <trkpt lat="46.83133" lon="5.88783">
        <ele>635.8</ele>
        <time>2020-02-12T13:58:52Z</time>
      </trkpt>
      <trkpt lat="46.83128" lon="5.8878">
        <ele>635.9</ele>
        <time>2020-02-12T13:58:57Z</time>
      </trkpt>
      <trkpt lat="46.83124" lon="5.88777">
        <ele>636</ele>
        <time>2020-02-12T13:59:00Z</time>
      </trkpt>
      <trkpt lat="46.83119" lon="5.88774">
        <ele>636.1</ele>
        <time>2020-02-12T13:59:04Z</time>
      </trkpt>
      <trkpt lat="46.83115" lon="5.88772">
        <ele>636.3</ele>
        <time>2020-02-12T13:59:08Z</time>
      </trkpt>
      <trkpt lat="46.8311" lon="5.88771">
        <ele>636.4</ele>
        <time>2020-02-12T13:59:14Z</time>
      </trkpt>
      <trkpt lat="46.83105" lon="5.88772">
        <ele>636.5</ele>
        <time>2020-02-12T13:59:17Z</time>
      </trkpt>
      <trkpt lat="46.831" lon="5.88773">
        <ele>636.3</ele>
        <time>2020-02-12T13:59:23Z</time>
      </trkpt>
      <trkpt lat="46.83095" lon="5.88772">
        <ele>636.2</ele>
        <time>2020-02-12T13:59:31Z</time>
      </trkpt>
      <trkpt lat="46.8309" lon="5.8877">
        <ele>636.4</ele>
        <time>2020-02-12T13:59:37Z</time>
      </trkpt>
      <trkpt lat="46.83086" lon="5.8877">
        <ele>636.6</ele>
        <time>2020-02-12T13:59:41Z</time>
      </trkpt>
      <trkpt lat="46.8308" lon="5.88768">
        <ele>636.9</ele>
        <time>2020-02-12T13:59:47Z</time>
      </trkpt>
      <trkpt lat="46.83075" lon="5.88766">
        <ele>636.8</ele>
        <time>2020-02-12T13:59:52Z</time>
      </trkpt>
      <trkpt lat="46.83071" lon="5.88765">
        <ele>636.7</ele>
        <time>2020-02-12T13:59:56Z</time>
      </trkpt>
      <trkpt lat="46.83068" lon="5.88758">
        <ele>636.8</ele>
        <time>2020-02-12T14:00:10Z</time>
      </trkpt>
      <trkpt lat="46.83064" lon="5.88754">
        <ele>636.7</ele>
        <time>2020-02-12T14:00:13Z</time>
      </trkpt>
      <trkpt lat="46.8306" lon="5.8875">
        <ele>636.8</ele>
        <time>2020-02-12T14:00:17Z</time>
      </trkpt>
      <trkpt lat="46.83055" lon="5.88745">
        <ele>636.7</ele>
        <time>2020-02-12T14:00:22Z</time>
      </trkpt>
      <trkpt lat="46.83052" lon="5.88741">
        <ele>636.4</ele>
        <time>2020-02-12T14:00:28Z</time>
      </trkpt>
      <trkpt lat="46.83048" lon="5.88736">
        <ele>635.8</ele>
        <time>2020-02-12T14:00:34Z</time>
      </trkpt>
      <trkpt lat="46.83044" lon="5.88731">
        <ele>635.5</ele>
        <time>2020-02-12T14:00:38Z</time>
      </trkpt>
      <trkpt lat="46.8304" lon="5.88726">
        <ele>635.3</ele>
        <time>2020-02-12T14:00:42Z</time>
      </trkpt>
      <trkpt lat="46.83036" lon="5.88722">
        <ele>634.8</ele>
        <time>2020-02-12T14:00:47Z</time>
      </trkpt>
      <trkpt lat="46.83032" lon="5.88717">
        <ele>634.5</ele>
        <time>2020-02-12T14:00:52Z</time>
      </trkpt>
      <trkpt lat="46.83027" lon="5.88712">
        <ele>634.3</ele>
        <time>2020-02-12T14:00:56Z</time>
      </trkpt>
      <trkpt lat="46.83022" lon="5.88708">
        <ele>633.8</ele>
        <time>2020-02-12T14:01:00Z</time>
      </trkpt>
      <trkpt lat="46.83018" lon="5.88705">
        <ele>633.4</ele>
        <time>2020-02-12T14:01:04Z</time>
      </trkpt>
      <trkpt lat="46.83013" lon="5.88701">
        <ele>633.1</ele>
        <time>2020-02-12T14:01:08Z</time>
      </trkpt>
      <trkpt lat="46.83009" lon="5.88696">
        <ele>632.7</ele>
        <time>2020-02-12T14:01:13Z</time>
      </trkpt>
      <trkpt lat="46.83005" lon="5.88695">
        <ele>632.4</ele>
        <time>2020-02-12T14:01:18Z</time>
      </trkpt>
      <trkpt lat="46.83" lon="5.88693">
        <ele>631.9</ele>
        <time>2020-02-12T14:01:23Z</time>
      </trkpt>
      <trkpt lat="46.82996" lon="5.8869">
        <ele>631.7</ele>
        <time>2020-02-12T14:01:27Z</time>
      </trkpt>
      <trkpt lat="46.82991" lon="5.88686">
        <ele>631.5</ele>
        <time>2020-02-12T14:01:32Z</time>
      </trkpt>
      <trkpt lat="46.82986" lon="5.88683">
        <ele>631.6</ele>
        <time>2020-02-12T14:01:37Z</time>
      </trkpt>
      <trkpt lat="46.82981" lon="5.8868">
        <ele>631.9</ele>
        <time>2020-02-12T14:01:41Z</time>
      </trkpt>
      <trkpt lat="46.82976" lon="5.88679">
        <ele>632.2</ele>
        <time>2020-02-12T14:01:45Z</time>
      </trkpt>
      <trkpt lat="46.8297" lon="5.88679">
        <ele>632.4</ele>
        <time>2020-02-12T14:01:50Z</time>
      </trkpt>
      <trkpt lat="46.82965" lon="5.88679">
        <ele>632.6</ele>
        <time>2020-02-12T14:01:54Z</time>
      </trkpt>
      <trkpt lat="46.8296" lon="5.88681">
        <ele>632.9</ele>
        <time>2020-02-12T14:01:59Z</time>
      </trkpt>
      <trkpt lat="46.82959" lon="5.88688">
        <ele>633.4</ele>
        <time>2020-02-12T14:02:25Z</time>
      </trkpt>
      <trkpt lat="46.8296" lon="5.88695">
        <ele>633.7</ele>
        <time>2020-02-12T14:02:32Z</time>
      </trkpt>
      <trkpt lat="46.82961" lon="5.88702">
        <ele>634</ele>
        <time>2020-02-12T14:02:38Z</time>
      </trkpt>
      <trkpt lat="46.82962" lon="5.88709">
        <ele>634.3</ele>
        <time>2020-02-12T14:02:43Z</time>
      </trkpt>
      <trkpt lat="46.82962" lon="5.88716">
        <ele>634.6</ele>
        <time>2020-02-12T14:02:50Z</time>
      </trkpt>
      <trkpt lat="46.82964" lon="5.88722">
        <ele>634.6</ele>
        <time>2020-02-12T14:02:54Z</time>
      </trkpt>
      <trkpt lat="46.82965" lon="5.88729">
        <ele>634.6</ele>
        <time>2020-02-12T14:02:58Z</time>
      </trkpt>
      <trkpt lat="46.82966" lon="5.88737">
        <ele>634.2</ele>
        <time>2020-02-12T14:03:03Z</time>
      </trkpt>
      <trkpt lat="46.82966" lon="5.88744">
        <ele>633.8</ele>
        <time>2020-02-12T14:03:07Z</time>
      </trkpt>
      <trkpt lat="46.82966" lon="5.88752">
        <ele>633.4</ele>
        <time>2020-02-12T14:03:12Z</time>
      </trkpt>
      <trkpt lat="46.82967" lon="5.8876">
        <ele>633.4</ele>
        <time>2020-02-12T14:03:17Z</time>
      </trkpt>
      <trkpt lat="46.82967" lon="5.88767">
        <ele>633.3</ele>
        <time>2020-02-12T14:03:22Z</time>
      </trkpt>
      <trkpt lat="46.82967" lon="5.88775">
        <ele>633</ele>
        <time>2020-02-12T14:03:27Z</time>
      </trkpt>
      <trkpt lat="46.82966" lon="5.88781">
        <ele>632.9</ele>
        <time>2020-02-12T14:03:31Z</time>
      </trkpt>
      <trkpt lat="46.82966" lon="5.88789">
        <ele>632.7</ele>
        <time>2020-02-12T14:03:35Z</time>
      </trkpt>
      <trkpt lat="46.82965" lon="5.88796">
        <ele>632.6</ele>
        <time>2020-02-12T14:03:38Z</time>
      </trkpt>
      <trkpt lat="46.82965" lon="5.88802">
        <ele>632.5</ele>
        <time>2020-02-12T14:03:43Z</time>
      </trkpt>
      <trkpt lat="46.82965" lon="5.88809">
        <ele>632.6</ele>
        <time>2020-02-12T14:03:50Z</time>
      </trkpt>
      <trkpt lat="46.82964" lon="5.88817">
        <ele>632.5</ele>
        <time>2020-02-12T14:03:54Z</time>
      </trkpt>
      <trkpt lat="46.82963" lon="5.88824">
        <ele>632.2</ele>
        <time>2020-02-12T14:03:58Z</time>
      </trkpt>
      <trkpt lat="46.82962" lon="5.88831">
        <ele>632</ele>
        <time>2020-02-12T14:04:02Z</time>
      </trkpt>
      <trkpt lat="46.82961" lon="5.88838">
        <ele>631.9</ele>
        <time>2020-02-12T14:04:07Z</time>
      </trkpt>
      <trkpt lat="46.8296" lon="5.88847">
        <ele>632.1</ele>
        <time>2020-02-12T14:04:12Z</time>
      </trkpt>
      <trkpt lat="46.82959" lon="5.88855">
        <ele>632.2</ele>
        <time>2020-02-12T14:04:16Z</time>
      </trkpt>
      <trkpt lat="46.82958" lon="5.88861">
        <ele>632.3</ele>
        <time>2020-02-12T14:04:20Z</time>
      </trkpt>
      <trkpt lat="46.82958" lon="5.88869">
        <ele>632.4</ele>
        <time>2020-02-12T14:04:26Z</time>
      </trkpt>
      <trkpt lat="46.82958" lon="5.88877">
        <ele>632.3</ele>
        <time>2020-02-12T14:04:31Z</time>
      </trkpt>
      <trkpt lat="46.82957" lon="5.88884">
        <ele>632.1</ele>
        <time>2020-02-12T14:04:36Z</time>
      </trkpt>
      <trkpt lat="46.82956" lon="5.88891">
        <ele>631.7</ele>
        <time>2020-02-12T14:04:40Z</time>
      </trkpt>
      <trkpt lat="46.82955" lon="5.88899">
        <ele>631.6</ele>
        <time>2020-02-12T14:04:44Z</time>
      </trkpt>
      <trkpt lat="46.82954" lon="5.88906">
        <ele>631.5</ele>
        <time>2020-02-12T14:04:48Z</time>
      </trkpt>
      <trkpt lat="46.82953" lon="5.88914">
        <ele>631.4</ele>
        <time>2020-02-12T14:04:53Z</time>
      </trkpt>
      <trkpt lat="46.82952" lon="5.88921">
        <ele>631.1</ele>
        <time>2020-02-12T14:04:59Z</time>
      </trkpt>
      <trkpt lat="46.82953" lon="5.88928">
        <ele>630.8</ele>
        <time>2020-02-12T14:05:06Z</time>
      </trkpt>
      <trkpt lat="46.82952" lon="5.88936">
        <ele>630.5</ele>
        <time>2020-02-12T14:05:11Z</time>
      </trkpt>
      <trkpt lat="46.82952" lon="5.88943">
        <ele>630.4</ele>
        <time>2020-02-12T14:05:16Z</time>
      </trkpt>
      <trkpt lat="46.82952" lon="5.88949">
        <ele>630.3</ele>
        <time>2020-02-12T14:05:20Z</time>
      </trkpt>
      <trkpt lat="46.82952" lon="5.88956">
        <ele>630.4</ele>
        <time>2020-02-12T14:05:24Z</time>
      </trkpt>
      <trkpt lat="46.82952" lon="5.88963">
        <ele>630.5</ele>
        <time>2020-02-12T14:05:28Z</time>
      </trkpt>
      <trkpt lat="46.82953" lon="5.88971">
        <ele>630.5</ele>
        <time>2020-02-12T14:05:32Z</time>
      </trkpt>
      <trkpt lat="46.82954" lon="5.88978">
        <ele>630.4</ele>
        <time>2020-02-12T14:05:37Z</time>
      </trkpt>
      <trkpt lat="46.82955" lon="5.88985">
        <ele>630.5</ele>
        <time>2020-02-12T14:05:41Z</time>
      </trkpt>
      <trkpt lat="46.82956" lon="5.88992">
        <ele>630.6</ele>
        <time>2020-02-12T14:05:45Z</time>
      </trkpt>
      <trkpt lat="46.82957" lon="5.88998">
        <ele>630.9</ele>
        <time>2020-02-12T14:05:50Z</time>
      </trkpt>
      <trkpt lat="46.82958" lon="5.89007">
        <ele>631.2</ele>
        <time>2020-02-12T14:05:55Z</time>
      </trkpt>
      <trkpt lat="46.8296" lon="5.89013">
        <ele>631.4</ele>
        <time>2020-02-12T14:05:59Z</time>
      </trkpt>
      <trkpt lat="46.82963" lon="5.89019">
        <ele>631.9</ele>
        <time>2020-02-12T14:06:04Z</time>
      </trkpt>
      <trkpt lat="46.82965" lon="5.89026">
        <ele>632.2</ele>
        <time>2020-02-12T14:06:08Z</time>
      </trkpt>
      <trkpt lat="46.82969" lon="5.89033">
        <ele>632.5</ele>
        <time>2020-02-12T14:06:12Z</time>
      </trkpt>
      <trkpt lat="46.82972" lon="5.89038">
        <ele>632.9</ele>
        <time>2020-02-12T14:06:16Z</time>
      </trkpt>
      <trkpt lat="46.82975" lon="5.89042">
        <ele>633.2</ele>
        <time>2020-02-12T14:06:20Z</time>
      </trkpt>
      <trkpt lat="46.82979" lon="5.89047">
        <ele>633.5</ele>
        <time>2020-02-12T14:06:25Z</time>
      </trkpt>
      <trkpt lat="46.82984" lon="5.89052">
        <ele>633.9</ele>
        <time>2020-02-12T14:06:30Z</time>
      </trkpt>
      <trkpt lat="46.82988" lon="5.89056">
        <ele>634</ele>
        <time>2020-02-12T14:06:34Z</time>
      </trkpt>
      <trkpt lat="46.82992" lon="5.89061">
        <ele>634</ele>
        <time>2020-02-12T14:06:38Z</time>
      </trkpt>
      <trkpt lat="46.82996" lon="5.89066">
        <ele>633.9</ele>
        <time>2020-02-12T14:06:42Z</time>
      </trkpt>
      <trkpt lat="46.83" lon="5.89071">
        <ele>634</ele>
        <time>2020-02-12T14:06:47Z</time>
      </trkpt>
      <trkpt lat="46.83004" lon="5.89075">
        <ele>634</ele>
        <time>2020-02-12T14:06:51Z</time>
      </trkpt>
      <trkpt lat="46.83008" lon="5.89079">
        <ele>633.9</ele>
        <time>2020-02-12T14:06:55Z</time>
      </trkpt>
      <trkpt lat="46.83011" lon="5.89084">
        <ele>634</ele>
        <time>2020-02-12T14:06:59Z</time>
      </trkpt>
      <trkpt lat="46.83015" lon="5.8909">
        <ele>634</ele>
        <time>2020-02-12T14:07:04Z</time>
      </trkpt>
      <trkpt lat="46.83017" lon="5.89096">
        <ele>633.9</ele>
        <time>2020-02-12T14:07:08Z</time>
      </trkpt>
      <trkpt lat="46.8302" lon="5.89102">
        <ele>633.8</ele>
        <time>2020-02-12T14:07:13Z</time>
      </trkpt>
      <trkpt lat="46.83024" lon="5.89106">
        <ele>633.7</ele>
        <time>2020-02-12T14:07:17Z</time>
      </trkpt>
      <trkpt lat="46.83029" lon="5.8911">
        <ele>633.6</ele>
        <time>2020-02-12T14:07:22Z</time>
      </trkpt>
      <trkpt lat="46.83033" lon="5.89113">
        <ele>633.6</ele>
        <time>2020-02-12T14:07:26Z</time>
      </trkpt>
      <trkpt lat="46.83038" lon="5.89116">
        <ele>633.5</ele>
        <time>2020-02-12T14:07:31Z</time>
      </trkpt>
      <trkpt lat="46.83044" lon="5.89119">
        <ele>633.5</ele>
        <time>2020-02-12T14:07:35Z</time>
      </trkpt>
      <trkpt lat="46.83048" lon="5.8912">
        <ele>633.4</ele>
        <time>2020-02-12T14:07:39Z</time>
      </trkpt>
      <trkpt lat="46.83054" lon="5.89121">
        <ele>633.2</ele>
        <time>2020-02-12T14:07:44Z</time>
      </trkpt>
      <trkpt lat="46.83058" lon="5.89121">
        <ele>633.1</ele>
        <time>2020-02-12T14:07:48Z</time>
      </trkpt>
      <trkpt lat="46.83063" lon="5.89122">
        <ele>633</ele>
        <time>2020-02-12T14:07:53Z</time>
      </trkpt>
      <trkpt lat="46.83069" lon="5.89122">
        <ele>632.9</ele>
        <time>2020-02-12T14:07:57Z</time>
      </trkpt>
      <trkpt lat="46.83073" lon="5.89124">
        <ele>632.9</ele>
        <time>2020-02-12T14:08:01Z</time>
      </trkpt>
      <trkpt lat="46.83078" lon="5.89125">
        <ele>632.9</ele>
        <time>2020-02-12T14:08:05Z</time>
      </trkpt>
      <trkpt lat="46.83083" lon="5.89128">
        <ele>632.9</ele>
        <time>2020-02-12T14:08:09Z</time>
      </trkpt>
      <trkpt lat="46.83087" lon="5.89131">
        <ele>633</ele>
        <time>2020-02-12T14:08:13Z</time>
      </trkpt>
      <trkpt lat="46.83092" lon="5.89135">
        <ele>633.2</ele>
        <time>2020-02-12T14:08:17Z</time>
      </trkpt>
      <trkpt lat="46.83095" lon="5.89139">
        <ele>633.2</ele>
        <time>2020-02-12T14:08:21Z</time>
      </trkpt>
      <trkpt lat="46.83099" lon="5.89144">
        <ele>633.4</ele>
        <time>2020-02-12T14:08:25Z</time>
      </trkpt>
      <trkpt lat="46.83102" lon="5.8915">
        <ele>633.5</ele>
        <time>2020-02-12T14:08:29Z</time>
      </trkpt>
      <trkpt lat="46.83105" lon="5.89156">
        <ele>633.5</ele>
        <time>2020-02-12T14:08:35Z</time>
      </trkpt>
      <trkpt lat="46.83108" lon="5.89161">
        <ele>633.5</ele>
        <time>2020-02-12T14:08:40Z</time>
      </trkpt>
      <trkpt lat="46.83112" lon="5.89166">
        <ele>633.4</ele>
        <time>2020-02-12T14:08:45Z</time>
      </trkpt>
      <trkpt lat="46.83115" lon="5.89173">
        <ele>633.4</ele>
        <time>2020-02-12T14:08:49Z</time>
      </trkpt>
      <trkpt lat="46.83119" lon="5.89178">
        <ele>633.1</ele>
        <time>2020-02-12T14:08:53Z</time>
      </trkpt>
      <trkpt lat="46.83122" lon="5.89183">
        <ele>633.1</ele>
        <time>2020-02-12T14:08:56Z</time>
      </trkpt>
      <trkpt lat="46.83126" lon="5.89189">
        <ele>633.1</ele>
        <time>2020-02-12T14:09:00Z</time>
      </trkpt>
      <trkpt lat="46.83129" lon="5.89194">
        <ele>633</ele>
        <time>2020-02-12T14:09:04Z</time>
      </trkpt>
      <trkpt lat="46.83133" lon="5.892">
        <ele>633.1</ele>
        <time>2020-02-12T14:09:09Z</time>
      </trkpt>
      <trkpt lat="46.83136" lon="5.89206">
        <ele>633.1</ele>
        <time>2020-02-12T14:09:14Z</time>
      </trkpt>
      <trkpt lat="46.83139" lon="5.89212">
        <ele>633.3</ele>
        <time>2020-02-12T14:09:18Z</time>
      </trkpt>
      <trkpt lat="46.83143" lon="5.89217">
        <ele>633.5</ele>
        <time>2020-02-12T14:09:22Z</time>
      </trkpt>
      <trkpt lat="46.83146" lon="5.89223">
        <ele>633.5</ele>
        <time>2020-02-12T14:09:27Z</time>
      </trkpt>
      <trkpt lat="46.8315" lon="5.89228">
        <ele>633.5</ele>
        <time>2020-02-12T14:09:32Z</time>
      </trkpt>
      <trkpt lat="46.83153" lon="5.89233">
        <ele>633.7</ele>
        <time>2020-02-12T14:09:36Z</time>
      </trkpt>
      <trkpt lat="46.83156" lon="5.89238">
        <ele>633.9</ele>
        <time>2020-02-12T14:09:40Z</time>
      </trkpt>
      <trkpt lat="46.83159" lon="5.89243">
        <ele>634.2</ele>
        <time>2020-02-12T14:09:45Z</time>
      </trkpt>
      <trkpt lat="46.83163" lon="5.89248">
        <ele>634.5</ele>
        <time>2020-02-12T14:09:49Z</time>
      </trkpt>
      <trkpt lat="46.83166" lon="5.89254">
        <ele>634.9</ele>
        <time>2020-02-12T14:09:53Z</time>
      </trkpt>
      <trkpt lat="46.8317" lon="5.89259">
        <ele>635.2</ele>
        <time>2020-02-12T14:09:58Z</time>
      </trkpt>
      <trkpt lat="46.83173" lon="5.89264">
        <ele>635.4</ele>
        <time>2020-02-12T14:10:02Z</time>
      </trkpt>
      <trkpt lat="46.83176" lon="5.8927">
        <ele>635.5</ele>
        <time>2020-02-12T14:10:07Z</time>
      </trkpt>
      <trkpt lat="46.8318" lon="5.89276">
        <ele>635.7</ele>
        <time>2020-02-12T14:10:11Z</time>
      </trkpt>
      <trkpt lat="46.83184" lon="5.89282">
        <ele>636</ele>
        <time>2020-02-12T14:10:16Z</time>
      </trkpt>
      <trkpt lat="46.83187" lon="5.89287">
        <ele>636.3</ele>
        <time>2020-02-12T14:10:20Z</time>
      </trkpt>
      <trkpt lat="46.83191" lon="5.89292">
        <ele>636.6</ele>
        <time>2020-02-12T14:10:24Z</time>
      </trkpt>
      <trkpt lat="46.83194" lon="5.89297">
        <ele>636.8</ele>
        <time>2020-02-12T14:10:28Z</time>
      </trkpt>
      <trkpt lat="46.83197" lon="5.89302">
        <ele>636.9</ele>
        <time>2020-02-12T14:10:32Z</time>
      </trkpt>
      <trkpt lat="46.83201" lon="5.89307">
        <ele>637.2</ele>
        <time>2020-02-12T14:10:36Z</time>
      </trkpt>
      <trkpt lat="46.83204" lon="5.89313">
        <ele>637.6</ele>
        <time>2020-02-12T14:10:40Z</time>
      </trkpt>
      <trkpt lat="46.83208" lon="5.89319">
        <ele>638.1</ele>
        <time>2020-02-12T14:10:45Z</time>
      </trkpt>
      <trkpt lat="46.83211" lon="5.89324">
        <ele>638.4</ele>
        <time>2020-02-12T14:10:49Z</time>
      </trkpt>
      <trkpt lat="46.83215" lon="5.89329">
        <ele>638.8</ele>
        <time>2020-02-12T14:10:54Z</time>
      </trkpt>
      <trkpt lat="46.83218" lon="5.89335">
        <ele>639.3</ele>
        <time>2020-02-12T14:10:58Z</time>
      </trkpt>
      <trkpt lat="46.83222" lon="5.8934">
        <ele>639.8</ele>
        <time>2020-02-12T14:11:03Z</time>
      </trkpt>
      <trkpt lat="46.83226" lon="5.89344">
        <ele>640.2</ele>
        <time>2020-02-12T14:11:07Z</time>
      </trkpt>
      <trkpt lat="46.83229" lon="5.89349">
        <ele>640.6</ele>
        <time>2020-02-12T14:11:11Z</time>
      </trkpt>
      <trkpt lat="46.83233" lon="5.89355">
        <ele>640.9</ele>
        <time>2020-02-12T14:11:15Z</time>
      </trkpt>
      <trkpt lat="46.83236" lon="5.8936">
        <ele>641.2</ele>
        <time>2020-02-12T14:11:19Z</time>
      </trkpt>
      <trkpt lat="46.8324" lon="5.89365">
        <ele>641.6</ele>
        <time>2020-02-12T14:11:24Z</time>
      </trkpt>
      <trkpt lat="46.83244" lon="5.89371">
        <ele>642.1</ele>
        <time>2020-02-12T14:11:29Z</time>
      </trkpt>
      <trkpt lat="46.83248" lon="5.89375">
        <ele>642.4</ele>
        <time>2020-02-12T14:11:34Z</time>
      </trkpt>
      <trkpt lat="46.83253" lon="5.8938">
        <ele>642.5</ele>
        <time>2020-02-12T14:11:39Z</time>
      </trkpt>
      <trkpt lat="46.83256" lon="5.89384">
        <ele>642.5</ele>
        <time>2020-02-12T14:11:44Z</time>
      </trkpt>
      <trkpt lat="46.8326" lon="5.89388">
        <ele>642.3</ele>
        <time>2020-02-12T14:11:48Z</time>
      </trkpt>
      <trkpt lat="46.83266" lon="5.89391">
        <ele>642</ele>
        <time>2020-02-12T14:11:53Z</time>
      </trkpt>
      <trkpt lat="46.8327" lon="5.89393">
        <ele>641.8</ele>
        <time>2020-02-12T14:11:56Z</time>
      </trkpt>
      <trkpt lat="46.83274" lon="5.89396">
        <ele>641.4</ele>
        <time>2020-02-12T14:12:00Z</time>
      </trkpt>
      <trkpt lat="46.83279" lon="5.89398">
        <ele>641.2</ele>
        <time>2020-02-12T14:12:04Z</time>
      </trkpt>
      <trkpt lat="46.83283" lon="5.89401">
        <ele>641.1</ele>
        <time>2020-02-12T14:12:07Z</time>
      </trkpt>
      <trkpt lat="46.83287" lon="5.89406">
        <ele>641</ele>
        <time>2020-02-12T14:12:11Z</time>
      </trkpt>
      <trkpt lat="46.8329" lon="5.89412">
        <ele>640.8</ele>
        <time>2020-02-12T14:12:16Z</time>
      </trkpt>
      <trkpt lat="46.83286" lon="5.89411">
        <ele>640.6</ele>
        <time>2020-02-12T14:12:29Z</time>
      </trkpt>
      <trkpt lat="46.83281" lon="5.89407">
        <ele>640.5</ele>
        <time>2020-02-12T14:12:34Z</time>
      </trkpt>
      <trkpt lat="46.83278" lon="5.89402">
        <ele>639.9</ele>
        <time>2020-02-12T14:12:44Z</time>
      </trkpt>
      <trkpt lat="46.83281" lon="5.89397">
        <ele>640</ele>
        <time>2020-02-12T14:13:30Z</time>
      </trkpt>
      <trkpt lat="46.83289" lon="5.89404">
        <ele>645.7</ele>
        <time>2020-02-12T14:25:57Z</time>
      </trkpt>
      <trkpt lat="46.83292" lon="5.89409">
        <ele>645.6</ele>
        <time>2020-02-12T14:26:02Z</time>
      </trkpt>
      <trkpt lat="46.83296" lon="5.89416">
        <ele>645.1</ele>
        <time>2020-02-12T14:26:08Z</time>
      </trkpt>
      <trkpt lat="46.83298" lon="5.89422">
        <ele>645</ele>
        <time>2020-02-12T14:26:15Z</time>
      </trkpt>
      <trkpt lat="46.83301" lon="5.89428">
        <ele>645.1</ele>
        <time>2020-02-12T14:26:20Z</time>
      </trkpt>
      <trkpt lat="46.83304" lon="5.89434">
        <ele>645.1</ele>
        <time>2020-02-12T14:26:24Z</time>
      </trkpt>
      <trkpt lat="46.83308" lon="5.89436">
        <ele>645.2</ele>
        <time>2020-02-12T14:26:34Z</time>
      </trkpt>
      <trkpt lat="46.83307" lon="5.89443">
        <ele>646.5</ele>
        <time>2020-02-12T14:31:18Z</time>
      </trkpt>
      <trkpt lat="46.83309" lon="5.8945">
        <ele>646.9</ele>
        <time>2020-02-12T14:31:23Z</time>
      </trkpt>
      <trkpt lat="46.83309" lon="5.89458">
        <ele>647.2</ele>
        <time>2020-02-12T14:31:29Z</time>
      </trkpt>
      <trkpt lat="46.83309" lon="5.89466">
        <ele>647.4</ele>
        <time>2020-02-12T14:31:34Z</time>
      </trkpt>
      <trkpt lat="46.83308" lon="5.89473">
        <ele>647.3</ele>
        <time>2020-02-12T14:31:38Z</time>
      </trkpt>
      <trkpt lat="46.83308" lon="5.8948">
        <ele>647</ele>
        <time>2020-02-12T14:31:43Z</time>
      </trkpt>
      <trkpt lat="46.83309" lon="5.89487">
        <ele>646.6</ele>
        <time>2020-02-12T14:31:47Z</time>
      </trkpt>
      <trkpt lat="46.83311" lon="5.89494">
        <ele>646.2</ele>
        <time>2020-02-12T14:31:52Z</time>
      </trkpt>
      <trkpt lat="46.83313" lon="5.89501">
        <ele>645.9</ele>
        <time>2020-02-12T14:31:57Z</time>
      </trkpt>
      <trkpt lat="46.83314" lon="5.89508">
        <ele>645.7</ele>
        <time>2020-02-12T14:32:01Z</time>
      </trkpt>
      <trkpt lat="46.83316" lon="5.89515">
        <ele>645.4</ele>
        <time>2020-02-12T14:32:05Z</time>
      </trkpt>
      <trkpt lat="46.83317" lon="5.89522">
        <ele>645.2</ele>
        <time>2020-02-12T14:32:11Z</time>
      </trkpt>
      <trkpt lat="46.83319" lon="5.89529">
        <ele>645.3</ele>
        <time>2020-02-12T14:32:15Z</time>
      </trkpt>
      <trkpt lat="46.83321" lon="5.89535">
        <ele>645.3</ele>
        <time>2020-02-12T14:32:19Z</time>
      </trkpt>
      <trkpt lat="46.83323" lon="5.89542">
        <ele>645.4</ele>
        <time>2020-02-12T14:32:22Z</time>
      </trkpt>
      <trkpt lat="46.83325" lon="5.89549">
        <ele>645.4</ele>
        <time>2020-02-12T14:32:26Z</time>
      </trkpt>
      <trkpt lat="46.83327" lon="5.89556">
        <ele>645.6</ele>
        <time>2020-02-12T14:32:30Z</time>
      </trkpt>
      <trkpt lat="46.83329" lon="5.89563">
        <ele>645.7</ele>
        <time>2020-02-12T14:32:35Z</time>
      </trkpt>
      <trkpt lat="46.8333" lon="5.8957">
        <ele>645.7</ele>
        <time>2020-02-12T14:32:39Z</time>
      </trkpt>
      <trkpt lat="46.8333" lon="5.89577">
        <ele>645.4</ele>
        <time>2020-02-12T14:32:43Z</time>
      </trkpt>
      <trkpt lat="46.83331" lon="5.89585">
        <ele>645.2</ele>
        <time>2020-02-12T14:32:47Z</time>
      </trkpt>
      <trkpt lat="46.83332" lon="5.89592">
        <ele>645.1</ele>
        <time>2020-02-12T14:32:51Z</time>
      </trkpt>
      <trkpt lat="46.83332" lon="5.89599">
        <ele>645.1</ele>
        <time>2020-02-12T14:32:55Z</time>
      </trkpt>
      <trkpt lat="46.83333" lon="5.89606">
        <ele>644.8</ele>
        <time>2020-02-12T14:32:59Z</time>
      </trkpt>
      <trkpt lat="46.83335" lon="5.89613">
        <ele>644.5</ele>
        <time>2020-02-12T14:33:03Z</time>
      </trkpt>
      <trkpt lat="46.83337" lon="5.8962">
        <ele>643.9</ele>
        <time>2020-02-12T14:33:08Z</time>
      </trkpt>
      <trkpt lat="46.83339" lon="5.89627">
        <ele>643</ele>
        <time>2020-02-12T14:33:14Z</time>
      </trkpt>
      <trkpt lat="46.8334" lon="5.89634">
        <ele>642.5</ele>
        <time>2020-02-12T14:33:18Z</time>
      </trkpt>
      <trkpt lat="46.83342" lon="5.8964">
        <ele>642.2</ele>
        <time>2020-02-12T14:33:21Z</time>
      </trkpt>
      <trkpt lat="46.83344" lon="5.89647">
        <ele>641.5</ele>
        <time>2020-02-12T14:33:25Z</time>
      </trkpt>
      <trkpt lat="46.83347" lon="5.89655">
        <ele>640.8</ele>
        <time>2020-02-12T14:33:29Z</time>
      </trkpt>
      <trkpt lat="46.83348" lon="5.89662">
        <ele>640.2</ele>
        <time>2020-02-12T14:33:34Z</time>
      </trkpt>
      <trkpt lat="46.83349" lon="5.89668">
        <ele>639.9</ele>
        <time>2020-02-12T14:33:39Z</time>
      </trkpt>
      <trkpt lat="46.83351" lon="5.89675">
        <ele>639.6</ele>
        <time>2020-02-12T14:33:43Z</time>
      </trkpt>
      <trkpt lat="46.83352" lon="5.89683">
        <ele>639.4</ele>
        <time>2020-02-12T14:33:47Z</time>
      </trkpt>
      <trkpt lat="46.83353" lon="5.89691">
        <ele>639.2</ele>
        <time>2020-02-12T14:33:51Z</time>
      </trkpt>
      <trkpt lat="46.83356" lon="5.89698">
        <ele>639.3</ele>
        <time>2020-02-12T14:33:55Z</time>
      </trkpt>
      <trkpt lat="46.83356" lon="5.89705">
        <ele>639.6</ele>
        <time>2020-02-12T14:33:59Z</time>
      </trkpt>
      <trkpt lat="46.83357" lon="5.89713">
        <ele>639.9</ele>
        <time>2020-02-12T14:34:03Z</time>
      </trkpt>
      <trkpt lat="46.83357" lon="5.89721">
        <ele>640.4</ele>
        <time>2020-02-12T14:34:07Z</time>
      </trkpt>
      <trkpt lat="46.83359" lon="5.89728">
        <ele>640.4</ele>
        <time>2020-02-12T14:34:13Z</time>
      </trkpt>
      <trkpt lat="46.83362" lon="5.89736">
        <ele>640.3</ele>
        <time>2020-02-12T14:34:17Z</time>
      </trkpt>
      <trkpt lat="46.83365" lon="5.89742">
        <ele>640.1</ele>
        <time>2020-02-12T14:34:21Z</time>
      </trkpt>
      <trkpt lat="46.83369" lon="5.89748">
        <ele>639.7</ele>
        <time>2020-02-12T14:34:25Z</time>
      </trkpt>
      <trkpt lat="46.83373" lon="5.89752">
        <ele>639.3</ele>
        <time>2020-02-12T14:34:30Z</time>
      </trkpt>
      <trkpt lat="46.83377" lon="5.89758">
        <ele>638.5</ele>
        <time>2020-02-12T14:34:35Z</time>
      </trkpt>
      <trkpt lat="46.83381" lon="5.89764">
        <ele>637.6</ele>
        <time>2020-02-12T14:34:40Z</time>
      </trkpt>
      <trkpt lat="46.83385" lon="5.89768">
        <ele>637</ele>
        <time>2020-02-12T14:34:44Z</time>
      </trkpt>
      <trkpt lat="46.83389" lon="5.89773">
        <ele>636.5</ele>
        <time>2020-02-12T14:34:49Z</time>
      </trkpt>
      <trkpt lat="46.83394" lon="5.89777">
        <ele>636</ele>
        <time>2020-02-12T14:34:54Z</time>
      </trkpt>
      <trkpt lat="46.83398" lon="5.89783">
        <ele>635.6</ele>
        <time>2020-02-12T14:34:59Z</time>
      </trkpt>
      <trkpt lat="46.83402" lon="5.89789">
        <ele>635.2</ele>
        <time>2020-02-12T14:35:04Z</time>
      </trkpt>
      <trkpt lat="46.83405" lon="5.89793">
        <ele>634.7</ele>
        <time>2020-02-12T14:35:07Z</time>
      </trkpt>
      <trkpt lat="46.83409" lon="5.89798">
        <ele>634.2</ele>
        <time>2020-02-12T14:35:11Z</time>
      </trkpt>
      <trkpt lat="46.83412" lon="5.89804">
        <ele>633.2</ele>
        <time>2020-02-12T14:35:17Z</time>
      </trkpt>
      <trkpt lat="46.83416" lon="5.8981">
        <ele>632.3</ele>
        <time>2020-02-12T14:35:22Z</time>
      </trkpt>
      <trkpt lat="46.8343" lon="5.8982">
        <ele>630.2</ele>
        <time>2020-02-12T14:35:35Z</time>
      </trkpt>
      <trkpt lat="46.83441" lon="5.89831">
        <ele>628.4</ele>
        <time>2020-02-12T14:35:48Z</time>
      </trkpt>
      <trkpt lat="46.83445" lon="5.89835">
        <ele>628.1</ele>
        <time>2020-02-12T14:35:53Z</time>
      </trkpt>
      <trkpt lat="46.83448" lon="5.89842">
        <ele>627.7</ele>
        <time>2020-02-12T14:35:58Z</time>
      </trkpt>
      <trkpt lat="46.83452" lon="5.89847">
        <ele>627.5</ele>
        <time>2020-02-12T14:36:02Z</time>
      </trkpt>
      <trkpt lat="46.83455" lon="5.89854">
        <ele>627.6</ele>
        <time>2020-02-12T14:36:05Z</time>
      </trkpt>
      <trkpt lat="46.8346" lon="5.89861">
        <ele>627.8</ele>
        <time>2020-02-12T14:36:08Z</time>
      </trkpt>
      <trkpt lat="46.83464" lon="5.89867">
        <ele>628.2</ele>
        <time>2020-02-12T14:36:11Z</time>
      </trkpt>
      <trkpt lat="46.83468" lon="5.89872">
        <ele>628.5</ele>
        <time>2020-02-12T14:36:14Z</time>
      </trkpt>
      <trkpt lat="46.83471" lon="5.89877">
        <ele>629.3</ele>
        <time>2020-02-12T14:36:19Z</time>
      </trkpt>
      <trkpt lat="46.83474" lon="5.89882">
        <ele>629.9</ele>
        <time>2020-02-12T14:36:24Z</time>
      </trkpt>
      <trkpt lat="46.83478" lon="5.89887">
        <ele>630.4</ele>
        <time>2020-02-12T14:36:28Z</time>
      </trkpt>
      <trkpt lat="46.83482" lon="5.89892">
        <ele>631</ele>
        <time>2020-02-12T14:36:33Z</time>
      </trkpt>
      <trkpt lat="46.83486" lon="5.89896">
        <ele>631.5</ele>
        <time>2020-02-12T14:36:37Z</time>
      </trkpt>
      <trkpt lat="46.8349" lon="5.89901">
        <ele>632.1</ele>
        <time>2020-02-12T14:36:41Z</time>
      </trkpt>
      <trkpt lat="46.83494" lon="5.89906">
        <ele>632.6</ele>
        <time>2020-02-12T14:36:46Z</time>
      </trkpt>
      <trkpt lat="46.83497" lon="5.89911">
        <ele>633.1</ele>
        <time>2020-02-12T14:36:51Z</time>
      </trkpt>
      <trkpt lat="46.83501" lon="5.89916">
        <ele>633.5</ele>
        <time>2020-02-12T14:36:56Z</time>
      </trkpt>
      <trkpt lat="46.83505" lon="5.89922">
        <ele>633.8</ele>
        <time>2020-02-12T14:37:00Z</time>
      </trkpt>
      <trkpt lat="46.83509" lon="5.89927">
        <ele>634</ele>
        <time>2020-02-12T14:37:04Z</time>
      </trkpt>
      <trkpt lat="46.83512" lon="5.89933">
        <ele>634.1</ele>
        <time>2020-02-12T14:37:08Z</time>
      </trkpt>
      <trkpt lat="46.83514" lon="5.89939">
        <ele>634.4</ele>
        <time>2020-02-12T14:37:13Z</time>
      </trkpt>
      <trkpt lat="46.83517" lon="5.89945">
        <ele>634.6</ele>
        <time>2020-02-12T14:37:17Z</time>
      </trkpt>
      <trkpt lat="46.83521" lon="5.89951">
        <ele>635.9</ele>
        <time>2020-02-12T14:37:29Z</time>
      </trkpt>
      <trkpt lat="46.83522" lon="5.89959">
        <ele>636.3</ele>
        <time>2020-02-12T14:37:34Z</time>
      </trkpt>
      <trkpt lat="46.83523" lon="5.89965">
        <ele>636.4</ele>
        <time>2020-02-12T14:37:37Z</time>
      </trkpt>
      <trkpt lat="46.83525" lon="5.89972">
        <ele>636.5</ele>
        <time>2020-02-12T14:37:42Z</time>
      </trkpt>
      <trkpt lat="46.83527" lon="5.89979">
        <ele>636.7</ele>
        <time>2020-02-12T14:37:47Z</time>
      </trkpt>
      <trkpt lat="46.8353" lon="5.89984">
        <ele>636.6</ele>
        <time>2020-02-12T14:37:51Z</time>
      </trkpt>
      <trkpt lat="46.83534" lon="5.8999">
        <ele>636.6</ele>
        <time>2020-02-12T14:37:55Z</time>
      </trkpt>
      <trkpt lat="46.83538" lon="5.89996">
        <ele>636.2</ele>
        <time>2020-02-12T14:38:00Z</time>
      </trkpt>
      <trkpt lat="46.8354" lon="5.90003">
        <ele>636</ele>
        <time>2020-02-12T14:38:04Z</time>
      </trkpt>
      <trkpt lat="46.83543" lon="5.90009">
        <ele>635.8</ele>
        <time>2020-02-12T14:38:08Z</time>
      </trkpt>
      <trkpt lat="46.83545" lon="5.90016">
        <ele>635.6</ele>
        <time>2020-02-12T14:38:13Z</time>
      </trkpt>
      <trkpt lat="46.83548" lon="5.90023">
        <ele>635.5</ele>
        <time>2020-02-12T14:38:17Z</time>
      </trkpt>
      <trkpt lat="46.83551" lon="5.90028">
        <ele>635.5</ele>
        <time>2020-02-12T14:38:20Z</time>
      </trkpt>
      <trkpt lat="46.83553" lon="5.90035">
        <ele>635.6</ele>
        <time>2020-02-12T14:38:23Z</time>
      </trkpt>
      <trkpt lat="46.83556" lon="5.9004">
        <ele>635.8</ele>
        <time>2020-02-12T14:38:27Z</time>
      </trkpt>
      <trkpt lat="46.83558" lon="5.90045">
        <ele>636</ele>
        <time>2020-02-12T14:38:30Z</time>
      </trkpt>
      <trkpt lat="46.8356" lon="5.90053">
        <ele>636.5</ele>
        <time>2020-02-12T14:38:35Z</time>
      </trkpt>
      <trkpt lat="46.83561" lon="5.90059">
        <ele>637.1</ele>
        <time>2020-02-12T14:38:40Z</time>
      </trkpt>
      <trkpt lat="46.83562" lon="5.90067">
        <ele>637.8</ele>
        <time>2020-02-12T14:38:45Z</time>
      </trkpt>
      <trkpt lat="46.83562" lon="5.90075">
        <ele>638.7</ele>
        <time>2020-02-12T14:38:50Z</time>
      </trkpt>
      <trkpt lat="46.83563" lon="5.90083">
        <ele>639.7</ele>
        <time>2020-02-12T14:38:55Z</time>
      </trkpt>
      <trkpt lat="46.83564" lon="5.9009">
        <ele>640.4</ele>
        <time>2020-02-12T14:38:59Z</time>
      </trkpt>
      <trkpt lat="46.83566" lon="5.90096">
        <ele>640.8</ele>
        <time>2020-02-12T14:39:02Z</time>
      </trkpt>
      <trkpt lat="46.83567" lon="5.90102">
        <ele>641.3</ele>
        <time>2020-02-12T14:39:05Z</time>
      </trkpt>
      <trkpt lat="46.83568" lon="5.9011">
        <ele>641.7</ele>
        <time>2020-02-12T14:39:09Z</time>
      </trkpt>
      <trkpt lat="46.83568" lon="5.90117">
        <ele>642</ele>
        <time>2020-02-12T14:39:13Z</time>
      </trkpt>
      <trkpt lat="46.83569" lon="5.90124">
        <ele>642.1</ele>
        <time>2020-02-12T14:39:18Z</time>
      </trkpt>
      <trkpt lat="46.83572" lon="5.9013">
        <ele>642.3</ele>
        <time>2020-02-12T14:39:23Z</time>
      </trkpt>
      <trkpt lat="46.83573" lon="5.90136">
        <ele>642.6</ele>
        <time>2020-02-12T14:39:27Z</time>
      </trkpt>
      <trkpt lat="46.83574" lon="5.90143">
        <ele>643</ele>
        <time>2020-02-12T14:39:31Z</time>
      </trkpt>
      <trkpt lat="46.83575" lon="5.90151">
        <ele>643.5</ele>
        <time>2020-02-12T14:39:36Z</time>
      </trkpt>
      <trkpt lat="46.83575" lon="5.90158">
        <ele>644</ele>
        <time>2020-02-12T14:39:40Z</time>
      </trkpt>
      <trkpt lat="46.83576" lon="5.90164">
        <ele>644.3</ele>
        <time>2020-02-12T14:39:44Z</time>
      </trkpt>
      <trkpt lat="46.83576" lon="5.90172">
        <ele>644.6</ele>
        <time>2020-02-12T14:39:49Z</time>
      </trkpt>
      <trkpt lat="46.83577" lon="5.90179">
        <ele>644.8</ele>
        <time>2020-02-12T14:39:54Z</time>
      </trkpt>
      <trkpt lat="46.83579" lon="5.90186">
        <ele>645.1</ele>
        <time>2020-02-12T14:39:59Z</time>
      </trkpt>
      <trkpt lat="46.83581" lon="5.90193">
        <ele>645.3</ele>
        <time>2020-02-12T14:40:04Z</time>
      </trkpt>
      <trkpt lat="46.83582" lon="5.90201">
        <ele>645.2</ele>
        <time>2020-02-12T14:40:09Z</time>
      </trkpt>
      <trkpt lat="46.83584" lon="5.90207">
        <ele>645.1</ele>
        <time>2020-02-12T14:40:12Z</time>
      </trkpt>
      <trkpt lat="46.83585" lon="5.90214">
        <ele>645</ele>
        <time>2020-02-12T14:40:16Z</time>
      </trkpt>
      <trkpt lat="46.83585" lon="5.90221">
        <ele>644.9</ele>
        <time>2020-02-12T14:40:21Z</time>
      </trkpt>
      <trkpt lat="46.83585" lon="5.90228">
        <ele>644.1</ele>
        <time>2020-02-12T14:40:30Z</time>
      </trkpt>
      <trkpt lat="46.83585" lon="5.90235">
        <ele>643.3</ele>
        <time>2020-02-12T14:40:36Z</time>
      </trkpt>
      <trkpt lat="46.83586" lon="5.9024">
        <ele>640.9</ele>
        <time>2020-02-12T14:40:59Z</time>
      </trkpt>
      <trkpt lat="46.83588" lon="5.90246">
        <ele>640.8</ele>
        <time>2020-02-12T14:41:05Z</time>
      </trkpt>
      <trkpt lat="46.83591" lon="5.90252">
        <ele>640.9</ele>
        <time>2020-02-12T14:41:09Z</time>
      </trkpt>
      <trkpt lat="46.83593" lon="5.90258">
        <ele>641.1</ele>
        <time>2020-02-12T14:41:14Z</time>
      </trkpt>
      <trkpt lat="46.83595" lon="5.90265">
        <ele>641.1</ele>
        <time>2020-02-12T14:41:19Z</time>
      </trkpt>
      <trkpt lat="46.83598" lon="5.90271">
        <ele>640.9</ele>
        <time>2020-02-12T14:41:23Z</time>
      </trkpt>
      <trkpt lat="46.83601" lon="5.90278">
        <ele>640.6</ele>
        <time>2020-02-12T14:41:27Z</time>
      </trkpt>
      <trkpt lat="46.83604" lon="5.90283">
        <ele>640.4</ele>
        <time>2020-02-12T14:41:33Z</time>
      </trkpt>
      <trkpt lat="46.83609" lon="5.90295">
        <ele>641.2</ele>
        <time>2020-02-12T14:41:49Z</time>
      </trkpt>
      <trkpt lat="46.8361" lon="5.90303">
        <ele>641.5</ele>
        <time>2020-02-12T14:41:53Z</time>
      </trkpt>
      <trkpt lat="46.83611" lon="5.9031">
        <ele>641.8</ele>
        <time>2020-02-12T14:41:57Z</time>
      </trkpt>
      <trkpt lat="46.83612" lon="5.90317">
        <ele>641.8</ele>
        <time>2020-02-12T14:42:03Z</time>
      </trkpt>
      <trkpt lat="46.83615" lon="5.90323">
        <ele>641.5</ele>
        <time>2020-02-12T14:42:07Z</time>
      </trkpt>
      <trkpt lat="46.83621" lon="5.90337">
        <ele>640.5</ele>
        <time>2020-02-12T14:42:16Z</time>
      </trkpt>
      <trkpt lat="46.83624" lon="5.90342">
        <ele>640.3</ele>
        <time>2020-02-12T14:42:18Z</time>
      </trkpt>
      <trkpt lat="46.83627" lon="5.90348">
        <ele>639.9</ele>
        <time>2020-02-12T14:42:21Z</time>
      </trkpt>
      <trkpt lat="46.8363" lon="5.90352">
        <ele>639.5</ele>
        <time>2020-02-12T14:42:24Z</time>
      </trkpt>
      <trkpt lat="46.83634" lon="5.90357">
        <ele>638.8</ele>
        <time>2020-02-12T14:42:29Z</time>
      </trkpt>
      <trkpt lat="46.83638" lon="5.90362">
        <ele>638.2</ele>
        <time>2020-02-12T14:42:34Z</time>
      </trkpt>
      <trkpt lat="46.83646" lon="5.90374">
        <ele>636.3</ele>
        <time>2020-02-12T14:42:49Z</time>
      </trkpt>
      <trkpt lat="46.8365" lon="5.90378">
        <ele>636</ele>
        <time>2020-02-12T14:42:54Z</time>
      </trkpt>
      <trkpt lat="46.83654" lon="5.9038">
        <ele>635.9</ele>
        <time>2020-02-12T14:42:57Z</time>
      </trkpt>
      <trkpt lat="46.83659" lon="5.90384">
        <ele>635.8</ele>
        <time>2020-02-12T14:43:04Z</time>
      </trkpt>
      <trkpt lat="46.83663" lon="5.90386">
        <ele>635.7</ele>
        <time>2020-02-12T14:43:08Z</time>
      </trkpt>
      <trkpt lat="46.83668" lon="5.90388">
        <ele>635.5</ele>
        <time>2020-02-12T14:43:11Z</time>
      </trkpt>
      <trkpt lat="46.83672" lon="5.9039">
        <ele>635.3</ele>
        <time>2020-02-12T14:43:15Z</time>
      </trkpt>
      <trkpt lat="46.83677" lon="5.90392">
        <ele>635.2</ele>
        <time>2020-02-12T14:43:19Z</time>
      </trkpt>
      <trkpt lat="46.83682" lon="5.90394">
        <ele>635.1</ele>
        <time>2020-02-12T14:43:23Z</time>
      </trkpt>
      <trkpt lat="46.83687" lon="5.90395">
        <ele>634.9</ele>
        <time>2020-02-12T14:43:27Z</time>
      </trkpt>
      <trkpt lat="46.83692" lon="5.90396">
        <ele>634.4</ele>
        <time>2020-02-12T14:43:33Z</time>
      </trkpt>
      <trkpt lat="46.83697" lon="5.90396">
        <ele>633.9</ele>
        <time>2020-02-12T14:43:38Z</time>
      </trkpt>
      <trkpt lat="46.83703" lon="5.90395">
        <ele>633.2</ele>
        <time>2020-02-12T14:43:44Z</time>
      </trkpt>
      <trkpt lat="46.83707" lon="5.90393">
        <ele>631.8</ele>
        <time>2020-02-12T14:43:54Z</time>
      </trkpt>
      <trkpt lat="46.83712" lon="5.90393">
        <ele>630.9</ele>
        <time>2020-02-12T14:44:01Z</time>
      </trkpt>
      <trkpt lat="46.83717" lon="5.90394">
        <ele>630.2</ele>
        <time>2020-02-12T14:44:06Z</time>
      </trkpt>
      <trkpt lat="46.83722" lon="5.90394">
        <ele>629.2</ele>
        <time>2020-02-12T14:44:11Z</time>
      </trkpt>
      <trkpt lat="46.83727" lon="5.90395">
        <ele>628.3</ele>
        <time>2020-02-12T14:44:16Z</time>
      </trkpt>
      <trkpt lat="46.83731" lon="5.90394">
        <ele>627.4</ele>
        <time>2020-02-12T14:44:21Z</time>
      </trkpt>
      <trkpt lat="46.83736" lon="5.90395">
        <ele>626.3</ele>
        <time>2020-02-12T14:44:28Z</time>
      </trkpt>
      <trkpt lat="46.83741" lon="5.90395">
        <ele>625.4</ele>
        <time>2020-02-12T14:44:33Z</time>
      </trkpt>
      <trkpt lat="46.83746" lon="5.90394">
        <ele>624.6</ele>
        <time>2020-02-12T14:44:38Z</time>
      </trkpt>
      <trkpt lat="46.83761" lon="5.90397">
        <ele>621.7</ele>
        <time>2020-02-12T14:44:50Z</time>
      </trkpt>
      <trkpt lat="46.83772" lon="5.90399">
        <ele>618.8</ele>
        <time>2020-02-12T14:45:00Z</time>
      </trkpt>
      <trkpt lat="46.83777" lon="5.90402">
        <ele>618</ele>
        <time>2020-02-12T14:45:04Z</time>
      </trkpt>
      <trkpt lat="46.83782" lon="5.90403">
        <ele>617.1</ele>
        <time>2020-02-12T14:45:08Z</time>
      </trkpt>
      <trkpt lat="46.83787" lon="5.90402">
        <ele>616.2</ele>
        <time>2020-02-12T14:45:13Z</time>
      </trkpt>
      <trkpt lat="46.83801" lon="5.904">
        <ele>614.4</ele>
        <time>2020-02-12T14:45:23Z</time>
      </trkpt>
      <trkpt lat="46.83806" lon="5.90401">
        <ele>614.3</ele>
        <time>2020-02-12T14:45:27Z</time>
      </trkpt>
      <trkpt lat="46.83811" lon="5.90402">
        <ele>614.1</ele>
        <time>2020-02-12T14:45:31Z</time>
      </trkpt>
      <trkpt lat="46.83816" lon="5.90404">
        <ele>614.1</ele>
        <time>2020-02-12T14:45:37Z</time>
      </trkpt>
      <trkpt lat="46.8382" lon="5.90406">
        <ele>614.4</ele>
        <time>2020-02-12T14:45:43Z</time>
      </trkpt>
      <trkpt lat="46.83825" lon="5.90408">
        <ele>614.8</ele>
        <time>2020-02-12T14:45:48Z</time>
      </trkpt>
      <trkpt lat="46.83829" lon="5.90408">
        <ele>615.2</ele>
        <time>2020-02-12T14:45:53Z</time>
      </trkpt>
      <trkpt lat="46.83844" lon="5.90414">
        <ele>614.9</ele>
        <time>2020-02-12T14:46:06Z</time>
      </trkpt>
      <trkpt lat="46.83849" lon="5.90415">
        <ele>614.7</ele>
        <time>2020-02-12T14:46:09Z</time>
      </trkpt>
      <trkpt lat="46.83855" lon="5.90414">
        <ele>614.3</ele>
        <time>2020-02-12T14:46:13Z</time>
      </trkpt>
      <trkpt lat="46.8386" lon="5.90414">
        <ele>614.1</ele>
        <time>2020-02-12T14:46:17Z</time>
      </trkpt>
      <trkpt lat="46.83865" lon="5.90413">
        <ele>614</ele>
        <time>2020-02-12T14:46:22Z</time>
      </trkpt>
      <trkpt lat="46.8387" lon="5.90413">
        <ele>613.9</ele>
        <time>2020-02-12T14:46:26Z</time>
      </trkpt>
      <trkpt lat="46.83884" lon="5.90418">
        <ele>613.9</ele>
        <time>2020-02-12T14:46:37Z</time>
      </trkpt>
      <trkpt lat="46.83889" lon="5.90421">
        <ele>614</ele>
        <time>2020-02-12T14:46:44Z</time>
      </trkpt>
      <trkpt lat="46.83893" lon="5.90425">
        <ele>613.7</ele>
        <time>2020-02-12T14:46:52Z</time>
      </trkpt>
      <trkpt lat="46.83898" lon="5.90429">
        <ele>613.6</ele>
        <time>2020-02-12T14:46:56Z</time>
      </trkpt>
      <trkpt lat="46.83902" lon="5.90432">
        <ele>613.4</ele>
        <time>2020-02-12T14:46:59Z</time>
      </trkpt>
      <trkpt lat="46.83906" lon="5.90436">
        <ele>613.3</ele>
        <time>2020-02-12T14:47:02Z</time>
      </trkpt>
      <trkpt lat="46.8391" lon="5.90439">
        <ele>613.2</ele>
        <time>2020-02-12T14:47:07Z</time>
      </trkpt>
      <trkpt lat="46.83915" lon="5.90442">
        <ele>612.9</ele>
        <time>2020-02-12T14:47:13Z</time>
      </trkpt>
      <trkpt lat="46.83919" lon="5.90447">
        <ele>612.6</ele>
        <time>2020-02-12T14:47:19Z</time>
      </trkpt>
      <trkpt lat="46.83923" lon="5.90451">
        <ele>612.4</ele>
        <time>2020-02-12T14:47:24Z</time>
      </trkpt>
      <trkpt lat="46.83927" lon="5.90456">
        <ele>612.1</ele>
        <time>2020-02-12T14:47:30Z</time>
      </trkpt>
      <trkpt lat="46.8393" lon="5.90463">
        <ele>612.3</ele>
        <time>2020-02-12T14:47:34Z</time>
      </trkpt>
      <trkpt lat="46.83933" lon="5.9047">
        <ele>612.6</ele>
        <time>2020-02-12T14:47:37Z</time>
      </trkpt>
      <trkpt lat="46.83935" lon="5.90477">
        <ele>613.1</ele>
        <time>2020-02-12T14:47:41Z</time>
      </trkpt>
      <trkpt lat="46.8394" lon="5.90484">
        <ele>613.5</ele>
        <time>2020-02-12T14:47:45Z</time>
      </trkpt>
      <trkpt lat="46.83943" lon="5.90491">
        <ele>613.8</ele>
        <time>2020-02-12T14:47:48Z</time>
      </trkpt>
      <trkpt lat="46.83946" lon="5.90496">
        <ele>614.3</ele>
        <time>2020-02-12T14:47:52Z</time>
      </trkpt>
      <trkpt lat="46.83949" lon="5.90501">
        <ele>614.8</ele>
        <time>2020-02-12T14:47:57Z</time>
      </trkpt>
      <trkpt lat="46.83952" lon="5.90507">
        <ele>615.3</ele>
        <time>2020-02-12T14:48:03Z</time>
      </trkpt>
      <trkpt lat="46.83954" lon="5.90513">
        <ele>615.6</ele>
        <time>2020-02-12T14:48:08Z</time>
      </trkpt>
      <trkpt lat="46.83956" lon="5.90521">
        <ele>616</ele>
        <time>2020-02-12T14:48:13Z</time>
      </trkpt>
      <trkpt lat="46.83959" lon="5.90526">
        <ele>616.4</ele>
        <time>2020-02-12T14:48:19Z</time>
      </trkpt>
      <trkpt lat="46.83962" lon="5.90532">
        <ele>616.8</ele>
        <time>2020-02-12T14:48:24Z</time>
      </trkpt>
      <trkpt lat="46.83965" lon="5.90536">
        <ele>617.2</ele>
        <time>2020-02-12T14:48:28Z</time>
      </trkpt>
      <trkpt lat="46.83969" lon="5.90541">
        <ele>617.5</ele>
        <time>2020-02-12T14:48:32Z</time>
      </trkpt>
      <trkpt lat="46.83973" lon="5.90546">
        <ele>617.8</ele>
        <time>2020-02-12T14:48:36Z</time>
      </trkpt>
      <trkpt lat="46.83977" lon="5.9055">
        <ele>617.9</ele>
        <time>2020-02-12T14:48:41Z</time>
      </trkpt>
      <trkpt lat="46.83981" lon="5.90556">
        <ele>617.8</ele>
        <time>2020-02-12T14:48:46Z</time>
      </trkpt>
      <trkpt lat="46.83984" lon="5.90561">
        <ele>617.7</ele>
        <time>2020-02-12T14:48:51Z</time>
      </trkpt>
      <trkpt lat="46.83989" lon="5.90562">
        <ele>618.1</ele>
        <time>2020-02-12T14:49:04Z</time>
      </trkpt>
      <trkpt lat="46.83992" lon="5.90568">
        <ele>620.7</ele>
        <time>2020-02-12T14:49:39Z</time>
      </trkpt>
      <trkpt lat="46.83995" lon="5.90574">
        <ele>621.5</ele>
        <time>2020-02-12T14:49:45Z</time>
      </trkpt>
      <trkpt lat="46.83998" lon="5.90579">
        <ele>622</ele>
        <time>2020-02-12T14:49:50Z</time>
      </trkpt>
      <trkpt lat="46.84002" lon="5.90584">
        <ele>622.3</ele>
        <time>2020-02-12T14:49:55Z</time>
      </trkpt>
      <trkpt lat="46.84005" lon="5.9059">
        <ele>622.3</ele>
        <time>2020-02-12T14:49:59Z</time>
      </trkpt>
      <trkpt lat="46.84009" lon="5.90595">
        <ele>622.2</ele>
        <time>2020-02-12T14:50:04Z</time>
      </trkpt>
      <trkpt lat="46.84011" lon="5.90602">
        <ele>621.4</ele>
        <time>2020-02-12T14:50:12Z</time>
      </trkpt>
      <trkpt lat="46.84013" lon="5.90608">
        <ele>620.6</ele>
        <time>2020-02-12T14:50:18Z</time>
      </trkpt>
      <trkpt lat="46.84016" lon="5.90613">
        <ele>620.2</ele>
        <time>2020-02-12T14:50:22Z</time>
      </trkpt>
      <trkpt lat="46.84019" lon="5.90618">
        <ele>620.1</ele>
        <time>2020-02-12T14:50:26Z</time>
      </trkpt>
      <trkpt lat="46.84024" lon="5.90622">
        <ele>620.6</ele>
        <time>2020-02-12T14:50:34Z</time>
      </trkpt>
      <trkpt lat="46.84028" lon="5.90627">
        <ele>621.1</ele>
        <time>2020-02-12T14:50:37Z</time>
      </trkpt>
      <trkpt lat="46.84032" lon="5.9063">
        <ele>622.2</ele>
        <time>2020-02-12T14:50:43Z</time>
      </trkpt>
      <trkpt lat="46.84037" lon="5.90634">
        <ele>622.6</ele>
        <time>2020-02-12T14:50:47Z</time>
      </trkpt>
      <trkpt lat="46.84041" lon="5.90638">
        <ele>622.7</ele>
        <time>2020-02-12T14:50:51Z</time>
      </trkpt>
      <trkpt lat="46.84046" lon="5.90642">
        <ele>622.6</ele>
        <time>2020-02-12T14:50:55Z</time>
      </trkpt>
      <trkpt lat="46.8405" lon="5.90646">
        <ele>622.4</ele>
        <time>2020-02-12T14:50:59Z</time>
      </trkpt>
      <trkpt lat="46.84053" lon="5.90651">
        <ele>622.4</ele>
        <time>2020-02-12T14:51:02Z</time>
      </trkpt>
      <trkpt lat="46.84056" lon="5.90657">
        <ele>622.4</ele>
        <time>2020-02-12T14:51:07Z</time>
      </trkpt>
      <trkpt lat="46.84057" lon="5.90663">
        <ele>622.3</ele>
        <time>2020-02-12T14:51:12Z</time>
      </trkpt>
      <trkpt lat="46.84058" lon="5.90671">
        <ele>622.3</ele>
        <time>2020-02-12T14:51:18Z</time>
      </trkpt>
      <trkpt lat="46.84058" lon="5.90678">
        <ele>622.4</ele>
        <time>2020-02-12T14:51:23Z</time>
      </trkpt>
      <trkpt lat="46.84056" lon="5.90685">
        <ele>622.6</ele>
        <time>2020-02-12T14:51:29Z</time>
      </trkpt>
      <trkpt lat="46.84055" lon="5.90691">
        <ele>622.4</ele>
        <time>2020-02-12T14:51:35Z</time>
      </trkpt>
      <trkpt lat="46.84055" lon="5.90698">
        <ele>622.2</ele>
        <time>2020-02-12T14:51:41Z</time>
      </trkpt>
      <trkpt lat="46.84058" lon="5.90705">
        <ele>621.7</ele>
        <time>2020-02-12T14:51:50Z</time>
      </trkpt>
      <trkpt lat="46.84061" lon="5.90709">
        <ele>621.6</ele>
        <time>2020-02-12T14:51:52Z</time>
      </trkpt>
      <trkpt lat="46.84065" lon="5.90714">
        <ele>622.3</ele>
        <time>2020-02-12T14:52:03Z</time>
      </trkpt>
      <trkpt lat="46.84069" lon="5.90718">
        <ele>622.6</ele>
        <time>2020-02-12T14:52:07Z</time>
      </trkpt>
      <trkpt lat="46.84072" lon="5.90723">
        <ele>623</ele>
        <time>2020-02-12T14:52:11Z</time>
      </trkpt>
      <trkpt lat="46.84075" lon="5.90728">
        <ele>623.5</ele>
        <time>2020-02-12T14:52:16Z</time>
      </trkpt>
      <trkpt lat="46.84084" lon="5.90752">
        <ele>627.8</ele>
        <time>2020-02-12T14:52:36Z</time>
      </trkpt>
      <trkpt lat="46.84085" lon="5.90759">
        <ele>629.6</ele>
        <time>2020-02-12T14:52:48Z</time>
      </trkpt>
      <trkpt lat="46.84088" lon="5.90764">
        <ele>630.3</ele>
        <time>2020-02-12T14:52:52Z</time>
      </trkpt>
      <trkpt lat="46.8409" lon="5.90772">
        <ele>630.9</ele>
        <time>2020-02-12T14:52:55Z</time>
      </trkpt>
      <trkpt lat="46.84091" lon="5.90778">
        <ele>631.6</ele>
        <time>2020-02-12T14:52:59Z</time>
      </trkpt>
      <trkpt lat="46.84096" lon="5.90788">
        <ele>636.4</ele>
        <time>2020-02-12T14:53:20Z</time>
      </trkpt>
      <trkpt lat="46.84102" lon="5.90789">
        <ele>637.1</ele>
        <time>2020-02-12T14:53:23Z</time>
      </trkpt>
      <trkpt lat="46.84107" lon="5.90793">
        <ele>637.9</ele>
        <time>2020-02-12T14:53:29Z</time>
      </trkpt>
      <trkpt lat="46.84111" lon="5.90798">
        <ele>637.8</ele>
        <time>2020-02-12T14:53:33Z</time>
      </trkpt>
      <trkpt lat="46.84115" lon="5.90803">
        <ele>637.3</ele>
        <time>2020-02-12T14:53:38Z</time>
      </trkpt>
      <trkpt lat="46.84119" lon="5.90818">
        <ele>635.5</ele>
        <time>2020-02-12T14:53:50Z</time>
      </trkpt>
      <trkpt lat="46.84121" lon="5.90824">
        <ele>635.6</ele>
        <time>2020-02-12T14:53:55Z</time>
      </trkpt>
      <trkpt lat="46.84126" lon="5.90831">
        <ele>636.3</ele>
        <time>2020-02-12T14:54:01Z</time>
      </trkpt>
      <trkpt lat="46.84129" lon="5.90836">
        <ele>637</ele>
        <time>2020-02-12T14:54:06Z</time>
      </trkpt>
      <trkpt lat="46.84132" lon="5.90842">
        <ele>637.3</ele>
        <time>2020-02-12T14:54:08Z</time>
      </trkpt>
      <trkpt lat="46.84136" lon="5.90848">
        <ele>637.8</ele>
        <time>2020-02-12T14:54:10Z</time>
      </trkpt>
      <trkpt lat="46.84138" lon="5.90854">
        <ele>638.5</ele>
        <time>2020-02-12T14:54:13Z</time>
      </trkpt>
      <trkpt lat="46.84141" lon="5.9086">
        <ele>640.9</ele>
        <time>2020-02-12T14:54:21Z</time>
      </trkpt>
      <trkpt lat="46.84143" lon="5.90872">
        <ele>644.4</ele>
        <time>2020-02-12T14:54:30Z</time>
      </trkpt>
      <trkpt lat="46.84144" lon="5.90879">
        <ele>644.6</ele>
        <time>2020-02-12T14:54:35Z</time>
      </trkpt>
      <trkpt lat="46.84148" lon="5.90885">
        <ele>644.5</ele>
        <time>2020-02-12T14:54:44Z</time>
      </trkpt>
      <trkpt lat="46.84151" lon="5.9089">
        <ele>644.4</ele>
        <time>2020-02-12T14:54:47Z</time>
      </trkpt>
      <trkpt lat="46.84154" lon="5.90895">
        <ele>644.2</ele>
        <time>2020-02-12T14:54:51Z</time>
      </trkpt>
      <trkpt lat="46.84159" lon="5.90899">
        <ele>643.8</ele>
        <time>2020-02-12T14:54:55Z</time>
      </trkpt>
      <trkpt lat="46.84163" lon="5.90904">
        <ele>643.6</ele>
        <time>2020-02-12T14:55:00Z</time>
      </trkpt>
      <trkpt lat="46.84166" lon="5.90907">
        <ele>643.5</ele>
        <time>2020-02-12T14:55:04Z</time>
      </trkpt>
      <trkpt lat="46.84171" lon="5.90911">
        <ele>643.4</ele>
        <time>2020-02-12T14:55:09Z</time>
      </trkpt>
      <trkpt lat="46.84171" lon="5.90919">
        <ele>643.3</ele>
        <time>2020-02-12T14:55:15Z</time>
      </trkpt>
      <trkpt lat="46.84168" lon="5.90924">
        <ele>643.2</ele>
        <time>2020-02-12T14:55:17Z</time>
      </trkpt>
      <trkpt lat="46.84165" lon="5.90929">
        <ele>643</ele>
        <time>2020-02-12T14:55:21Z</time>
      </trkpt>
      <trkpt lat="46.84162" lon="5.90935">
        <ele>643</ele>
        <time>2020-02-12T14:55:28Z</time>
      </trkpt>
      <trkpt lat="46.8416" lon="5.90942">
        <ele>643.5</ele>
        <time>2020-02-12T14:55:37Z</time>
      </trkpt>
      <trkpt lat="46.84156" lon="5.90946">
        <ele>643.5</ele>
        <time>2020-02-12T14:55:40Z</time>
      </trkpt>
      <trkpt lat="46.84152" lon="5.9095">
        <ele>643.5</ele>
        <time>2020-02-12T14:55:43Z</time>
      </trkpt>
      <trkpt lat="46.84149" lon="5.90956">
        <ele>643.4</ele>
        <time>2020-02-12T14:55:47Z</time>
      </trkpt>
      <trkpt lat="46.84147" lon="5.90963">
        <ele>643.5</ele>
        <time>2020-02-12T14:55:55Z</time>
      </trkpt>
      <trkpt lat="46.8415" lon="5.9097">
        <ele>644.6</ele>
        <time>2020-02-12T14:56:03Z</time>
      </trkpt>
      <trkpt lat="46.84152" lon="5.90976">
        <ele>645.6</ele>
        <time>2020-02-12T14:56:08Z</time>
      </trkpt>
      <trkpt lat="46.84152" lon="5.90983">
        <ele>646.5</ele>
        <time>2020-02-12T14:56:12Z</time>
      </trkpt>
      <trkpt lat="46.84153" lon="5.9099">
        <ele>646.9</ele>
        <time>2020-02-12T14:56:15Z</time>
      </trkpt>
      <trkpt lat="46.84155" lon="5.90997">
        <ele>647.5</ele>
        <time>2020-02-12T14:56:19Z</time>
      </trkpt>
      <trkpt lat="46.84155" lon="5.91003">
        <ele>647.9</ele>
        <time>2020-02-12T14:56:25Z</time>
      </trkpt>
      <trkpt lat="46.84154" lon="5.9101">
        <ele>648</ele>
        <time>2020-02-12T14:56:34Z</time>
      </trkpt>
      <trkpt lat="46.84153" lon="5.91018">
        <ele>648.2</ele>
        <time>2020-02-12T14:56:38Z</time>
      </trkpt>
      <trkpt lat="46.84152" lon="5.91025">
        <ele>648.7</ele>
        <time>2020-02-12T14:56:45Z</time>
      </trkpt>
      <trkpt lat="46.84152" lon="5.91032">
        <ele>649.1</ele>
        <time>2020-02-12T14:56:51Z</time>
      </trkpt>
      <trkpt lat="46.84149" lon="5.91038">
        <ele>649.6</ele>
        <time>2020-02-12T14:56:57Z</time>
      </trkpt>
      <trkpt lat="46.84153" lon="5.9104">
        <ele>649.5</ele>
        <time>2020-02-12T14:57:15Z</time>
      </trkpt>
      <trkpt lat="46.84156" lon="5.91034">
        <ele>649.2</ele>
        <time>2020-02-12T14:57:23Z</time>
      </trkpt>
      <trkpt lat="46.84156" lon="5.91027">
        <ele>648.7</ele>
        <time>2020-02-12T14:57:27Z</time>
      </trkpt>
      <trkpt lat="46.84156" lon="5.9102">
        <ele>648.3</ele>
        <time>2020-02-12T14:57:30Z</time>
      </trkpt>
      <trkpt lat="46.84157" lon="5.91013">
        <ele>647.4</ele>
        <time>2020-02-12T14:57:35Z</time>
      </trkpt>
      <trkpt lat="46.8416" lon="5.91008">
        <ele>646.2</ele>
        <time>2020-02-12T14:57:42Z</time>
      </trkpt>
      <trkpt lat="46.84166" lon="5.91006">
        <ele>645.4</ele>
        <time>2020-02-12T14:57:52Z</time>
      </trkpt>
      <trkpt lat="46.84171" lon="5.91003">
        <ele>645.7</ele>
        <time>2020-02-12T14:57:59Z</time>
      </trkpt>
      <trkpt lat="46.84176" lon="5.91001">
        <ele>645.9</ele>
        <time>2020-02-12T14:58:06Z</time>
      </trkpt>
      <trkpt lat="46.84181" lon="5.90998">
        <ele>645.4</ele>
        <time>2020-02-12T14:58:14Z</time>
      </trkpt>
      <trkpt lat="46.84186" lon="5.90997">
        <ele>644.8</ele>
        <time>2020-02-12T14:58:19Z</time>
      </trkpt>
      <trkpt lat="46.84191" lon="5.90998">
        <ele>644.3</ele>
        <time>2020-02-12T14:58:24Z</time>
      </trkpt>
      <trkpt lat="46.84211" lon="5.90997">
        <ele>640.8</ele>
        <time>2020-02-12T14:58:43Z</time>
      </trkpt>
      <trkpt lat="46.84215" lon="5.90996">
        <ele>640.4</ele>
        <time>2020-02-12T14:58:47Z</time>
      </trkpt>
      <trkpt lat="46.8422" lon="5.90995">
        <ele>640</ele>
        <time>2020-02-12T14:58:51Z</time>
      </trkpt>
      <trkpt lat="46.84225" lon="5.90993">
        <ele>639.6</ele>
        <time>2020-02-12T14:58:55Z</time>
      </trkpt>
      <trkpt lat="46.8423" lon="5.90992">
        <ele>638.8</ele>
        <time>2020-02-12T14:59:00Z</time>
      </trkpt>
      <trkpt lat="46.84234" lon="5.9099">
        <ele>637.5</ele>
        <time>2020-02-12T14:59:15Z</time>
      </trkpt>
      <trkpt lat="46.84239" lon="5.90988">
        <ele>637.3</ele>
        <time>2020-02-12T14:59:18Z</time>
      </trkpt>
      <trkpt lat="46.84245" lon="5.90986">
        <ele>637</ele>
        <time>2020-02-12T14:59:21Z</time>
      </trkpt>
      <trkpt lat="46.8425" lon="5.90986">
        <ele>636.9</ele>
        <time>2020-02-12T14:59:23Z</time>
      </trkpt>
      <trkpt lat="46.84255" lon="5.90984">
        <ele>637.2</ele>
        <time>2020-02-12T14:59:30Z</time>
      </trkpt>
      <trkpt lat="46.84265" lon="5.90982">
        <ele>637.3</ele>
        <time>2020-02-12T14:59:44Z</time>
      </trkpt>
      <trkpt lat="46.84276" lon="5.90979">
        <ele>637.3</ele>
        <time>2020-02-12T15:00:01Z</time>
      </trkpt>
      <trkpt lat="46.84282" lon="5.90977">
        <ele>638.1</ele>
        <time>2020-02-12T15:00:06Z</time>
      </trkpt>
      <trkpt lat="46.84287" lon="5.90976">
        <ele>639.3</ele>
        <time>2020-02-12T15:00:12Z</time>
      </trkpt>
      <trkpt lat="46.84292" lon="5.90975">
        <ele>640.3</ele>
        <time>2020-02-12T15:00:17Z</time>
      </trkpt>
      <trkpt lat="46.84296" lon="5.90975">
        <ele>640.8</ele>
        <time>2020-02-12T15:00:19Z</time>
      </trkpt>
      <trkpt lat="46.84303" lon="5.90975">
        <ele>641.6</ele>
        <time>2020-02-12T15:00:23Z</time>
      </trkpt>
      <trkpt lat="46.84307" lon="5.90974">
        <ele>641.9</ele>
        <time>2020-02-12T15:00:25Z</time>
      </trkpt>
      <trkpt lat="46.84312" lon="5.90973">
        <ele>642.7</ele>
        <time>2020-02-12T15:00:30Z</time>
      </trkpt>
      <trkpt lat="46.84317" lon="5.90972">
        <ele>643.9</ele>
        <time>2020-02-12T15:00:36Z</time>
      </trkpt>
      <trkpt lat="46.84324" lon="5.9097">
        <ele>644.6</ele>
        <time>2020-02-12T15:00:39Z</time>
      </trkpt>
      <trkpt lat="46.84329" lon="5.90968">
        <ele>645</ele>
        <time>2020-02-12T15:00:41Z</time>
      </trkpt>
      <trkpt lat="46.84334" lon="5.90966">
        <ele>645.4</ele>
        <time>2020-02-12T15:00:43Z</time>
      </trkpt>
      <trkpt lat="46.84339" lon="5.90965">
        <ele>646.3</ele>
        <time>2020-02-12T15:00:48Z</time>
      </trkpt>
      <trkpt lat="46.84344" lon="5.90964">
        <ele>647</ele>
        <time>2020-02-12T15:00:53Z</time>
      </trkpt>
      <trkpt lat="46.84349" lon="5.90963">
        <ele>647.5</ele>
        <time>2020-02-12T15:00:57Z</time>
      </trkpt>
      <trkpt lat="46.84353" lon="5.9096">
        <ele>648</ele>
        <time>2020-02-12T15:01:02Z</time>
      </trkpt>
      <trkpt lat="46.84358" lon="5.90959">
        <ele>648.5</ele>
        <time>2020-02-12T15:01:07Z</time>
      </trkpt>
      <trkpt lat="46.84363" lon="5.90959">
        <ele>648.8</ele>
        <time>2020-02-12T15:01:12Z</time>
      </trkpt>
      <trkpt lat="46.84368" lon="5.90958">
        <ele>648.9</ele>
        <time>2020-02-12T15:01:18Z</time>
      </trkpt>
      <trkpt lat="46.84373" lon="5.90957">
        <ele>648.8</ele>
        <time>2020-02-12T15:01:21Z</time>
      </trkpt>
      <trkpt lat="46.84378" lon="5.90953">
        <ele>648.5</ele>
        <time>2020-02-12T15:01:24Z</time>
      </trkpt>
      <trkpt lat="46.84382" lon="5.90952">
        <ele>648</ele>
        <time>2020-02-12T15:01:27Z</time>
      </trkpt>
      <trkpt lat="46.844" lon="5.90948">
        <ele>643.4</ele>
        <time>2020-02-12T15:01:46Z</time>
      </trkpt>
      <trkpt lat="46.84404" lon="5.90943">
        <ele>642.5</ele>
        <time>2020-02-12T15:01:53Z</time>
      </trkpt>
      <trkpt lat="46.84411" lon="5.90938">
        <ele>642.4</ele>
        <time>2020-02-12T15:02:08Z</time>
      </trkpt>
      <trkpt lat="46.84418" lon="5.90931">
        <ele>643.4</ele>
        <time>2020-02-12T15:02:24Z</time>
      </trkpt>
      <trkpt lat="46.84417" lon="5.90923">
        <ele>643.1</ele>
        <time>2020-02-12T15:02:30Z</time>
      </trkpt>
      <trkpt lat="46.84416" lon="5.90914">
        <ele>642.9</ele>
        <time>2020-02-12T15:02:32Z</time>
      </trkpt>
      <trkpt lat="46.84414" lon="5.90907">
        <ele>642.7</ele>
        <time>2020-02-12T15:02:35Z</time>
      </trkpt>
      <trkpt lat="46.84413" lon="5.90899">
        <ele>642.7</ele>
        <time>2020-02-12T15:02:40Z</time>
      </trkpt>
      <trkpt lat="46.84413" lon="5.90892">
        <ele>643.4</ele>
        <time>2020-02-12T15:02:46Z</time>
      </trkpt>
      <trkpt lat="46.84412" lon="5.90885">
        <ele>644.1</ele>
        <time>2020-02-12T15:02:52Z</time>
      </trkpt>
      <trkpt lat="46.84411" lon="5.90879">
        <ele>644.4</ele>
        <time>2020-02-12T15:02:58Z</time>
      </trkpt>
      <trkpt lat="46.8441" lon="5.90872">
        <ele>643.9</ele>
        <time>2020-02-12T15:03:04Z</time>
      </trkpt>
      <trkpt lat="46.8441" lon="5.90865">
        <ele>643.1</ele>
        <time>2020-02-12T15:03:09Z</time>
      </trkpt>
      <trkpt lat="46.84409" lon="5.90858">
        <ele>642.3</ele>
        <time>2020-02-12T15:03:13Z</time>
      </trkpt>
      <trkpt lat="46.84408" lon="5.9085">
        <ele>641.6</ele>
        <time>2020-02-12T15:03:16Z</time>
      </trkpt>
      <trkpt lat="46.84406" lon="5.90843">
        <ele>640.5</ele>
        <time>2020-02-12T15:03:22Z</time>
      </trkpt>
      <trkpt lat="46.84406" lon="5.90836">
        <ele>639.8</ele>
        <time>2020-02-12T15:03:28Z</time>
      </trkpt>
      <trkpt lat="46.84409" lon="5.90825">
        <ele>638.7</ele>
        <time>2020-02-12T15:04:03Z</time>
      </trkpt>
      <trkpt lat="46.84416" lon="5.90808">
        <ele>639.8</ele>
        <time>2020-02-12T15:04:15Z</time>
      </trkpt>
      <trkpt lat="46.84419" lon="5.90801">
        <ele>639.8</ele>
        <time>2020-02-12T15:04:18Z</time>
      </trkpt>
      <trkpt lat="46.84431" lon="5.90791">
        <ele>641.7</ele>
        <time>2020-02-12T15:04:38Z</time>
      </trkpt>
      <trkpt lat="46.84435" lon="5.90788">
        <ele>642.5</ele>
        <time>2020-02-12T15:04:45Z</time>
      </trkpt>
      <trkpt lat="46.84437" lon="5.90781">
        <ele>643.3</ele>
        <time>2020-02-12T15:04:52Z</time>
      </trkpt>
      <trkpt lat="46.84442" lon="5.90778">
        <ele>644</ele>
        <time>2020-02-12T15:04:57Z</time>
      </trkpt>
      <trkpt lat="46.84446" lon="5.90776">
        <ele>644.1</ele>
        <time>2020-02-12T15:05:00Z</time>
      </trkpt>
      <trkpt lat="46.84452" lon="5.90774">
        <ele>644.2</ele>
        <time>2020-02-12T15:05:06Z</time>
      </trkpt>
      <trkpt lat="46.84458" lon="5.90772">
        <ele>644.6</ele>
        <time>2020-02-12T15:05:10Z</time>
      </trkpt>
      <trkpt lat="46.84464" lon="5.9077">
        <ele>644.9</ele>
        <time>2020-02-12T15:05:12Z</time>
      </trkpt>
      <trkpt lat="46.84469" lon="5.90767">
        <ele>645.2</ele>
        <time>2020-02-12T15:05:15Z</time>
      </trkpt>
      <trkpt lat="46.84474" lon="5.90763">
        <ele>645.6</ele>
        <time>2020-02-12T15:05:20Z</time>
      </trkpt>
      <trkpt lat="46.84478" lon="5.90759">
        <ele>646.2</ele>
        <time>2020-02-12T15:05:25Z</time>
      </trkpt>
      <trkpt lat="46.84483" lon="5.90756">
        <ele>647.5</ele>
        <time>2020-02-12T15:05:34Z</time>
      </trkpt>
      <trkpt lat="46.84487" lon="5.90756">
        <ele>648.3</ele>
        <time>2020-02-12T15:05:39Z</time>
      </trkpt>
      <trkpt lat="46.84493" lon="5.90756">
        <ele>648.9</ele>
        <time>2020-02-12T15:05:43Z</time>
      </trkpt>
      <trkpt lat="46.84497" lon="5.90757">
        <ele>649.4</ele>
        <time>2020-02-12T15:05:47Z</time>
      </trkpt>
      <trkpt lat="46.84502" lon="5.90758">
        <ele>649.8</ele>
        <time>2020-02-12T15:05:52Z</time>
      </trkpt>
      <trkpt lat="46.84507" lon="5.90761">
        <ele>649.9</ele>
        <time>2020-02-12T15:05:56Z</time>
      </trkpt>
      <trkpt lat="46.84513" lon="5.90763">
        <ele>649.7</ele>
        <time>2020-02-12T15:06:00Z</time>
      </trkpt>
      <trkpt lat="46.84517" lon="5.90763">
        <ele>649.3</ele>
        <time>2020-02-12T15:06:06Z</time>
      </trkpt>
      <trkpt lat="46.84522" lon="5.90764">
        <ele>648.5</ele>
        <time>2020-02-12T15:06:13Z</time>
      </trkpt>
      <trkpt lat="46.84526" lon="5.90767">
        <ele>647.3</ele>
        <time>2020-02-12T15:06:20Z</time>
      </trkpt>
      <trkpt lat="46.84531" lon="5.90769">
        <ele>646.3</ele>
        <time>2020-02-12T15:06:25Z</time>
      </trkpt>
      <trkpt lat="46.84538" lon="5.90773">
        <ele>643.2</ele>
        <time>2020-02-12T15:06:33Z</time>
      </trkpt>
      <trkpt lat="46.84544" lon="5.90774">
        <ele>642.1</ele>
        <time>2020-02-12T15:06:39Z</time>
      </trkpt>
      <trkpt lat="46.84548" lon="5.90773">
        <ele>641.8</ele>
        <time>2020-02-12T15:06:41Z</time>
      </trkpt>
      <trkpt lat="46.84553" lon="5.90773">
        <ele>641.1</ele>
        <time>2020-02-12T15:06:44Z</time>
      </trkpt>
      <trkpt lat="46.84559" lon="5.90776">
        <ele>639.8</ele>
        <time>2020-02-12T15:06:50Z</time>
      </trkpt>
      <trkpt lat="46.84564" lon="5.90776">
        <ele>638.1</ele>
        <time>2020-02-12T15:06:58Z</time>
      </trkpt>
      <trkpt lat="46.8458" lon="5.9078">
        <ele>637</ele>
        <time>2020-02-12T15:07:31Z</time>
      </trkpt>
      <trkpt lat="46.84585" lon="5.90779">
        <ele>637</ele>
        <time>2020-02-12T15:07:36Z</time>
      </trkpt>
      <trkpt lat="46.84598" lon="5.90781">
        <ele>637.4</ele>
        <time>2020-02-12T15:07:44Z</time>
      </trkpt>
      <trkpt lat="46.84638" lon="5.90787">
        <ele>640.3</ele>
        <time>2020-02-12T15:08:23Z</time>
      </trkpt>
      <trkpt lat="46.84642" lon="5.90785">
        <ele>641.5</ele>
        <time>2020-02-12T15:08:30Z</time>
      </trkpt>
      <trkpt lat="46.84647" lon="5.90784">
        <ele>642.9</ele>
        <time>2020-02-12T15:08:37Z</time>
      </trkpt>
      <trkpt lat="46.84652" lon="5.90782">
        <ele>643.4</ele>
        <time>2020-02-12T15:08:48Z</time>
      </trkpt>
      <trkpt lat="46.84657" lon="5.90779">
        <ele>643.4</ele>
        <time>2020-02-12T15:08:54Z</time>
      </trkpt>
      <trkpt lat="46.84663" lon="5.90777">
        <ele>643.2</ele>
        <time>2020-02-12T15:08:57Z</time>
      </trkpt>
      <trkpt lat="46.84668" lon="5.90776">
        <ele>643.2</ele>
        <time>2020-02-12T15:09:03Z</time>
      </trkpt>
      <trkpt lat="46.84675" lon="5.90779">
        <ele>643.7</ele>
        <time>2020-02-12T15:09:14Z</time>
      </trkpt>
      <trkpt lat="46.84681" lon="5.9078">
        <ele>643.8</ele>
        <time>2020-02-12T15:09:17Z</time>
      </trkpt>
      <trkpt lat="46.84687" lon="5.90781">
        <ele>643.9</ele>
        <time>2020-02-12T15:09:19Z</time>
      </trkpt>
      <trkpt lat="46.84693" lon="5.90782">
        <ele>644</ele>
        <time>2020-02-12T15:09:21Z</time>
      </trkpt>
      <trkpt lat="46.84698" lon="5.90782">
        <ele>644.1</ele>
        <time>2020-02-12T15:09:23Z</time>
      </trkpt>
      <trkpt lat="46.84704" lon="5.90783">
        <ele>644.4</ele>
        <time>2020-02-12T15:09:26Z</time>
      </trkpt>
      <trkpt lat="46.84708" lon="5.90783">
        <ele>645</ele>
        <time>2020-02-12T15:09:32Z</time>
      </trkpt>
      <trkpt lat="46.84718" lon="5.90774">
        <ele>645.4</ele>
        <time>2020-02-12T15:09:42Z</time>
      </trkpt>
      <trkpt lat="46.8474" lon="5.90755">
        <ele>640.4</ele>
        <time>2020-02-12T15:10:14Z</time>
      </trkpt>
      <trkpt lat="46.84764" lon="5.90727">
        <ele>641.8</ele>
        <time>2020-02-12T15:11:19Z</time>
      </trkpt>
      <trkpt lat="46.84767" lon="5.90719">
        <ele>641.4</ele>
        <time>2020-02-12T15:11:22Z</time>
      </trkpt>
      <trkpt lat="46.84769" lon="5.90713">
        <ele>639.6</ele>
        <time>2020-02-12T15:11:29Z</time>
      </trkpt>
      <trkpt lat="46.84773" lon="5.90708">
        <ele>638.6</ele>
        <time>2020-02-12T15:11:35Z</time>
      </trkpt>
      <trkpt lat="46.84777" lon="5.90706">
        <ele>637.9</ele>
        <time>2020-02-12T15:11:43Z</time>
      </trkpt>
      <trkpt lat="46.84782" lon="5.90704">
        <ele>637.2</ele>
        <time>2020-02-12T15:11:56Z</time>
      </trkpt>
      <trkpt lat="46.84786" lon="5.907">
        <ele>636.9</ele>
        <time>2020-02-12T15:12:08Z</time>
      </trkpt>
      <trkpt lat="46.84791" lon="5.90698">
        <ele>637</ele>
        <time>2020-02-12T15:12:13Z</time>
      </trkpt>
      <trkpt lat="46.84797" lon="5.90695">
        <ele>637.2</ele>
        <time>2020-02-12T15:12:20Z</time>
      </trkpt>
      <trkpt lat="46.84803" lon="5.90693">
        <ele>637.8</ele>
        <time>2020-02-12T15:12:25Z</time>
      </trkpt>
      <trkpt lat="46.84808" lon="5.90693">
        <ele>638.2</ele>
        <time>2020-02-12T15:12:29Z</time>
      </trkpt>
      <trkpt lat="46.84813" lon="5.90692">
        <ele>638.6</ele>
        <time>2020-02-12T15:12:34Z</time>
      </trkpt>
      <trkpt lat="46.8482" lon="5.90691">
        <ele>638.6</ele>
        <time>2020-02-12T15:12:36Z</time>
      </trkpt>
      <trkpt lat="46.84833" lon="5.90689">
        <ele>638.1</ele>
        <time>2020-02-12T15:12:45Z</time>
      </trkpt>
      <trkpt lat="46.84845" lon="5.90685">
        <ele>634.9</ele>
        <time>2020-02-12T15:13:08Z</time>
      </trkpt>
      <trkpt lat="46.8485" lon="5.90683">
        <ele>634.6</ele>
        <time>2020-02-12T15:13:11Z</time>
      </trkpt>
      <trkpt lat="46.84856" lon="5.90681">
        <ele>634.4</ele>
        <time>2020-02-12T15:13:14Z</time>
      </trkpt>
      <trkpt lat="46.84859" lon="5.90676">
        <ele>634.1</ele>
        <time>2020-02-12T15:13:18Z</time>
      </trkpt>
      <trkpt lat="46.84863" lon="5.90672">
        <ele>633.8</ele>
        <time>2020-02-12T15:13:24Z</time>
      </trkpt>
      <trkpt lat="46.84884" lon="5.90652">
        <ele>632.5</ele>
        <time>2020-02-12T15:13:53Z</time>
      </trkpt>
      <trkpt lat="46.84903" lon="5.9063">
        <ele>630.8</ele>
        <time>2020-02-12T15:14:13Z</time>
      </trkpt>
      <trkpt lat="46.84914" lon="5.9063">
        <ele>630.7</ele>
        <time>2020-02-12T15:14:24Z</time>
      </trkpt>
      <trkpt lat="46.84918" lon="5.90625">
        <ele>631</ele>
        <time>2020-02-12T15:14:34Z</time>
      </trkpt>
      <trkpt lat="46.84935" lon="5.9061">
        <ele>633</ele>
        <time>2020-02-12T15:14:46Z</time>
      </trkpt>
      <trkpt lat="46.84939" lon="5.90605">
        <ele>633.1</ele>
        <time>2020-02-12T15:14:48Z</time>
      </trkpt>
      <trkpt lat="46.84943" lon="5.90601">
        <ele>633.4</ele>
        <time>2020-02-12T15:14:54Z</time>
      </trkpt>
      <trkpt lat="46.84948" lon="5.906">
        <ele>633.5</ele>
        <time>2020-02-12T15:14:58Z</time>
      </trkpt>
      <trkpt lat="46.84953" lon="5.90601">
        <ele>633.6</ele>
        <time>2020-02-12T15:15:00Z</time>
      </trkpt>
      <trkpt lat="46.84963" lon="5.906">
        <ele>633.8</ele>
        <time>2020-02-12T15:15:09Z</time>
      </trkpt>
      <trkpt lat="46.84968" lon="5.90602">
        <ele>633.4</ele>
        <time>2020-02-12T15:15:13Z</time>
      </trkpt>
      <trkpt lat="46.84972" lon="5.90603">
        <ele>633.1</ele>
        <time>2020-02-12T15:15:22Z</time>
      </trkpt>
      <trkpt lat="46.84996" lon="5.90596">
        <ele>629.1</ele>
        <time>2020-02-12T15:15:45Z</time>
      </trkpt>
      <trkpt lat="46.85001" lon="5.90594">
        <ele>628.4</ele>
        <time>2020-02-12T15:15:49Z</time>
      </trkpt>
      <trkpt lat="46.8501" lon="5.90602">
        <ele>628</ele>
        <time>2020-02-12T15:16:16Z</time>
      </trkpt>
      <trkpt lat="46.85019" lon="5.90609">
        <ele>630.2</ele>
        <time>2020-02-12T15:16:32Z</time>
      </trkpt>
      <trkpt lat="46.85026" lon="5.90619">
        <ele>632</ele>
        <time>2020-02-12T15:16:48Z</time>
      </trkpt>
      <trkpt lat="46.8504" lon="5.90634">
        <ele>632.7</ele>
        <time>2020-02-12T15:16:59Z</time>
      </trkpt>
      <trkpt lat="46.85043" lon="5.90643">
        <ele>632.7</ele>
        <time>2020-02-12T15:17:01Z</time>
      </trkpt>
      <trkpt lat="46.85059" lon="5.90658">
        <ele>634.2</ele>
        <time>2020-02-12T15:17:10Z</time>
      </trkpt>
      <trkpt lat="46.85063" lon="5.90664">
        <ele>634.8</ele>
        <time>2020-02-12T15:17:13Z</time>
      </trkpt>
      <trkpt lat="46.85078" lon="5.90674">
        <ele>636.1</ele>
        <time>2020-02-12T15:17:34Z</time>
      </trkpt>
      <trkpt lat="46.85089" lon="5.90671">
        <ele>635</ele>
        <time>2020-02-12T15:17:52Z</time>
      </trkpt>
      <trkpt lat="46.85094" lon="5.9067">
        <ele>631.9</ele>
        <time>2020-02-12T15:18:08Z</time>
      </trkpt>
      <trkpt lat="46.85106" lon="5.90666">
        <ele>630.3</ele>
        <time>2020-02-12T15:18:23Z</time>
      </trkpt>
      <trkpt lat="46.85112" lon="5.90665">
        <ele>630.4</ele>
        <time>2020-02-12T15:18:26Z</time>
      </trkpt>
      <trkpt lat="46.85117" lon="5.90663">
        <ele>630.8</ele>
        <time>2020-02-12T15:18:32Z</time>
      </trkpt>
      <trkpt lat="46.85122" lon="5.90661">
        <ele>631</ele>
        <time>2020-02-12T15:18:37Z</time>
      </trkpt>
      <trkpt lat="46.85125" lon="5.90656">
        <ele>631</ele>
        <time>2020-02-12T15:18:40Z</time>
      </trkpt>
      <trkpt lat="46.85128" lon="5.9065">
        <ele>631</ele>
        <time>2020-02-12T15:18:43Z</time>
      </trkpt>
      <trkpt lat="46.85141" lon="5.90638">
        <ele>630.2</ele>
        <time>2020-02-12T15:18:57Z</time>
      </trkpt>
      <trkpt lat="46.85145" lon="5.90635">
        <ele>630.2</ele>
        <time>2020-02-12T15:19:02Z</time>
      </trkpt>
      <trkpt lat="46.85151" lon="5.90633">
        <ele>630.2</ele>
        <time>2020-02-12T15:19:07Z</time>
      </trkpt>
      <trkpt lat="46.85155" lon="5.90627">
        <ele>630.4</ele>
        <time>2020-02-12T15:19:12Z</time>
      </trkpt>
      <trkpt lat="46.85164" lon="5.90624">
        <ele>631.5</ele>
        <time>2020-02-12T15:19:42Z</time>
      </trkpt>
      <trkpt lat="46.85168" lon="5.90621">
        <ele>633</ele>
        <time>2020-02-12T15:19:50Z</time>
      </trkpt>
      <trkpt lat="46.85175" lon="5.9062">
        <ele>636</ele>
        <time>2020-02-12T15:20:33Z</time>
      </trkpt>
      <trkpt lat="46.85181" lon="5.90615">
        <ele>636.4</ele>
        <time>2020-02-12T15:20:37Z</time>
      </trkpt>
      <trkpt lat="46.85185" lon="5.90611">
        <ele>636.8</ele>
        <time>2020-02-12T15:20:42Z</time>
      </trkpt>
      <trkpt lat="46.85189" lon="5.90606">
        <ele>637.1</ele>
        <time>2020-02-12T15:20:50Z</time>
      </trkpt>
      <trkpt lat="46.85192" lon="5.906">
        <ele>637</ele>
        <time>2020-02-12T15:20:54Z</time>
      </trkpt>
      <trkpt lat="46.85199" lon="5.90595">
        <ele>636</ele>
        <time>2020-02-12T15:21:19Z</time>
      </trkpt>
      <trkpt lat="46.85204" lon="5.90595">
        <ele>635.7</ele>
        <time>2020-02-12T15:21:23Z</time>
      </trkpt>
      <trkpt lat="46.85247" lon="5.90578">
        <ele>633.7</ele>
        <time>2020-02-12T15:24:00Z</time>
      </trkpt>
      <trkpt lat="46.85243" lon="5.90584">
        <ele>633.6</ele>
        <time>2020-02-12T15:24:02Z</time>
      </trkpt>
      <trkpt lat="46.8524" lon="5.90588">
        <ele>633.6</ele>
        <time>2020-02-12T15:24:07Z</time>
      </trkpt>
      <trkpt lat="46.85234" lon="5.9059">
        <ele>633.8</ele>
        <time>2020-02-12T15:24:20Z</time>
      </trkpt>
      <trkpt lat="46.8523" lon="5.90594">
        <ele>633.6</ele>
        <time>2020-02-12T15:24:24Z</time>
      </trkpt>
      <trkpt lat="46.85226" lon="5.90599">
        <ele>633</ele>
        <time>2020-02-12T15:24:33Z</time>
      </trkpt>
      <trkpt lat="46.85223" lon="5.90604">
        <ele>632.1</ele>
        <time>2020-02-12T15:24:39Z</time>
      </trkpt>
      <trkpt lat="46.85219" lon="5.90607">
        <ele>630.8</ele>
        <time>2020-02-12T15:24:44Z</time>
      </trkpt>
      <trkpt lat="46.85181" lon="5.90638">
        <ele>625.8</ele>
        <time>2020-02-12T15:25:29Z</time>
      </trkpt>
      <trkpt lat="46.85177" lon="5.90642">
        <ele>626.1</ele>
        <time>2020-02-12T15:25:32Z</time>
      </trkpt>
      <trkpt lat="46.85174" lon="5.90647">
        <ele>627.2</ele>
        <time>2020-02-12T15:25:40Z</time>
      </trkpt>
      <trkpt lat="46.85167" lon="5.90659">
        <ele>630.9</ele>
        <time>2020-02-12T15:26:20Z</time>
      </trkpt>
      <trkpt lat="46.85168" lon="5.90666">
        <ele>632.7</ele>
        <time>2020-02-12T15:26:27Z</time>
      </trkpt>
      <trkpt lat="46.85177" lon="5.90691">
        <ele>636</ele>
        <time>2020-02-12T15:27:04Z</time>
      </trkpt>
      <trkpt lat="46.85187" lon="5.90731">
        <ele>620.5</ele>
        <time>2020-02-12T15:28:03Z</time>
      </trkpt>
      <trkpt lat="46.8519" lon="5.90736">
        <ele>619.3</ele>
        <time>2020-02-12T15:28:10Z</time>
      </trkpt>
      <trkpt lat="46.85193" lon="5.90745">
        <ele>618.9</ele>
        <time>2020-02-12T15:28:16Z</time>
      </trkpt>
      <trkpt lat="46.85196" lon="5.90751">
        <ele>618.5</ele>
        <time>2020-02-12T15:28:20Z</time>
      </trkpt>
      <trkpt lat="46.85199" lon="5.90757">
        <ele>618.2</ele>
        <time>2020-02-12T15:28:22Z</time>
      </trkpt>
      <trkpt lat="46.85203" lon="5.90762">
        <ele>617.6</ele>
        <time>2020-02-12T15:28:27Z</time>
      </trkpt>
      <trkpt lat="46.85204" lon="5.9077">
        <ele>617.3</ele>
        <time>2020-02-12T15:28:29Z</time>
      </trkpt>
      <trkpt lat="46.85208" lon="5.90779">
        <ele>617.2</ele>
        <time>2020-02-12T15:28:31Z</time>
      </trkpt>
      <trkpt lat="46.85211" lon="5.90786">
        <ele>617</ele>
        <time>2020-02-12T15:28:35Z</time>
      </trkpt>
      <trkpt lat="46.85214" lon="5.90792">
        <ele>616.6</ele>
        <time>2020-02-12T15:28:40Z</time>
      </trkpt>
      <trkpt lat="46.85216" lon="5.90798">
        <ele>616</ele>
        <time>2020-02-12T15:28:47Z</time>
      </trkpt>
      <trkpt lat="46.85218" lon="5.90805">
        <ele>615.7</ele>
        <time>2020-02-12T15:28:53Z</time>
      </trkpt>
      <trkpt lat="46.85219" lon="5.90812">
        <ele>615.2</ele>
        <time>2020-02-12T15:28:59Z</time>
      </trkpt>
      <trkpt lat="46.85222" lon="5.90819">
        <ele>614.3</ele>
        <time>2020-02-12T15:29:07Z</time>
      </trkpt>
      <trkpt lat="46.85226" lon="5.90839">
        <ele>613.3</ele>
        <time>2020-02-12T15:29:25Z</time>
      </trkpt>
      <trkpt lat="46.8523" lon="5.90845">
        <ele>613.1</ele>
        <time>2020-02-12T15:29:27Z</time>
      </trkpt>
      <trkpt lat="46.85234" lon="5.90851">
        <ele>612.9</ele>
        <time>2020-02-12T15:29:31Z</time>
      </trkpt>
      <trkpt lat="46.85237" lon="5.90857">
        <ele>613.7</ele>
        <time>2020-02-12T15:29:41Z</time>
      </trkpt>
      <trkpt lat="46.8524" lon="5.90863">
        <ele>613.5</ele>
        <time>2020-02-12T15:29:49Z</time>
      </trkpt>
      <trkpt lat="46.8524" lon="5.90869">
        <ele>612.9</ele>
        <time>2020-02-12T15:29:58Z</time>
      </trkpt>
      <trkpt lat="46.85238" lon="5.90876">
        <ele>612.7</ele>
        <time>2020-02-12T15:30:01Z</time>
      </trkpt>
      <trkpt lat="46.85236" lon="5.90883">
        <ele>612.6</ele>
        <time>2020-02-12T15:30:05Z</time>
      </trkpt>
      <trkpt lat="46.85234" lon="5.90889">
        <ele>613.2</ele>
        <time>2020-02-12T15:30:11Z</time>
      </trkpt>
      <trkpt lat="46.85233" lon="5.90897">
        <ele>614</ele>
        <time>2020-02-12T15:30:15Z</time>
      </trkpt>
      <trkpt lat="46.85233" lon="5.90904">
        <ele>615.1</ele>
        <time>2020-02-12T15:30:21Z</time>
      </trkpt>
      <trkpt lat="46.85232" lon="5.90912">
        <ele>615.9</ele>
        <time>2020-02-12T15:30:25Z</time>
      </trkpt>
      <trkpt lat="46.85231" lon="5.9092">
        <ele>616.9</ele>
        <time>2020-02-12T15:30:29Z</time>
      </trkpt>
      <trkpt lat="46.85231" lon="5.90926">
        <ele>617.6</ele>
        <time>2020-02-12T15:30:32Z</time>
      </trkpt>
      <trkpt lat="46.85229" lon="5.90933">
        <ele>618.5</ele>
        <time>2020-02-12T15:30:37Z</time>
      </trkpt>
      <trkpt lat="46.85228" lon="5.90941">
        <ele>618.9</ele>
        <time>2020-02-12T15:30:44Z</time>
      </trkpt>
      <trkpt lat="46.85212" lon="5.90961">
        <ele>618.7</ele>
        <time>2020-02-12T15:31:13Z</time>
      </trkpt>
      <trkpt lat="46.85215" lon="5.9096">
        <ele>613.3</ele>
        <time>2020-02-12T15:31:58Z</time>
      </trkpt>
      <trkpt lat="46.8522" lon="5.90955">
        <ele>612.6</ele>
        <time>2020-02-12T15:32:04Z</time>
      </trkpt>
      <trkpt lat="46.85225" lon="5.90953">
        <ele>612.5</ele>
        <time>2020-02-12T15:32:06Z</time>
      </trkpt>
      <trkpt lat="46.85229" lon="5.9095">
        <ele>612.4</ele>
        <time>2020-02-12T15:32:08Z</time>
      </trkpt>
      <trkpt lat="46.85235" lon="5.90947">
        <ele>612.4</ele>
        <time>2020-02-12T15:32:10Z</time>
      </trkpt>
      <trkpt lat="46.8524" lon="5.90946">
        <ele>612.3</ele>
        <time>2020-02-12T15:32:13Z</time>
      </trkpt>
      <trkpt lat="46.85244" lon="5.90944">
        <ele>612.4</ele>
        <time>2020-02-12T15:32:18Z</time>
      </trkpt>
      <trkpt lat="46.85249" lon="5.90941">
        <ele>612.5</ele>
        <time>2020-02-12T15:32:24Z</time>
      </trkpt>
      <trkpt lat="46.85253" lon="5.90937">
        <ele>612.8</ele>
        <time>2020-02-12T15:32:32Z</time>
      </trkpt>
      <trkpt lat="46.85257" lon="5.90932">
        <ele>613</ele>
        <time>2020-02-12T15:32:38Z</time>
      </trkpt>
      <trkpt lat="46.85264" lon="5.90924">
        <ele>612.7</ele>
        <time>2020-02-12T15:32:48Z</time>
      </trkpt>
      <trkpt lat="46.85268" lon="5.9092">
        <ele>612.6</ele>
        <time>2020-02-12T15:32:53Z</time>
      </trkpt>
      <trkpt lat="46.85275" lon="5.90913">
        <ele>612.5</ele>
        <time>2020-02-12T15:33:03Z</time>
      </trkpt>
      <trkpt lat="46.85279" lon="5.90909">
        <ele>612.4</ele>
        <time>2020-02-12T15:33:05Z</time>
      </trkpt>
      <trkpt lat="46.85283" lon="5.90905">
        <ele>612.5</ele>
        <time>2020-02-12T15:33:08Z</time>
      </trkpt>
      <trkpt lat="46.85287" lon="5.90902">
        <ele>613</ele>
        <time>2020-02-12T15:33:12Z</time>
      </trkpt>
      <trkpt lat="46.85291" lon="5.90898">
        <ele>613.9</ele>
        <time>2020-02-12T15:33:17Z</time>
      </trkpt>
      <trkpt lat="46.85296" lon="5.90895">
        <ele>614.5</ele>
        <time>2020-02-12T15:33:21Z</time>
      </trkpt>
      <trkpt lat="46.853" lon="5.90891">
        <ele>615</ele>
        <time>2020-02-12T15:33:25Z</time>
      </trkpt>
      <trkpt lat="46.85304" lon="5.90886">
        <ele>615.4</ele>
        <time>2020-02-12T15:33:28Z</time>
      </trkpt>
      <trkpt lat="46.85309" lon="5.90882">
        <ele>616</ele>
        <time>2020-02-12T15:33:33Z</time>
      </trkpt>
      <trkpt lat="46.85312" lon="5.90879">
        <ele>616.7</ele>
        <time>2020-02-12T15:33:38Z</time>
      </trkpt>
      <trkpt lat="46.85316" lon="5.90875">
        <ele>617</ele>
        <time>2020-02-12T15:33:41Z</time>
      </trkpt>
      <trkpt lat="46.8532" lon="5.90869">
        <ele>617</ele>
        <time>2020-02-12T15:33:44Z</time>
      </trkpt>
      <trkpt lat="46.85323" lon="5.90864">
        <ele>617</ele>
        <time>2020-02-12T15:33:48Z</time>
      </trkpt>
      <trkpt lat="46.85327" lon="5.9086">
        <ele>616.9</ele>
        <time>2020-02-12T15:33:53Z</time>
      </trkpt>
      <trkpt lat="46.85331" lon="5.90857">
        <ele>616.9</ele>
        <time>2020-02-12T15:33:57Z</time>
      </trkpt>
      <trkpt lat="46.85335" lon="5.90853">
        <ele>616.8</ele>
        <time>2020-02-12T15:33:59Z</time>
      </trkpt>
      <trkpt lat="46.8534" lon="5.90849">
        <ele>616.6</ele>
        <time>2020-02-12T15:34:02Z</time>
      </trkpt>
      <trkpt lat="46.85344" lon="5.90845">
        <ele>616.4</ele>
        <time>2020-02-12T15:34:05Z</time>
      </trkpt>
      <trkpt lat="46.85348" lon="5.9084">
        <ele>616.1</ele>
        <time>2020-02-12T15:34:09Z</time>
      </trkpt>
      <trkpt lat="46.85352" lon="5.90835">
        <ele>615.7</ele>
        <time>2020-02-12T15:34:12Z</time>
      </trkpt>
      <trkpt lat="46.85355" lon="5.90829">
        <ele>615</ele>
        <time>2020-02-12T15:34:17Z</time>
      </trkpt>
      <trkpt lat="46.85358" lon="5.90824">
        <ele>614.5</ele>
        <time>2020-02-12T15:34:21Z</time>
      </trkpt>
      <trkpt lat="46.85362" lon="5.90819">
        <ele>613.7</ele>
        <time>2020-02-12T15:34:26Z</time>
      </trkpt>
      <trkpt lat="46.85366" lon="5.90816">
        <ele>613</ele>
        <time>2020-02-12T15:34:30Z</time>
      </trkpt>
      <trkpt lat="46.85371" lon="5.90812">
        <ele>612.4</ele>
        <time>2020-02-12T15:34:34Z</time>
      </trkpt>
      <trkpt lat="46.85374" lon="5.90806">
        <ele>612</ele>
        <time>2020-02-12T15:34:38Z</time>
      </trkpt>
      <trkpt lat="46.85377" lon="5.908">
        <ele>611.7</ele>
        <time>2020-02-12T15:34:42Z</time>
      </trkpt>
      <trkpt lat="46.8538" lon="5.90793">
        <ele>611.1</ele>
        <time>2020-02-12T15:34:47Z</time>
      </trkpt>
      <trkpt lat="46.85381" lon="5.90787">
        <ele>610.5</ele>
        <time>2020-02-12T15:34:51Z</time>
      </trkpt>
      <trkpt lat="46.85384" lon="5.9078">
        <ele>609.7</ele>
        <time>2020-02-12T15:34:56Z</time>
      </trkpt>
      <trkpt lat="46.85386" lon="5.90773">
        <ele>609.1</ele>
        <time>2020-02-12T15:35:00Z</time>
      </trkpt>
      <trkpt lat="46.85391" lon="5.90769">
        <ele>608.5</ele>
        <time>2020-02-12T15:35:06Z</time>
      </trkpt>
      <trkpt lat="46.85395" lon="5.90764">
        <ele>608.2</ele>
        <time>2020-02-12T15:35:09Z</time>
      </trkpt>
      <trkpt lat="46.85398" lon="5.9076">
        <ele>608</ele>
        <time>2020-02-12T15:35:12Z</time>
      </trkpt>
      <trkpt lat="46.85401" lon="5.90753">
        <ele>607.8</ele>
        <time>2020-02-12T15:35:15Z</time>
      </trkpt>
      <trkpt lat="46.85406" lon="5.90748">
        <ele>607.9</ele>
        <time>2020-02-12T15:35:18Z</time>
      </trkpt>
      <trkpt lat="46.85411" lon="5.90745">
        <ele>608.1</ele>
        <time>2020-02-12T15:35:22Z</time>
      </trkpt>
      <trkpt lat="46.85416" lon="5.90741">
        <ele>608.1</ele>
        <time>2020-02-12T15:35:26Z</time>
      </trkpt>
      <trkpt lat="46.8542" lon="5.90738">
        <ele>608.2</ele>
        <time>2020-02-12T15:35:29Z</time>
      </trkpt>
      <trkpt lat="46.85424" lon="5.90735">
        <ele>608.3</ele>
        <time>2020-02-12T15:35:32Z</time>
      </trkpt>
      <trkpt lat="46.85428" lon="5.90731">
        <ele>608.6</ele>
        <time>2020-02-12T15:35:35Z</time>
      </trkpt>
      <trkpt lat="46.85432" lon="5.90726">
        <ele>609.1</ele>
        <time>2020-02-12T15:35:39Z</time>
      </trkpt>
      <trkpt lat="46.85437" lon="5.90723">
        <ele>609.6</ele>
        <time>2020-02-12T15:35:43Z</time>
      </trkpt>
      <trkpt lat="46.85442" lon="5.90718">
        <ele>610.1</ele>
        <time>2020-02-12T15:35:47Z</time>
      </trkpt>
      <trkpt lat="46.85446" lon="5.90715">
        <ele>610.8</ele>
        <time>2020-02-12T15:35:52Z</time>
      </trkpt>
      <trkpt lat="46.85451" lon="5.90712">
        <ele>611.3</ele>
        <time>2020-02-12T15:35:56Z</time>
      </trkpt>
      <trkpt lat="46.85456" lon="5.90709">
        <ele>611.5</ele>
        <time>2020-02-12T15:35:58Z</time>
      </trkpt>
      <trkpt lat="46.8546" lon="5.90707">
        <ele>611.6</ele>
        <time>2020-02-12T15:36:01Z</time>
      </trkpt>
      <trkpt lat="46.85465" lon="5.90705">
        <ele>611.6</ele>
        <time>2020-02-12T15:36:05Z</time>
      </trkpt>
      <trkpt lat="46.85469" lon="5.90703">
        <ele>611.3</ele>
        <time>2020-02-12T15:36:10Z</time>
      </trkpt>
      <trkpt lat="46.85475" lon="5.90702">
        <ele>610.7</ele>
        <time>2020-02-12T15:36:13Z</time>
      </trkpt>
      <trkpt lat="46.8548" lon="5.907">
        <ele>609.4</ele>
        <time>2020-02-12T15:36:18Z</time>
      </trkpt>
      <trkpt lat="46.85486" lon="5.90695">
        <ele>607.2</ele>
        <time>2020-02-12T15:36:25Z</time>
      </trkpt>
      <trkpt lat="46.8549" lon="5.90692">
        <ele>606</ele>
        <time>2020-02-12T15:36:30Z</time>
      </trkpt>
      <trkpt lat="46.85494" lon="5.90689">
        <ele>605</ele>
        <time>2020-02-12T15:36:35Z</time>
      </trkpt>
      <trkpt lat="46.85499" lon="5.90686">
        <ele>604.2</ele>
        <time>2020-02-12T15:36:40Z</time>
      </trkpt>
      <trkpt lat="46.85505" lon="5.90676">
        <ele>602.6</ele>
        <time>2020-02-12T15:36:49Z</time>
      </trkpt>
      <trkpt lat="46.85509" lon="5.9067">
        <ele>602.4</ele>
        <time>2020-02-12T15:36:52Z</time>
      </trkpt>
      <trkpt lat="46.85514" lon="5.90666">
        <ele>601.8</ele>
        <time>2020-02-12T15:36:57Z</time>
      </trkpt>
      <trkpt lat="46.85518" lon="5.90663">
        <ele>600.7</ele>
        <time>2020-02-12T15:37:03Z</time>
      </trkpt>
      <trkpt lat="46.85522" lon="5.90657">
        <ele>599.5</ele>
        <time>2020-02-12T15:37:08Z</time>
      </trkpt>
      <trkpt lat="46.85526" lon="5.90653">
        <ele>598.5</ele>
        <time>2020-02-12T15:37:12Z</time>
      </trkpt>
      <trkpt lat="46.8553" lon="5.90649">
        <ele>598</ele>
        <time>2020-02-12T15:37:15Z</time>
      </trkpt>
      <trkpt lat="46.85534" lon="5.90645">
        <ele>597.5</ele>
        <time>2020-02-12T15:37:20Z</time>
      </trkpt>
      <trkpt lat="46.85546" lon="5.9063">
        <ele>598.8</ele>
        <time>2020-02-12T15:37:34Z</time>
      </trkpt>
      <trkpt lat="46.85551" lon="5.90628">
        <ele>599.4</ele>
        <time>2020-02-12T15:37:37Z</time>
      </trkpt>
      <trkpt lat="46.85556" lon="5.90623">
        <ele>600.9</ele>
        <time>2020-02-12T15:37:43Z</time>
      </trkpt>
      <trkpt lat="46.85559" lon="5.90619">
        <ele>601.8</ele>
        <time>2020-02-12T15:37:47Z</time>
      </trkpt>
      <trkpt lat="46.85563" lon="5.90614">
        <ele>602.6</ele>
        <time>2020-02-12T15:37:52Z</time>
      </trkpt>
      <trkpt lat="46.85567" lon="5.90611">
        <ele>603.4</ele>
        <time>2020-02-12T15:37:58Z</time>
      </trkpt>
      <trkpt lat="46.85578" lon="5.906">
        <ele>605.2</ele>
        <time>2020-02-12T15:38:13Z</time>
      </trkpt>
      <trkpt lat="46.85583" lon="5.90598">
        <ele>605.3</ele>
        <time>2020-02-12T15:38:15Z</time>
      </trkpt>
      <trkpt lat="46.85588" lon="5.90595">
        <ele>605.4</ele>
        <time>2020-02-12T15:38:17Z</time>
      </trkpt>
      <trkpt lat="46.85593" lon="5.9059">
        <ele>605.6</ele>
        <time>2020-02-12T15:38:20Z</time>
      </trkpt>
      <trkpt lat="46.85596" lon="5.90586">
        <ele>605.7</ele>
        <time>2020-02-12T15:38:24Z</time>
      </trkpt>
      <trkpt lat="46.85622" lon="5.90563">
        <ele>604</ele>
        <time>2020-02-12T15:38:47Z</time>
      </trkpt>
      <trkpt lat="46.85625" lon="5.90559">
        <ele>604.1</ele>
        <time>2020-02-12T15:38:50Z</time>
      </trkpt>
      <trkpt lat="46.8563" lon="5.90553">
        <ele>604.5</ele>
        <time>2020-02-12T15:38:55Z</time>
      </trkpt>
      <trkpt lat="46.8564" lon="5.9054">
        <ele>607.2</ele>
        <time>2020-02-12T15:39:05Z</time>
      </trkpt>
      <trkpt lat="46.85645" lon="5.90539">
        <ele>607.6</ele>
        <time>2020-02-12T15:39:09Z</time>
      </trkpt>
      <trkpt lat="46.85649" lon="5.90535">
        <ele>608</ele>
        <time>2020-02-12T15:39:13Z</time>
      </trkpt>
      <trkpt lat="46.85653" lon="5.9053">
        <ele>608.4</ele>
        <time>2020-02-12T15:39:19Z</time>
      </trkpt>
      <trkpt lat="46.85656" lon="5.90525">
        <ele>608.9</ele>
        <time>2020-02-12T15:39:27Z</time>
      </trkpt>
      <trkpt lat="46.8566" lon="5.9052">
        <ele>610</ele>
        <time>2020-02-12T15:39:34Z</time>
      </trkpt>
      <trkpt lat="46.85662" lon="5.90514">
        <ele>610.9</ele>
        <time>2020-02-12T15:39:39Z</time>
      </trkpt>
      <trkpt lat="46.85666" lon="5.90509">
        <ele>611.7</ele>
        <time>2020-02-12T15:39:43Z</time>
      </trkpt>
      <trkpt lat="46.85669" lon="5.90503">
        <ele>612.7</ele>
        <time>2020-02-12T15:39:49Z</time>
      </trkpt>
      <trkpt lat="46.85672" lon="5.90496">
        <ele>614.2</ele>
        <time>2020-02-12T15:39:55Z</time>
      </trkpt>
      <trkpt lat="46.85676" lon="5.90491">
        <ele>614.8</ele>
        <time>2020-02-12T15:39:59Z</time>
      </trkpt>
      <trkpt lat="46.8568" lon="5.90489">
        <ele>615</ele>
        <time>2020-02-12T15:40:04Z</time>
      </trkpt>
      <trkpt lat="46.85685" lon="5.90485">
        <ele>615.1</ele>
        <time>2020-02-12T15:40:08Z</time>
      </trkpt>
      <trkpt lat="46.85689" lon="5.90481">
        <ele>615.4</ele>
        <time>2020-02-12T15:40:11Z</time>
      </trkpt>
      <trkpt lat="46.85693" lon="5.90478">
        <ele>615.8</ele>
        <time>2020-02-12T15:40:15Z</time>
      </trkpt>
      <trkpt lat="46.85697" lon="5.90474">
        <ele>616.9</ele>
        <time>2020-02-12T15:40:23Z</time>
      </trkpt>
      <trkpt lat="46.85702" lon="5.90468">
        <ele>617.6</ele>
        <time>2020-02-12T15:40:29Z</time>
      </trkpt>
      <trkpt lat="46.85705" lon="5.90462">
        <ele>617.9</ele>
        <time>2020-02-12T15:40:34Z</time>
      </trkpt>
      <trkpt lat="46.85709" lon="5.90456">
        <ele>617.9</ele>
        <time>2020-02-12T15:40:38Z</time>
      </trkpt>
      <trkpt lat="46.8571" lon="5.90449">
        <ele>617.9</ele>
        <time>2020-02-12T15:40:42Z</time>
      </trkpt>
      <trkpt lat="46.85713" lon="5.90443">
        <ele>617.9</ele>
        <time>2020-02-12T15:40:46Z</time>
      </trkpt>
      <trkpt lat="46.85715" lon="5.90435">
        <ele>618</ele>
        <time>2020-02-12T15:40:51Z</time>
      </trkpt>
      <trkpt lat="46.85718" lon="5.90428">
        <ele>618.3</ele>
        <time>2020-02-12T15:40:55Z</time>
      </trkpt>
      <trkpt lat="46.85718" lon="5.9042">
        <ele>618.8</ele>
        <time>2020-02-12T15:41:00Z</time>
      </trkpt>
      <trkpt lat="46.85718" lon="5.90413">
        <ele>619</ele>
        <time>2020-02-12T15:41:05Z</time>
      </trkpt>
      <trkpt lat="46.85718" lon="5.90407">
        <ele>618.9</ele>
        <time>2020-02-12T15:41:11Z</time>
      </trkpt>
      <trkpt lat="46.85717" lon="5.904">
        <ele>620</ele>
        <time>2020-02-12T15:41:23Z</time>
      </trkpt>
      <trkpt lat="46.8572" lon="5.90395">
        <ele>621.5</ele>
        <time>2020-02-12T15:41:35Z</time>
      </trkpt>
      <trkpt lat="46.85724" lon="5.90391">
        <ele>621.9</ele>
        <time>2020-02-12T15:41:38Z</time>
      </trkpt>
      <trkpt lat="46.85727" lon="5.90385">
        <ele>622.3</ele>
        <time>2020-02-12T15:41:44Z</time>
      </trkpt>
      <trkpt lat="46.8573" lon="5.90379">
        <ele>622.3</ele>
        <time>2020-02-12T15:41:49Z</time>
      </trkpt>
      <trkpt lat="46.85733" lon="5.90373">
        <ele>622.1</ele>
        <time>2020-02-12T15:41:54Z</time>
      </trkpt>
      <trkpt lat="46.85736" lon="5.90366">
        <ele>622</ele>
        <time>2020-02-12T15:41:59Z</time>
      </trkpt>
      <trkpt lat="46.85739" lon="5.9036">
        <ele>622.2</ele>
        <time>2020-02-12T15:42:06Z</time>
      </trkpt>
      <trkpt lat="46.85749" lon="5.90345">
        <ele>622.9</ele>
        <time>2020-02-12T15:42:18Z</time>
      </trkpt>
      <trkpt lat="46.85754" lon="5.90342">
        <ele>623.3</ele>
        <time>2020-02-12T15:42:22Z</time>
      </trkpt>
      <trkpt lat="46.85758" lon="5.90337">
        <ele>623.7</ele>
        <time>2020-02-12T15:42:26Z</time>
      </trkpt>
      <trkpt lat="46.85763" lon="5.90326">
        <ele>624.8</ele>
        <time>2020-02-12T15:42:35Z</time>
      </trkpt>
      <trkpt lat="46.85764" lon="5.90319">
        <ele>625</ele>
        <time>2020-02-12T15:42:39Z</time>
      </trkpt>
      <trkpt lat="46.85765" lon="5.90311">
        <ele>625.1</ele>
        <time>2020-02-12T15:42:42Z</time>
      </trkpt>
      <trkpt lat="46.85767" lon="5.90305">
        <ele>625.4</ele>
        <time>2020-02-12T15:42:45Z</time>
      </trkpt>
      <trkpt lat="46.85772" lon="5.90282">
        <ele>626.4</ele>
        <time>2020-02-12T15:42:54Z</time>
      </trkpt>
      <trkpt lat="46.85774" lon="5.90276">
        <ele>626.9</ele>
        <time>2020-02-12T15:42:59Z</time>
      </trkpt>
      <trkpt lat="46.85775" lon="5.90269">
        <ele>627.5</ele>
        <time>2020-02-12T15:43:04Z</time>
      </trkpt>
      <trkpt lat="46.85776" lon="5.90262">
        <ele>628.1</ele>
        <time>2020-02-12T15:43:10Z</time>
      </trkpt>
      <trkpt lat="46.85779" lon="5.90256">
        <ele>628.7</ele>
        <time>2020-02-12T15:43:17Z</time>
      </trkpt>
      <trkpt lat="46.85782" lon="5.9025">
        <ele>629</ele>
        <time>2020-02-12T15:43:22Z</time>
      </trkpt>
      <trkpt lat="46.85786" lon="5.90246">
        <ele>629.3</ele>
        <time>2020-02-12T15:43:28Z</time>
      </trkpt>
      <trkpt lat="46.8579" lon="5.90242">
        <ele>629.5</ele>
        <time>2020-02-12T15:43:35Z</time>
      </trkpt>
      <trkpt lat="46.85792" lon="5.90235">
        <ele>629.4</ele>
        <time>2020-02-12T15:43:38Z</time>
      </trkpt>
      <trkpt lat="46.85795" lon="5.9023">
        <ele>629.3</ele>
        <time>2020-02-12T15:43:43Z</time>
      </trkpt>
      <trkpt lat="46.858" lon="5.90225">
        <ele>629.3</ele>
        <time>2020-02-12T15:43:46Z</time>
      </trkpt>
      <trkpt lat="46.85804" lon="5.90222">
        <ele>629.5</ele>
        <time>2020-02-12T15:43:49Z</time>
      </trkpt>
      <trkpt lat="46.85809" lon="5.90218">
        <ele>629.5</ele>
        <time>2020-02-12T15:43:51Z</time>
      </trkpt>
      <trkpt lat="46.85814" lon="5.90214">
        <ele>629.9</ele>
        <time>2020-02-12T15:43:55Z</time>
      </trkpt>
      <trkpt lat="46.85818" lon="5.90211">
        <ele>631</ele>
        <time>2020-02-12T15:44:03Z</time>
      </trkpt>
      <trkpt lat="46.85824" lon="5.90208">
        <ele>634.3</ele>
        <time>2020-02-12T15:44:33Z</time>
      </trkpt>
      <trkpt lat="46.85828" lon="5.90204">
        <ele>634.9</ele>
        <time>2020-02-12T15:44:37Z</time>
      </trkpt>
      <trkpt lat="46.85832" lon="5.90198">
        <ele>635.5</ele>
        <time>2020-02-12T15:44:42Z</time>
      </trkpt>
      <trkpt lat="46.85835" lon="5.90192">
        <ele>636</ele>
        <time>2020-02-12T15:44:47Z</time>
      </trkpt>
      <trkpt lat="46.85836" lon="5.90183">
        <ele>636.6</ele>
        <time>2020-02-12T15:44:51Z</time>
      </trkpt>
      <trkpt lat="46.85838" lon="5.90176">
        <ele>636.9</ele>
        <time>2020-02-12T15:44:53Z</time>
      </trkpt>
      <trkpt lat="46.85841" lon="5.90168">
        <ele>637.2</ele>
        <time>2020-02-12T15:44:55Z</time>
      </trkpt>
      <trkpt lat="46.85842" lon="5.9016">
        <ele>637.7</ele>
        <time>2020-02-12T15:44:58Z</time>
      </trkpt>
      <trkpt lat="46.85843" lon="5.90153">
        <ele>638.2</ele>
        <time>2020-02-12T15:45:01Z</time>
      </trkpt>
      <trkpt lat="46.85845" lon="5.90145">
        <ele>638.9</ele>
        <time>2020-02-12T15:45:05Z</time>
      </trkpt>
      <trkpt lat="46.85845" lon="5.90139">
        <ele>639.5</ele>
        <time>2020-02-12T15:45:09Z</time>
      </trkpt>
      <trkpt lat="46.85846" lon="5.90131">
        <ele>639.9</ele>
        <time>2020-02-12T15:45:15Z</time>
      </trkpt>
      <trkpt lat="46.85847" lon="5.90125">
        <ele>639.8</ele>
        <time>2020-02-12T15:45:21Z</time>
      </trkpt>
      <trkpt lat="46.85848" lon="5.90119">
        <ele>639.7</ele>
        <time>2020-02-12T15:45:24Z</time>
      </trkpt>
      <trkpt lat="46.85849" lon="5.90111">
        <ele>639.8</ele>
        <time>2020-02-12T15:45:29Z</time>
      </trkpt>
      <trkpt lat="46.85849" lon="5.90102">
        <ele>640.7</ele>
        <time>2020-02-12T15:45:39Z</time>
      </trkpt>
      <trkpt lat="46.85849" lon="5.90094">
        <ele>640.9</ele>
        <time>2020-02-12T15:45:41Z</time>
      </trkpt>
      <trkpt lat="46.85849" lon="5.90086">
        <ele>641.2</ele>
        <time>2020-02-12T15:45:45Z</time>
      </trkpt>
      <trkpt lat="46.85849" lon="5.90079">
        <ele>641.3</ele>
        <time>2020-02-12T15:45:51Z</time>
      </trkpt>
      <trkpt lat="46.85849" lon="5.90071">
        <ele>640.8</ele>
        <time>2020-02-12T15:45:56Z</time>
      </trkpt>
      <trkpt lat="46.85849" lon="5.90064">
        <ele>640.2</ele>
        <time>2020-02-12T15:46:00Z</time>
      </trkpt>
      <trkpt lat="46.8585" lon="5.9005">
        <ele>637.8</ele>
        <time>2020-02-12T15:46:13Z</time>
      </trkpt>
      <trkpt lat="46.85839" lon="5.90024">
        <ele>636.9</ele>
        <time>2020-02-12T15:46:32Z</time>
      </trkpt>
      <trkpt lat="46.85836" lon="5.90018">
        <ele>637.5</ele>
        <time>2020-02-12T15:46:36Z</time>
      </trkpt>
      <trkpt lat="46.85827" lon="5.9">
        <ele>640</ele>
        <time>2020-02-12T15:46:50Z</time>
      </trkpt>
      <trkpt lat="46.85825" lon="5.89992">
        <ele>639.8</ele>
        <time>2020-02-12T15:46:55Z</time>
      </trkpt>
      <trkpt lat="46.85825" lon="5.89984">
        <ele>639.5</ele>
        <time>2020-02-12T15:46:59Z</time>
      </trkpt>
      <trkpt lat="46.85823" lon="5.89976">
        <ele>639.3</ele>
        <time>2020-02-12T15:47:02Z</time>
      </trkpt>
      <trkpt lat="46.85821" lon="5.89969">
        <ele>639.1</ele>
        <time>2020-02-12T15:47:07Z</time>
      </trkpt>
      <trkpt lat="46.85819" lon="5.89963">
        <ele>638.7</ele>
        <time>2020-02-12T15:47:12Z</time>
      </trkpt>
      <trkpt lat="46.85817" lon="5.89957">
        <ele>638.6</ele>
        <time>2020-02-12T15:47:17Z</time>
      </trkpt>
      <trkpt lat="46.85815" lon="5.8995">
        <ele>638.8</ele>
        <time>2020-02-12T15:47:22Z</time>
      </trkpt>
      <trkpt lat="46.85811" lon="5.89945">
        <ele>638.7</ele>
        <time>2020-02-12T15:47:27Z</time>
      </trkpt>
      <trkpt lat="46.85807" lon="5.89939">
        <ele>638.3</ele>
        <time>2020-02-12T15:47:32Z</time>
      </trkpt>
      <trkpt lat="46.85805" lon="5.89933">
        <ele>637.3</ele>
        <time>2020-02-12T15:47:38Z</time>
      </trkpt>
      <trkpt lat="46.85803" lon="5.89924">
        <ele>636.2</ele>
        <time>2020-02-12T15:47:42Z</time>
      </trkpt>
      <trkpt lat="46.85801" lon="5.89917">
        <ele>634.8</ele>
        <time>2020-02-12T15:47:46Z</time>
      </trkpt>
      <trkpt lat="46.85799" lon="5.89911">
        <ele>633.2</ele>
        <time>2020-02-12T15:47:51Z</time>
      </trkpt>
      <trkpt lat="46.85798" lon="5.89904">
        <ele>632</ele>
        <time>2020-02-12T15:47:56Z</time>
      </trkpt>
      <trkpt lat="46.85795" lon="5.89898">
        <ele>631.3</ele>
        <time>2020-02-12T15:48:00Z</time>
      </trkpt>
      <trkpt lat="46.85792" lon="5.89889">
        <ele>630.8</ele>
        <time>2020-02-12T15:48:04Z</time>
      </trkpt>
      <trkpt lat="46.8579" lon="5.89883">
        <ele>630.7</ele>
        <time>2020-02-12T15:48:07Z</time>
      </trkpt>
      <trkpt lat="46.85786" lon="5.89878">
        <ele>630.5</ele>
        <time>2020-02-12T15:48:10Z</time>
      </trkpt>
      <trkpt lat="46.85783" lon="5.89872">
        <ele>630</ele>
        <time>2020-02-12T15:48:15Z</time>
      </trkpt>
      <trkpt lat="46.8578" lon="5.89867">
        <ele>629.9</ele>
        <time>2020-02-12T15:48:18Z</time>
      </trkpt>
      <trkpt lat="46.85778" lon="5.89861">
        <ele>629.9</ele>
        <time>2020-02-12T15:48:22Z</time>
      </trkpt>
      <trkpt lat="46.85777" lon="5.89852">
        <ele>629.8</ele>
        <time>2020-02-12T15:48:25Z</time>
      </trkpt>
      <trkpt lat="46.85778" lon="5.89846">
        <ele>629.9</ele>
        <time>2020-02-12T15:48:27Z</time>
      </trkpt>
      <trkpt lat="46.85778" lon="5.89838">
        <ele>629.9</ele>
        <time>2020-02-12T15:48:30Z</time>
      </trkpt>
      <trkpt lat="46.85778" lon="5.89831">
        <ele>629.4</ele>
        <time>2020-02-12T15:48:35Z</time>
      </trkpt>
      <trkpt lat="46.85779" lon="5.89824">
        <ele>627.7</ele>
        <time>2020-02-12T15:48:44Z</time>
      </trkpt>
      <trkpt lat="46.85774" lon="5.89823">
        <ele>626.6</ele>
        <time>2020-02-12T15:48:52Z</time>
      </trkpt>
      <trkpt lat="46.85769" lon="5.89822">
        <ele>624.7</ele>
        <time>2020-02-12T15:49:00Z</time>
      </trkpt>
      <trkpt lat="46.85766" lon="5.89818">
        <ele>624.3</ele>
        <time>2020-02-12T15:49:03Z</time>
      </trkpt>
    </trkseg>
  </trk>
</gpx>